<?xml version="1.0" encoding="utf-8"?>
<gpx creator="Wikiloc - https://www.wikiloc.com; modified by GPX Track Cleaner from GPX Viewer plugin (WordPress) " version="1.1" xmlns="http://www.topografix.com/GPX/1/1" xmlns:xsi="http://www.w3.org/2001/XMLSchema-instance" xsi:schemaLocation="http://www.topografix.com/GPX/1/1 http://www.topografix.com/GPX/1/1/gpx.xsd">

	<trk>
		<name>14.Kintoan Barna URKIAGA-EUGI BTT OFICIAL</name>
		<cmt> distance: 22 km, up: 2016 m, down: 2298 m</cmt>
		<desc>1 track points, , elevation data replaced</desc>
		<trkseg>
			<trkpt lat="43.035973" lon="-1.470222">
				<ele>922</ele>
				<time>2019-11-25T17:39:27Z</time>
			</trkpt>
			<trkpt lat="43.03594" lon="-1.470245">
				<ele>922</ele>
				<time>2019-11-25T17:39:47Z</time>
			</trkpt>
			<trkpt lat="43.035918" lon="-1.470098">
				<ele>922</ele>
				<time>2019-11-25T17:40:07Z</time>
			</trkpt>
			<trkpt lat="43.035862" lon="-1.469978">
				<ele>922</ele>
				<time>2019-11-25T17:40:27Z</time>
			</trkpt>
			<trkpt lat="43.035826" lon="-1.469828">
				<ele>922</ele>
				<time>2019-11-25T17:40:47Z</time>
			</trkpt>
			<trkpt lat="43.035783" lon="-1.46967">
				<ele>922</ele>
				<time>2019-11-25T17:41:07Z</time>
			</trkpt>
			<trkpt lat="43.035716" lon="-1.469524">
				<ele>922</ele>
				<time>2019-11-25T17:41:27Z</time>
			</trkpt>
			<trkpt lat="43.035639" lon="-1.469413">
				<ele>922</ele>
				<time>2019-11-25T17:41:47Z</time>
			</trkpt>
			<trkpt lat="43.035529" lon="-1.469319">
				<ele>922</ele>
				<time>2019-11-25T17:42:07Z</time>
			</trkpt>
			<trkpt lat="43.035413" lon="-1.46916">
				<ele>894</ele>
				<time>2019-11-25T17:42:27Z</time>
			</trkpt>
			<trkpt lat="43.035347" lon="-1.46901">
				<ele>894</ele>
				<time>2019-11-25T17:42:47Z</time>
			</trkpt>
			<trkpt lat="43.035278" lon="-1.468898">
				<ele>894</ele>
				<time>2019-11-25T17:43:07Z</time>
			</trkpt>
			<trkpt lat="43.035216" lon="-1.468767">
				<ele>894</ele>
				<time>2019-11-25T17:43:27Z</time>
			</trkpt>
			<trkpt lat="43.035154" lon="-1.468629">
				<ele>922</ele>
				<time>2019-11-25T17:43:47Z</time>
			</trkpt>
			<trkpt lat="43.035086" lon="-1.468482">
				<ele>922</ele>
				<time>2019-11-25T17:44:07Z</time>
			</trkpt>
			<trkpt lat="43.035036" lon="-1.468334">
				<ele>922</ele>
				<time>2019-11-25T17:44:27Z</time>
			</trkpt>
			<trkpt lat="43.034997" lon="-1.468183">
				<ele>922</ele>
				<time>2019-11-25T17:44:47Z</time>
			</trkpt>
			<trkpt lat="43.034974" lon="-1.468017">
				<ele>922</ele>
				<time>2019-11-25T17:45:07Z</time>
			</trkpt>
			<trkpt lat="43.034961" lon="-1.467838">
				<ele>922</ele>
				<time>2019-11-25T17:45:27Z</time>
			</trkpt>
			<trkpt lat="43.034935" lon="-1.467658">
				<ele>922</ele>
				<time>2019-11-25T17:45:47Z</time>
			</trkpt>
			<trkpt lat="43.03489" lon="-1.46751">
				<ele>922</ele>
				<time>2019-11-25T17:46:07Z</time>
			</trkpt>
			<trkpt lat="43.03482" lon="-1.467352">
				<ele>922</ele>
				<time>2019-11-25T17:46:27Z</time>
			</trkpt>
			<trkpt lat="43.03479" lon="-1.467177">
				<ele>922</ele>
				<time>2019-11-25T17:46:47Z</time>
			</trkpt>
			<trkpt lat="43.034822" lon="-1.466947">
				<ele>922</ele>
				<time>2019-11-25T17:47:07Z</time>
			</trkpt>
			<trkpt lat="43.034848" lon="-1.466787">
				<ele>922</ele>
				<time>2019-11-25T17:47:27Z</time>
			</trkpt>
			<trkpt lat="43.034873" lon="-1.466622">
				<ele>950</ele>
				<time>2019-11-25T17:47:47Z</time>
			</trkpt>
			<trkpt lat="43.034893" lon="-1.466446">
				<ele>950</ele>
				<time>2019-11-25T17:48:07Z</time>
			</trkpt>
			<trkpt lat="43.034896" lon="-1.46628">
				<ele>950</ele>
				<time>2019-11-25T17:48:27Z</time>
			</trkpt>
			<trkpt lat="43.0349" lon="-1.466095">
				<ele>950</ele>
				<time>2019-11-25T17:48:47Z</time>
			</trkpt>
			<trkpt lat="43.034915" lon="-1.465926">
				<ele>950</ele>
				<time>2019-11-25T17:49:07Z</time>
			</trkpt>
			<trkpt lat="43.034936" lon="-1.465742">
				<ele>950</ele>
				<time>2019-11-25T17:49:27Z</time>
			</trkpt>
			<trkpt lat="43.034956" lon="-1.465571">
				<ele>950</ele>
				<time>2019-11-25T17:49:47Z</time>
			</trkpt>
			<trkpt lat="43.034982" lon="-1.465382">
				<ele>950</ele>
				<time>2019-11-25T17:50:07Z</time>
			</trkpt>
			<trkpt lat="43.034999" lon="-1.465207">
				<ele>950</ele>
				<time>2019-11-25T17:50:27Z</time>
			</trkpt>
			<trkpt lat="43.035002" lon="-1.465027">
				<ele>950</ele>
				<time>2019-11-25T17:50:47Z</time>
			</trkpt>
			<trkpt lat="43.034937" lon="-1.464885">
				<ele>950</ele>
				<time>2019-11-25T17:51:07Z</time>
			</trkpt>
			<trkpt lat="43.034799" lon="-1.464801">
				<ele>950</ele>
				<time>2019-11-25T17:51:27Z</time>
			</trkpt>
			<trkpt lat="43.034679" lon="-1.464766">
				<ele>950</ele>
				<time>2019-11-25T17:51:47Z</time>
			</trkpt>
			<trkpt lat="43.034544" lon="-1.464787">
				<ele>950</ele>
				<time>2019-11-25T17:52:07Z</time>
			</trkpt>
			<trkpt lat="43.034429" lon="-1.464802">
				<ele>950</ele>
				<time>2019-11-25T17:52:27Z</time>
			</trkpt>
			<trkpt lat="43.034307" lon="-1.464788">
				<ele>950</ele>
				<time>2019-11-25T17:52:47Z</time>
			</trkpt>
			<trkpt lat="43.034142" lon="-1.464729">
				<ele>950</ele>
				<time>2019-11-25T17:53:07Z</time>
			</trkpt>
			<trkpt lat="43.034018" lon="-1.464685">
				<ele>950</ele>
				<time>2019-11-25T17:53:27Z</time>
			</trkpt>
			<trkpt lat="43.03389" lon="-1.464617">
				<ele>950</ele>
				<time>2019-11-25T17:53:47Z</time>
			</trkpt>
			<trkpt lat="43.033772" lon="-1.464515">
				<ele>1019</ele>
				<time>2019-11-25T17:54:07Z</time>
			</trkpt>
			<trkpt lat="43.03372" lon="-1.464374">
				<ele>1019</ele>
				<time>2019-11-25T17:54:27Z</time>
			</trkpt>
			<trkpt lat="43.033757" lon="-1.464342">
				<ele>1019</ele>
				<time>2019-11-25T17:54:47Z</time>
			</trkpt>
			<trkpt lat="43.033904" lon="-1.464359">
				<ele>1019</ele>
				<time>2019-11-25T17:55:07Z</time>
			</trkpt>
			<trkpt lat="43.033992" lon="-1.464373">
				<ele>1019</ele>
				<time>2019-11-25T17:55:27Z</time>
			</trkpt>
			<trkpt lat="43.034105" lon="-1.464382">
				<ele>1019</ele>
				<time>2019-11-25T17:55:47Z</time>
			</trkpt>
			<trkpt lat="43.034244" lon="-1.46437">
				<ele>1019</ele>
				<time>2019-11-25T17:56:07Z</time>
			</trkpt>
			<trkpt lat="43.034356" lon="-1.464332">
				<ele>1019</ele>
				<time>2019-11-25T17:56:27Z</time>
			</trkpt>
			<trkpt lat="43.034472" lon="-1.464267">
				<ele>1019</ele>
				<time>2019-11-25T17:56:47Z</time>
			</trkpt>
			<trkpt lat="43.034587" lon="-1.464189">
				<ele>1019</ele>
				<time>2019-11-25T17:57:07Z</time>
			</trkpt>
			<trkpt lat="43.034707" lon="-1.464145">
				<ele>1019</ele>
				<time>2019-11-25T17:57:27Z</time>
			</trkpt>
			<trkpt lat="43.034828" lon="-1.46409">
				<ele>1019</ele>
				<time>2019-11-25T17:57:47Z</time>
			</trkpt>
			<trkpt lat="43.034946" lon="-1.464053">
				<ele>1019</ele>
				<time>2019-11-25T17:58:07Z</time>
			</trkpt>
			<trkpt lat="43.035072" lon="-1.464008">
				<ele>1019</ele>
				<time>2019-11-25T17:58:27Z</time>
			</trkpt>
			<trkpt lat="43.035218" lon="-1.46396">
				<ele>1019</ele>
				<time>2019-11-25T17:58:47Z</time>
			</trkpt>
			<trkpt lat="43.035408" lon="-1.463945">
				<ele>1019</ele>
				<time>2019-11-25T17:59:07Z</time>
			</trkpt>
			<trkpt lat="43.035569" lon="-1.463988">
				<ele>1009</ele>
				<time>2019-11-25T17:59:27Z</time>
			</trkpt>
			<trkpt lat="43.035644" lon="-1.464101">
				<ele>1009</ele>
				<time>2019-11-25T17:59:47Z</time>
			</trkpt>
			<trkpt lat="43.035734" lon="-1.464067">
				<ele>1009</ele>
				<time>2019-11-25T18:00:07Z</time>
			</trkpt>
			<trkpt lat="43.035769" lon="-1.463936">
				<ele>1009</ele>
				<time>2019-11-25T18:00:27Z</time>
			</trkpt>
			<trkpt lat="43.035781" lon="-1.463763">
				<ele>1009</ele>
				<time>2019-11-25T18:00:47Z</time>
			</trkpt>
			<trkpt lat="43.035772" lon="-1.463611">
				<ele>1009</ele>
				<time>2019-11-25T18:01:07Z</time>
			</trkpt>
			<trkpt lat="43.035712" lon="-1.463457">
				<ele>1009</ele>
				<time>2019-11-25T18:01:27Z</time>
			</trkpt>
			<trkpt lat="43.035635" lon="-1.463314">
				<ele>1009</ele>
				<time>2019-11-25T18:01:47Z</time>
			</trkpt>
			<trkpt lat="43.035561" lon="-1.463204">
				<ele>1009</ele>
				<time>2019-11-25T18:02:07Z</time>
			</trkpt>
			<trkpt lat="43.035495" lon="-1.463097">
				<ele>1009</ele>
				<time>2019-11-25T18:02:27Z</time>
			</trkpt>
			<trkpt lat="43.035412" lon="-1.463016">
				<ele>1019</ele>
				<time>2019-11-25T18:02:47Z</time>
			</trkpt>
			<trkpt lat="43.035308" lon="-1.462976">
				<ele>1019</ele>
				<time>2019-11-25T18:03:07Z</time>
			</trkpt>
			<trkpt lat="43.035208" lon="-1.462937">
				<ele>1019</ele>
				<time>2019-11-25T18:03:27Z</time>
			</trkpt>
			<trkpt lat="43.035088" lon="-1.462871">
				<ele>1019</ele>
				<time>2019-11-25T18:03:47Z</time>
			</trkpt>
			<trkpt lat="43.034954" lon="-1.462813">
				<ele>1019</ele>
				<time>2019-11-25T18:04:07Z</time>
			</trkpt>
			<trkpt lat="43.034816" lon="-1.462794">
				<ele>1019</ele>
				<time>2019-11-25T18:04:27Z</time>
			</trkpt>
			<trkpt lat="43.034692" lon="-1.462753">
				<ele>1019</ele>
				<time>2019-11-25T18:04:47Z</time>
			</trkpt>
			<trkpt lat="43.034559" lon="-1.462729">
				<ele>1019</ele>
				<time>2019-11-25T18:05:07Z</time>
			</trkpt>
			<trkpt lat="43.03444" lon="-1.462664">
				<ele>1019</ele>
				<time>2019-11-25T18:05:27Z</time>
			</trkpt>
			<trkpt lat="43.034318" lon="-1.462581">
				<ele>1019</ele>
				<time>2019-11-25T18:05:47Z</time>
			</trkpt>
			<trkpt lat="43.034196" lon="-1.462497">
				<ele>1061</ele>
				<time>2019-11-25T18:06:07Z</time>
			</trkpt>
			<trkpt lat="43.034097" lon="-1.462358">
				<ele>1061</ele>
				<time>2019-11-25T18:06:27Z</time>
			</trkpt>
			<trkpt lat="43.034011" lon="-1.462228">
				<ele>1061</ele>
				<time>2019-11-25T18:06:47Z</time>
			</trkpt>
			<trkpt lat="43.033954" lon="-1.462073">
				<ele>1061</ele>
				<time>2019-11-25T18:07:07Z</time>
			</trkpt>
			<trkpt lat="43.033897" lon="-1.461902">
				<ele>1061</ele>
				<time>2019-11-25T18:07:27Z</time>
			</trkpt>
			<trkpt lat="43.033847" lon="-1.461736">
				<ele>1061</ele>
				<time>2019-11-25T18:07:47Z</time>
			</trkpt>
			<trkpt lat="43.033812" lon="-1.461563">
				<ele>1061</ele>
				<time>2019-11-25T18:08:07Z</time>
			</trkpt>
			<trkpt lat="43.033799" lon="-1.461375">
				<ele>1061</ele>
				<time>2019-11-25T18:08:27Z</time>
			</trkpt>
			<trkpt lat="43.033791" lon="-1.461182">
				<ele>1061</ele>
				<time>2019-11-25T18:08:47Z</time>
			</trkpt>
			<trkpt lat="43.03379" lon="-1.461008">
				<ele>1061</ele>
				<time>2019-11-25T18:09:07Z</time>
			</trkpt>
			<trkpt lat="43.033796" lon="-1.460853">
				<ele>1061</ele>
				<time>2019-11-25T18:09:27Z</time>
			</trkpt>
			<trkpt lat="43.03382" lon="-1.460693">
				<ele>1061</ele>
				<time>2019-11-25T18:09:47Z</time>
			</trkpt>
			<trkpt lat="43.033854" lon="-1.460519">
				<ele>1061</ele>
				<time>2019-11-25T18:10:07Z</time>
			</trkpt>
			<trkpt lat="43.033897" lon="-1.460339">
				<ele>1063</ele>
				<time>2019-11-25T18:10:27Z</time>
			</trkpt>
			<trkpt lat="43.033933" lon="-1.460168">
				<ele>1063</ele>
				<time>2019-11-25T18:10:47Z</time>
			</trkpt>
			<trkpt lat="43.033975" lon="-1.46001">
				<ele>1063</ele>
				<time>2019-11-25T18:11:07Z</time>
			</trkpt>
			<trkpt lat="43.034016" lon="-1.459851">
				<ele>1063</ele>
				<time>2019-11-25T18:11:27Z</time>
			</trkpt>
			<trkpt lat="43.034048" lon="-1.459672">
				<ele>1063</ele>
				<time>2019-11-25T18:11:47Z</time>
			</trkpt>
			<trkpt lat="43.034071" lon="-1.459512">
				<ele>1063</ele>
				<time>2019-11-25T18:12:07Z</time>
			</trkpt>
			<trkpt lat="43.034066" lon="-1.459366">
				<ele>1063</ele>
				<time>2019-11-25T18:12:27Z</time>
			</trkpt>
			<trkpt lat="43.034088" lon="-1.459204">
				<ele>1063</ele>
				<time>2019-11-25T18:12:47Z</time>
			</trkpt>
			<trkpt lat="43.034107" lon="-1.459052">
				<ele>1063</ele>
				<time>2019-11-25T18:13:07Z</time>
			</trkpt>
			<trkpt lat="43.034091" lon="-1.458832">
				<ele>1063</ele>
				<time>2019-11-25T18:13:27Z</time>
			</trkpt>
			<trkpt lat="43.034036" lon="-1.458648">
				<ele>1063</ele>
				<time>2019-11-25T18:13:47Z</time>
			</trkpt>
			<trkpt lat="43.03402" lon="-1.458444">
				<ele>1063</ele>
				<time>2019-11-25T18:14:07Z</time>
			</trkpt>
			<trkpt lat="43.03399" lon="-1.458196">
				<ele>1055</ele>
				<time>2019-11-25T18:14:27Z</time>
			</trkpt>
			<trkpt lat="43.033937" lon="-1.458016">
				<ele>1055</ele>
				<time>2019-11-25T18:14:47Z</time>
			</trkpt>
			<trkpt lat="43.033894" lon="-1.457847">
				<ele>1055</ele>
				<time>2019-11-25T18:15:07Z</time>
			</trkpt>
			<trkpt lat="43.033878" lon="-1.457679">
				<ele>1055</ele>
				<time>2019-11-25T18:15:27Z</time>
			</trkpt>
			<trkpt lat="43.033857" lon="-1.457537">
				<ele>1055</ele>
				<time>2019-11-25T18:15:47Z</time>
			</trkpt>
			<trkpt lat="43.033831" lon="-1.457357">
				<ele>1055</ele>
				<time>2019-11-25T18:16:07Z</time>
			</trkpt>
			<trkpt lat="43.033804" lon="-1.457221">
				<ele>1055</ele>
				<time>2019-11-25T18:16:27Z</time>
			</trkpt>
			<trkpt lat="43.033747" lon="-1.457096">
				<ele>1055</ele>
				<time>2019-11-25T18:16:47Z</time>
			</trkpt>
			<trkpt lat="43.033657" lon="-1.456975">
				<ele>1055</ele>
				<time>2019-11-25T18:17:07Z</time>
			</trkpt>
			<trkpt lat="43.033556" lon="-1.456841">
				<ele>1055</ele>
				<time>2019-11-25T18:17:27Z</time>
			</trkpt>
			<trkpt lat="43.033464" lon="-1.456658">
				<ele>1055</ele>
				<time>2019-11-25T18:17:47Z</time>
			</trkpt>
			<trkpt lat="43.033383" lon="-1.456484">
				<ele>1055</ele>
				<time>2019-11-25T18:18:07Z</time>
			</trkpt>
			<trkpt lat="43.033313" lon="-1.456341">
				<ele>1054</ele>
				<time>2019-11-25T18:18:27Z</time>
			</trkpt>
			<trkpt lat="43.033212" lon="-1.456183">
				<ele>1086</ele>
				<time>2019-11-25T18:18:47Z</time>
			</trkpt>
			<trkpt lat="43.033107" lon="-1.456032">
				<ele>1086</ele>
				<time>2019-11-25T18:19:07Z</time>
			</trkpt>
			<trkpt lat="43.033004" lon="-1.455883">
				<ele>1086</ele>
				<time>2019-11-25T18:19:27Z</time>
			</trkpt>
			<trkpt lat="43.032859" lon="-1.455732">
				<ele>1086</ele>
				<time>2019-11-25T18:19:47Z</time>
			</trkpt>
			<trkpt lat="43.032729" lon="-1.45562">
				<ele>1086</ele>
				<time>2019-11-25T18:20:07Z</time>
			</trkpt>
			<trkpt lat="43.032604" lon="-1.455524">
				<ele>1086</ele>
				<time>2019-11-25T18:20:27Z</time>
			</trkpt>
			<trkpt lat="43.032471" lon="-1.455448">
				<ele>1086</ele>
				<time>2019-11-25T18:20:47Z</time>
			</trkpt>
			<trkpt lat="43.032335" lon="-1.455352">
				<ele>1086</ele>
				<time>2019-11-25T18:21:07Z</time>
			</trkpt>
			<trkpt lat="43.032174" lon="-1.455295">
				<ele>1086</ele>
				<time>2019-11-25T18:21:27Z</time>
			</trkpt>
			<trkpt lat="43.032048" lon="-1.4552">
				<ele>1086</ele>
				<time>2019-11-25T18:21:47Z</time>
			</trkpt>
			<trkpt lat="43.031927" lon="-1.455092">
				<ele>1086</ele>
				<time>2019-11-25T18:22:07Z</time>
			</trkpt>
			<trkpt lat="43.031785" lon="-1.454936">
				<ele>1086</ele>
				<time>2019-11-25T18:22:27Z</time>
			</trkpt>
			<trkpt lat="43.03169" lon="-1.454807">
				<ele>1086</ele>
				<time>2019-11-25T18:22:47Z</time>
			</trkpt>
			<trkpt lat="43.031621" lon="-1.454682">
				<ele>1086</ele>
				<time>2019-11-25T18:23:07Z</time>
			</trkpt>
			<trkpt lat="43.031532" lon="-1.454562">
				<ele>1086</ele>
				<time>2019-11-25T18:23:27Z</time>
			</trkpt>
			<trkpt lat="43.031449" lon="-1.4544">
				<ele>1086</ele>
				<time>2019-11-25T18:23:47Z</time>
			</trkpt>
			<trkpt lat="43.031354" lon="-1.454262">
				<ele>1086</ele>
				<time>2019-11-25T18:24:07Z</time>
			</trkpt>
			<trkpt lat="43.031235" lon="-1.454181">
				<ele>1044</ele>
				<time>2019-11-25T18:24:27Z</time>
			</trkpt>
			<trkpt lat="43.031107" lon="-1.454116">
				<ele>1096</ele>
				<time>2019-11-25T18:24:47Z</time>
			</trkpt>
			<trkpt lat="43.030987" lon="-1.454018">
				<ele>1096</ele>
				<time>2019-11-25T18:25:07Z</time>
			</trkpt>
			<trkpt lat="43.030879" lon="-1.453881">
				<ele>1096</ele>
				<time>2019-11-25T18:25:27Z</time>
			</trkpt>
			<trkpt lat="43.030775" lon="-1.453733">
				<ele>1096</ele>
				<time>2019-11-25T18:25:47Z</time>
			</trkpt>
			<trkpt lat="43.030693" lon="-1.453637">
				<ele>1096</ele>
				<time>2019-11-25T18:26:07Z</time>
			</trkpt>
			<trkpt lat="43.030607" lon="-1.453538">
				<ele>1096</ele>
				<time>2019-11-25T18:26:27Z</time>
			</trkpt>
			<trkpt lat="43.030492" lon="-1.45345">
				<ele>1096</ele>
				<time>2019-11-25T18:26:47Z</time>
			</trkpt>
			<trkpt lat="43.030398" lon="-1.453324">
				<ele>1096</ele>
				<time>2019-11-25T18:27:07Z</time>
			</trkpt>
			<trkpt lat="43.03032" lon="-1.453208">
				<ele>1096</ele>
				<time>2019-11-25T18:27:27Z</time>
			</trkpt>
			<trkpt lat="43.030255" lon="-1.45308">
				<ele>1096</ele>
				<time>2019-11-25T18:27:47Z</time>
			</trkpt>
			<trkpt lat="43.030223" lon="-1.452935">
				<ele>1096</ele>
				<time>2019-11-25T18:28:07Z</time>
			</trkpt>
			<trkpt lat="43.030198" lon="-1.452795">
				<ele>1096</ele>
				<time>2019-11-25T18:28:27Z</time>
			</trkpt>
			<trkpt lat="43.030165" lon="-1.452646">
				<ele>1096</ele>
				<time>2019-11-25T18:28:47Z</time>
			</trkpt>
			<trkpt lat="43.030108" lon="-1.452515">
				<ele>1096</ele>
				<time>2019-11-25T18:29:07Z</time>
			</trkpt>
			<trkpt lat="43.030021" lon="-1.452451">
				<ele>1096</ele>
				<time>2019-11-25T18:29:27Z</time>
			</trkpt>
			<trkpt lat="43.029908" lon="-1.452357">
				<ele>1096</ele>
				<time>2019-11-25T18:29:47Z</time>
			</trkpt>
			<trkpt lat="43.029811" lon="-1.452282">
				<ele>1096</ele>
				<time>2019-11-25T18:30:07Z</time>
			</trkpt>
			<trkpt lat="43.0297" lon="-1.452202">
				<ele>1096</ele>
				<time>2019-11-25T18:30:27Z</time>
			</trkpt>
			<trkpt lat="43.029609" lon="-1.45211">
				<ele>1096</ele>
				<time>2019-11-25T18:30:47Z</time>
			</trkpt>
			<trkpt lat="43.029532" lon="-1.45202">
				<ele>1116</ele>
				<time>2019-11-25T18:31:07Z</time>
			</trkpt>
			<trkpt lat="43.029407" lon="-1.451905">
				<ele>1116</ele>
				<time>2019-11-25T18:31:27Z</time>
			</trkpt>
			<trkpt lat="43.029313" lon="-1.451825">
				<ele>1116</ele>
				<time>2019-11-25T18:31:47Z</time>
			</trkpt>
			<trkpt lat="43.029223" lon="-1.451742">
				<ele>1116</ele>
				<time>2019-11-25T18:32:07Z</time>
			</trkpt>
			<trkpt lat="43.029102" lon="-1.451643">
				<ele>1091</ele>
				<time>2019-11-25T18:32:27Z</time>
			</trkpt>
			<trkpt lat="43.028999" lon="-1.451559">
				<ele>1091</ele>
				<time>2019-11-25T18:32:47Z</time>
			</trkpt>
			<trkpt lat="43.028874" lon="-1.45144">
				<ele>1091</ele>
				<time>2019-11-25T18:33:07Z</time>
			</trkpt>
			<trkpt lat="43.028777" lon="-1.451336">
				<ele>1091</ele>
				<time>2019-11-25T18:33:27Z</time>
			</trkpt>
			<trkpt lat="43.028694" lon="-1.451212">
				<ele>1091</ele>
				<time>2019-11-25T18:33:47Z</time>
			</trkpt>
			<trkpt lat="43.02859" lon="-1.451093">
				<ele>1091</ele>
				<time>2019-11-25T18:34:07Z</time>
			</trkpt>
			<trkpt lat="43.028473" lon="-1.451006">
				<ele>1091</ele>
				<time>2019-11-25T18:34:27Z</time>
			</trkpt>
			<trkpt lat="43.028368" lon="-1.450916">
				<ele>1091</ele>
				<time>2019-11-25T18:34:47Z</time>
			</trkpt>
			<trkpt lat="43.028262" lon="-1.450826">
				<ele>1091</ele>
				<time>2019-11-25T18:35:07Z</time>
			</trkpt>
			<trkpt lat="43.02815" lon="-1.450864">
				<ele>1091</ele>
				<time>2019-11-25T18:35:27Z</time>
			</trkpt>
			<trkpt lat="43.028122" lon="-1.450988">
				<ele>1091</ele>
				<time>2019-11-25T18:35:47Z</time>
			</trkpt>
			<trkpt lat="43.028108" lon="-1.451137">
				<ele>1091</ele>
				<time>2019-11-25T18:36:07Z</time>
			</trkpt>
			<trkpt lat="43.028071" lon="-1.451285">
				<ele>1091</ele>
				<time>2019-11-25T18:36:27Z</time>
			</trkpt>
			<trkpt lat="43.028025" lon="-1.451433">
				<ele>1091</ele>
				<time>2019-11-25T18:36:47Z</time>
			</trkpt>
			<trkpt lat="43.027953" lon="-1.45157">
				<ele>1091</ele>
				<time>2019-11-25T18:37:07Z</time>
			</trkpt>
			<trkpt lat="43.027863" lon="-1.451638">
				<ele>1091</ele>
				<time>2019-11-25T18:37:27Z</time>
			</trkpt>
			<trkpt lat="43.027732" lon="-1.451716">
				<ele>1091</ele>
				<time>2019-11-25T18:37:47Z</time>
			</trkpt>
			<trkpt lat="43.027603" lon="-1.451785">
				<ele>1091</ele>
				<time>2019-11-25T18:38:07Z</time>
			</trkpt>
			<trkpt lat="43.027456" lon="-1.451909">
				<ele>1091</ele>
				<time>2019-11-25T18:38:27Z</time>
			</trkpt>
			<trkpt lat="43.027336" lon="-1.452044">
				<ele>1091</ele>
				<time>2019-11-25T18:38:47Z</time>
			</trkpt>
			<trkpt lat="43.027205" lon="-1.452145">
				<ele>1055</ele>
				<time>2019-11-25T18:39:07Z</time>
			</trkpt>
			<trkpt lat="43.027078" lon="-1.452243">
				<ele>1107</ele>
				<time>2019-11-25T18:39:27Z</time>
			</trkpt>
			<trkpt lat="43.026963" lon="-1.452329">
				<ele>1107</ele>
				<time>2019-11-25T18:39:47Z</time>
			</trkpt>
			<trkpt lat="43.026834" lon="-1.452454">
				<ele>1107</ele>
				<time>2019-11-25T18:40:07Z</time>
			</trkpt>
			<trkpt lat="43.026734" lon="-1.452642">
				<ele>1107</ele>
				<time>2019-11-25T18:40:27Z</time>
			</trkpt>
			<trkpt lat="43.02666" lon="-1.452787">
				<ele>1107</ele>
				<time>2019-11-25T18:40:47Z</time>
			</trkpt>
			<trkpt lat="43.026601" lon="-1.452975">
				<ele>1107</ele>
				<time>2019-11-25T18:41:07Z</time>
			</trkpt>
			<trkpt lat="43.026559" lon="-1.45315">
				<ele>1107</ele>
				<time>2019-11-25T18:41:27Z</time>
			</trkpt>
			<trkpt lat="43.026492" lon="-1.453339">
				<ele>1107</ele>
				<time>2019-11-25T18:41:47Z</time>
			</trkpt>
			<trkpt lat="43.026426" lon="-1.45349">
				<ele>1107</ele>
				<time>2019-11-25T18:42:07Z</time>
			</trkpt>
			<trkpt lat="43.026332" lon="-1.453595">
				<ele>1107</ele>
				<time>2019-11-25T18:42:27Z</time>
			</trkpt>
			<trkpt lat="43.026215" lon="-1.453658">
				<ele>1107</ele>
				<time>2019-11-25T18:42:47Z</time>
			</trkpt>
			<trkpt lat="43.026104" lon="-1.453741">
				<ele>1107</ele>
				<time>2019-11-25T18:43:07Z</time>
			</trkpt>
			<trkpt lat="43.025988" lon="-1.453789">
				<ele>1107</ele>
				<time>2019-11-25T18:43:27Z</time>
			</trkpt>
			<trkpt lat="43.025846" lon="-1.453857">
				<ele>1107</ele>
				<time>2019-11-25T18:43:47Z</time>
			</trkpt>
			<trkpt lat="43.025729" lon="-1.453902">
				<ele>1107</ele>
				<time>2019-11-25T18:44:07Z</time>
			</trkpt>
			<trkpt lat="43.025598" lon="-1.453962">
				<ele>1107</ele>
				<time>2019-11-25T18:44:27Z</time>
			</trkpt>
			<trkpt lat="43.025527" lon="-1.454112">
				<ele>1107</ele>
				<time>2019-11-25T18:44:47Z</time>
			</trkpt>
			<trkpt lat="43.025464" lon="-1.45427">
				<ele>1073</ele>
				<time>2019-11-25T18:45:07Z</time>
			</trkpt>
			<trkpt lat="43.025379" lon="-1.4544">
				<ele>1073</ele>
				<time>2019-11-25T18:45:27Z</time>
			</trkpt>
			<trkpt lat="43.025307" lon="-1.454505">
				<ele>1073</ele>
				<time>2019-11-25T18:45:47Z</time>
			</trkpt>
			<trkpt lat="43.025229" lon="-1.454606">
				<ele>1073</ele>
				<time>2019-11-25T18:46:07Z</time>
			</trkpt>
			<trkpt lat="43.025151" lon="-1.454691">
				<ele>1073</ele>
				<time>2019-11-25T18:46:27Z</time>
			</trkpt>
			<trkpt lat="43.025072" lon="-1.454796">
				<ele>1073</ele>
				<time>2019-11-25T18:46:47Z</time>
			</trkpt>
			<trkpt lat="43.024984" lon="-1.45488">
				<ele>1148</ele>
				<time>2019-11-25T18:47:07Z</time>
			</trkpt>
			<trkpt lat="43.024888" lon="-1.454966">
				<ele>1148</ele>
				<time>2019-11-25T18:47:27Z</time>
			</trkpt>
			<trkpt lat="43.0248" lon="-1.45504">
				<ele>1148</ele>
				<time>2019-11-25T18:47:47Z</time>
			</trkpt>
			<trkpt lat="43.02471" lon="-1.455138">
				<ele>1148</ele>
				<time>2019-11-25T18:48:07Z</time>
			</trkpt>
			<trkpt lat="43.024617" lon="-1.455267">
				<ele>1148</ele>
				<time>2019-11-25T18:48:27Z</time>
			</trkpt>
			<trkpt lat="43.024525" lon="-1.45539">
				<ele>1148</ele>
				<time>2019-11-25T18:48:47Z</time>
			</trkpt>
			<trkpt lat="43.024444" lon="-1.455526">
				<ele>1148</ele>
				<time>2019-11-25T18:49:07Z</time>
			</trkpt>
			<trkpt lat="43.024374" lon="-1.45567">
				<ele>1148</ele>
				<time>2019-11-25T18:49:27Z</time>
			</trkpt>
			<trkpt lat="43.024295" lon="-1.45582">
				<ele>1148</ele>
				<time>2019-11-25T18:49:47Z</time>
			</trkpt>
			<trkpt lat="43.02423" lon="-1.455987">
				<ele>1148</ele>
				<time>2019-11-25T18:50:07Z</time>
			</trkpt>
			<trkpt lat="43.024194" lon="-1.456133">
				<ele>1148</ele>
				<time>2019-11-25T18:50:27Z</time>
			</trkpt>
			<trkpt lat="43.024152" lon="-1.456273">
				<ele>1106</ele>
				<time>2019-11-25T18:50:47Z</time>
			</trkpt>
			<trkpt lat="43.024081" lon="-1.456371">
				<ele>1106</ele>
				<time>2019-11-25T18:51:07Z</time>
			</trkpt>
			<trkpt lat="43.024001" lon="-1.456456">
				<ele>1106</ele>
				<time>2019-11-25T18:51:27Z</time>
			</trkpt>
			<trkpt lat="43.023913" lon="-1.456519">
				<ele>1106</ele>
				<time>2019-11-25T18:51:47Z</time>
			</trkpt>
			<trkpt lat="43.023825" lon="-1.45657">
				<ele>1106</ele>
				<time>2019-11-25T18:52:07Z</time>
			</trkpt>
			<trkpt lat="43.023731" lon="-1.456614">
				<ele>1106</ele>
				<time>2019-11-25T18:52:27Z</time>
			</trkpt>
			<trkpt lat="43.023637" lon="-1.45666">
				<ele>1106</ele>
				<time>2019-11-25T18:52:47Z</time>
			</trkpt>
			<trkpt lat="43.023537" lon="-1.456677">
				<ele>1106</ele>
				<time>2019-11-25T18:53:07Z</time>
			</trkpt>
			<trkpt lat="43.023441" lon="-1.45672">
				<ele>1106</ele>
				<time>2019-11-25T18:53:27Z</time>
			</trkpt>
			<trkpt lat="43.02335" lon="-1.456745">
				<ele>1106</ele>
				<time>2019-11-25T18:53:47Z</time>
			</trkpt>
			<trkpt lat="43.023262" lon="-1.456781">
				<ele>1106</ele>
				<time>2019-11-25T18:54:07Z</time>
			</trkpt>
			<trkpt lat="43.023162" lon="-1.456842">
				<ele>1106</ele>
				<time>2019-11-25T18:54:27Z</time>
			</trkpt>
			<trkpt lat="43.023072" lon="-1.456887">
				<ele>1106</ele>
				<time>2019-11-25T18:54:47Z</time>
			</trkpt>
			<trkpt lat="43.022978" lon="-1.456913">
				<ele>1106</ele>
				<time>2019-11-25T18:55:07Z</time>
			</trkpt>
			<trkpt lat="43.022888" lon="-1.45695">
				<ele>1150</ele>
				<time>2019-11-25T18:55:27Z</time>
			</trkpt>
			<trkpt lat="43.022776" lon="-1.456985">
				<ele>1150</ele>
				<time>2019-11-25T18:55:47Z</time>
			</trkpt>
			<trkpt lat="43.022668" lon="-1.457008">
				<ele>1150</ele>
				<time>2019-11-25T18:56:07Z</time>
			</trkpt>
			<trkpt lat="43.022558" lon="-1.457049">
				<ele>1150</ele>
				<time>2019-11-25T18:56:27Z</time>
			</trkpt>
			<trkpt lat="43.022454" lon="-1.457072">
				<ele>1150</ele>
				<time>2019-11-25T18:56:47Z</time>
			</trkpt>
			<trkpt lat="43.022361" lon="-1.457083">
				<ele>1150</ele>
				<time>2019-11-25T18:57:07Z</time>
			</trkpt>
			<trkpt lat="43.022259" lon="-1.457112">
				<ele>1150</ele>
				<time>2019-11-25T18:57:27Z</time>
			</trkpt>
			<trkpt lat="43.022154" lon="-1.457143">
				<ele>1150</ele>
				<time>2019-11-25T18:57:47Z</time>
			</trkpt>
			<trkpt lat="43.022069" lon="-1.457212">
				<ele>1150</ele>
				<time>2019-11-25T18:58:07Z</time>
			</trkpt>
			<trkpt lat="43.021969" lon="-1.457255">
				<ele>1150</ele>
				<time>2019-11-25T18:58:27Z</time>
			</trkpt>
			<trkpt lat="43.021868" lon="-1.457318">
				<ele>1150</ele>
				<time>2019-11-25T18:58:47Z</time>
			</trkpt>
			<trkpt lat="43.021774" lon="-1.457391">
				<ele>1150</ele>
				<time>2019-11-25T18:59:07Z</time>
			</trkpt>
			<trkpt lat="43.02167" lon="-1.457453">
				<ele>1150</ele>
				<time>2019-11-25T18:59:27Z</time>
			</trkpt>
			<trkpt lat="43.021555" lon="-1.457508">
				<ele>1150</ele>
				<time>2019-11-25T18:59:47Z</time>
			</trkpt>
			<trkpt lat="43.021446" lon="-1.45756">
				<ele>1150</ele>
				<time>2019-11-25T19:00:07Z</time>
			</trkpt>
			<trkpt lat="43.021341" lon="-1.45759">
				<ele>1150</ele>
				<time>2019-11-25T19:00:27Z</time>
			</trkpt>
			<trkpt lat="43.021352" lon="-1.457482">
				<ele>1150</ele>
				<time>2019-11-25T19:00:47Z</time>
			</trkpt>
			<trkpt lat="43.021419" lon="-1.457381">
				<ele>1150</ele>
				<time>2019-11-25T19:01:07Z</time>
			</trkpt>
			<trkpt lat="43.021499" lon="-1.457289">
				<ele>1150</ele>
				<time>2019-11-25T19:01:27Z</time>
			</trkpt>
			<trkpt lat="43.021583" lon="-1.457188">
				<ele>1150</ele>
				<time>2019-11-25T19:01:47Z</time>
			</trkpt>
			<trkpt lat="43.021661" lon="-1.457086">
				<ele>1150</ele>
				<time>2019-11-25T19:02:07Z</time>
			</trkpt>
			<trkpt lat="43.021718" lon="-1.456963">
				<ele>1150</ele>
				<time>2019-11-25T19:02:27Z</time>
			</trkpt>
			<trkpt lat="43.02179" lon="-1.456864">
				<ele>1150</ele>
				<time>2019-11-25T19:02:47Z</time>
			</trkpt>
			<trkpt lat="43.021873" lon="-1.456774">
				<ele>1150</ele>
				<time>2019-11-25T19:03:07Z</time>
			</trkpt>
			<trkpt lat="43.021956" lon="-1.456673">
				<ele>1150</ele>
				<time>2019-11-25T19:03:27Z</time>
			</trkpt>
			<trkpt lat="43.022056" lon="-1.456579">
				<ele>1150</ele>
				<time>2019-11-25T19:03:47Z</time>
			</trkpt>
			<trkpt lat="43.022154" lon="-1.456499">
				<ele>1150</ele>
				<time>2019-11-25T19:04:07Z</time>
			</trkpt>
			<trkpt lat="43.022264" lon="-1.456424">
				<ele>1150</ele>
				<time>2019-11-25T19:04:27Z</time>
			</trkpt>
			<trkpt lat="43.022357" lon="-1.456311">
				<ele>1150</ele>
				<time>2019-11-25T19:04:47Z</time>
			</trkpt>
			<trkpt lat="43.02232" lon="-1.456239">
				<ele>1199</ele>
				<time>2019-11-25T19:05:07Z</time>
			</trkpt>
			<trkpt lat="43.022241" lon="-1.456243">
				<ele>1199</ele>
				<time>2019-11-25T19:05:27Z</time>
			</trkpt>
			<trkpt lat="43.022144" lon="-1.456233">
				<ele>1199</ele>
				<time>2019-11-25T19:05:47Z</time>
			</trkpt>
			<trkpt lat="43.02203" lon="-1.456281">
				<ele>1150</ele>
				<time>2019-11-25T19:06:07Z</time>
			</trkpt>
			<trkpt lat="43.021925" lon="-1.456328">
				<ele>1150</ele>
				<time>2019-11-25T19:06:27Z</time>
			</trkpt>
			<trkpt lat="43.021811" lon="-1.456367">
				<ele>1150</ele>
				<time>2019-11-25T19:06:47Z</time>
			</trkpt>
			<trkpt lat="43.021675" lon="-1.456387">
				<ele>1150</ele>
				<time>2019-11-25T19:07:07Z</time>
			</trkpt>
			<trkpt lat="43.02152" lon="-1.456414">
				<ele>1150</ele>
				<time>2019-11-25T19:07:27Z</time>
			</trkpt>
			<trkpt lat="43.021366" lon="-1.456417">
				<ele>1150</ele>
				<time>2019-11-25T19:07:47Z</time>
			</trkpt>
			<trkpt lat="43.021249" lon="-1.456354">
				<ele>1150</ele>
				<time>2019-11-25T19:08:07Z</time>
			</trkpt>
			<trkpt lat="43.021146" lon="-1.456254">
				<ele>1150</ele>
				<time>2019-11-25T19:08:27Z</time>
			</trkpt>
			<trkpt lat="43.02109" lon="-1.456142">
				<ele>1199</ele>
				<time>2019-11-25T19:08:47Z</time>
			</trkpt>
			<trkpt lat="43.021034" lon="-1.455994">
				<ele>1199</ele>
				<time>2019-11-25T19:09:07Z</time>
			</trkpt>
			<trkpt lat="43.020952" lon="-1.45585">
				<ele>1199</ele>
				<time>2019-11-25T19:09:27Z</time>
			</trkpt>
			<trkpt lat="43.020878" lon="-1.455687">
				<ele>1199</ele>
				<time>2019-11-25T19:09:47Z</time>
			</trkpt>
			<trkpt lat="43.020776" lon="-1.455529">
				<ele>1138</ele>
				<time>2019-11-25T19:10:07Z</time>
			</trkpt>
			<trkpt lat="43.020653" lon="-1.455314">
				<ele>1138</ele>
				<time>2019-11-25T19:10:27Z</time>
			</trkpt>
			<trkpt lat="43.020493" lon="-1.45509">
				<ele>1138</ele>
				<time>2019-11-25T19:10:47Z</time>
			</trkpt>
			<trkpt lat="43.020321" lon="-1.454867">
				<ele>1138</ele>
				<time>2019-11-25T19:11:07Z</time>
			</trkpt>
			<trkpt lat="43.020024" lon="-1.454514">
				<ele>1138</ele>
				<time>2019-11-25T19:11:27Z</time>
			</trkpt>
			<trkpt lat="43.019901" lon="-1.454375">
				<ele>1138</ele>
				<time>2019-11-25T19:11:47Z</time>
			</trkpt>
			<trkpt lat="43.019669" lon="-1.454261">
				<ele>1138</ele>
				<time>2019-11-25T19:12:07Z</time>
			</trkpt>
			<trkpt lat="43.019548" lon="-1.454189">
				<ele>1138</ele>
				<time>2019-11-25T19:12:27Z</time>
			</trkpt>
			<trkpt lat="43.019325" lon="-1.454095">
				<ele>1232</ele>
				<time>2019-11-25T19:12:47Z</time>
			</trkpt>
			<trkpt lat="43.019145" lon="-1.454035">
				<ele>1232</ele>
				<time>2019-11-25T19:13:07Z</time>
			</trkpt>
			<trkpt lat="43.01897" lon="-1.454003">
				<ele>1232</ele>
				<time>2019-11-25T19:13:27Z</time>
			</trkpt>
			<trkpt lat="43.01881" lon="-1.453939">
				<ele>1232</ele>
				<time>2019-11-25T19:13:47Z</time>
			</trkpt>
			<trkpt lat="43.018584" lon="-1.453869">
				<ele>1209</ele>
				<time>2019-11-25T19:14:07Z</time>
			</trkpt>
			<trkpt lat="43.01836" lon="-1.453819">
				<ele>1209</ele>
				<time>2019-11-25T19:14:27Z</time>
			</trkpt>
			<trkpt lat="43.018148" lon="-1.453773">
				<ele>1209</ele>
				<time>2019-11-25T19:14:47Z</time>
			</trkpt>
			<trkpt lat="43.017837" lon="-1.453707">
				<ele>1209</ele>
				<time>2019-11-25T19:15:07Z</time>
			</trkpt>
			<trkpt lat="43.017625" lon="-1.453722">
				<ele>1209</ele>
				<time>2019-11-25T19:15:27Z</time>
			</trkpt>
			<trkpt lat="43.017434" lon="-1.453697">
				<ele>1209</ele>
				<time>2019-11-25T19:15:47Z</time>
			</trkpt>
			<trkpt lat="43.017288" lon="-1.453602">
				<ele>1209</ele>
				<time>2019-11-25T19:16:07Z</time>
			</trkpt>
			<trkpt lat="43.017166" lon="-1.453463">
				<ele>1209</ele>
				<time>2019-11-25T19:16:27Z</time>
			</trkpt>
			<trkpt lat="43.01708" lon="-1.453271">
				<ele>1209</ele>
				<time>2019-11-25T19:16:47Z</time>
			</trkpt>
			<trkpt lat="43.017025" lon="-1.453026">
				<ele>1209</ele>
				<time>2019-11-25T19:17:07Z</time>
			</trkpt>
			<trkpt lat="43.016942" lon="-1.452852">
				<ele>1209</ele>
				<time>2019-11-25T19:17:27Z</time>
			</trkpt>
			<trkpt lat="43.016881" lon="-1.452739">
				<ele>1209</ele>
				<time>2019-11-25T19:17:47Z</time>
			</trkpt>
			<trkpt lat="43.016761" lon="-1.452516">
				<ele>1209</ele>
				<time>2019-11-25T19:18:07Z</time>
			</trkpt>
			<trkpt lat="43.016673" lon="-1.452319">
				<ele>1209</ele>
				<time>2019-11-25T19:18:27Z</time>
			</trkpt>
			<trkpt lat="43.016483" lon="-1.452138">
				<ele>1126</ele>
				<time>2019-11-25T19:18:47Z</time>
			</trkpt>
			<trkpt lat="43.016276" lon="-1.452028">
				<ele>1201</ele>
				<time>2019-11-25T19:19:07Z</time>
			</trkpt>
			<trkpt lat="43.016166" lon="-1.451968">
				<ele>1201</ele>
				<time>2019-11-25T19:19:27Z</time>
			</trkpt>
			<trkpt lat="43.016008" lon="-1.451945">
				<ele>1201</ele>
				<time>2019-11-25T19:19:47Z</time>
			</trkpt>
			<trkpt lat="43.015801" lon="-1.451929">
				<ele>1201</ele>
				<time>2019-11-25T19:20:07Z</time>
			</trkpt>
			<trkpt lat="43.015609" lon="-1.451958">
				<ele>1201</ele>
				<time>2019-11-25T19:20:27Z</time>
			</trkpt>
			<trkpt lat="43.015426" lon="-1.452024">
				<ele>1201</ele>
				<time>2019-11-25T19:20:47Z</time>
			</trkpt>
			<trkpt lat="43.015211" lon="-1.452051">
				<ele>1201</ele>
				<time>2019-11-25T19:21:07Z</time>
			</trkpt>
			<trkpt lat="43.015075" lon="-1.45208">
				<ele>1201</ele>
				<time>2019-11-25T19:21:27Z</time>
			</trkpt>
			<trkpt lat="43.014954" lon="-1.452077">
				<ele>1201</ele>
				<time>2019-11-25T19:21:47Z</time>
			</trkpt>
			<trkpt lat="43.014669" lon="-1.452061">
				<ele>1201</ele>
				<time>2019-11-25T19:22:07Z</time>
			</trkpt>
			<trkpt lat="43.0145" lon="-1.452073">
				<ele>1162</ele>
				<time>2019-11-25T19:22:27Z</time>
			</trkpt>
			<trkpt lat="43.014336" lon="-1.452057">
				<ele>1162</ele>
				<time>2019-11-25T19:22:47Z</time>
			</trkpt>
			<trkpt lat="43.014211" lon="-1.452046">
				<ele>1162</ele>
				<time>2019-11-25T19:23:07Z</time>
			</trkpt>
			<trkpt lat="43.014109" lon="-1.452047">
				<ele>1162</ele>
				<time>2019-11-25T19:23:27Z</time>
			</trkpt>
			<trkpt lat="43.013974" lon="-1.452041">
				<ele>1162</ele>
				<time>2019-11-25T19:23:47Z</time>
			</trkpt>
			<trkpt lat="43.01383" lon="-1.452037">
				<ele>1162</ele>
				<time>2019-11-25T19:24:07Z</time>
			</trkpt>
			<trkpt lat="43.013762" lon="-1.452019">
				<ele>1162</ele>
				<time>2019-11-25T19:24:27Z</time>
			</trkpt>
			<trkpt lat="43.013674" lon="-1.452011">
				<ele>1162</ele>
				<time>2019-11-25T19:24:47Z</time>
			</trkpt>
			<trkpt lat="43.013605" lon="-1.452081">
				<ele>1162</ele>
				<time>2019-11-25T19:25:07Z</time>
			</trkpt>
			<trkpt lat="43.013489" lon="-1.452257">
				<ele>1165</ele>
				<time>2019-11-25T19:25:27Z</time>
			</trkpt>
			<trkpt lat="43.013432" lon="-1.452386">
				<ele>1165</ele>
				<time>2019-11-25T19:25:47Z</time>
			</trkpt>
			<trkpt lat="43.013376" lon="-1.452515">
				<ele>1165</ele>
				<time>2019-11-25T19:26:07Z</time>
			</trkpt>
			<trkpt lat="43.013324" lon="-1.452634">
				<ele>1165</ele>
				<time>2019-11-25T19:26:27Z</time>
			</trkpt>
			<trkpt lat="43.013263" lon="-1.45276">
				<ele>1165</ele>
				<time>2019-11-25T19:26:47Z</time>
			</trkpt>
			<trkpt lat="43.01323" lon="-1.452884">
				<ele>1165</ele>
				<time>2019-11-25T19:27:07Z</time>
			</trkpt>
			<trkpt lat="43.013177" lon="-1.45301">
				<ele>1165</ele>
				<time>2019-11-25T19:27:27Z</time>
			</trkpt>
			<trkpt lat="43.013128" lon="-1.453308">
				<ele>1165</ele>
				<time>2019-11-25T19:27:47Z</time>
			</trkpt>
			<trkpt lat="43.013085" lon="-1.453477">
				<ele>1165</ele>
				<time>2019-11-25T19:28:07Z</time>
			</trkpt>
			<trkpt lat="43.013002" lon="-1.453846">
				<ele>1165</ele>
				<time>2019-11-25T19:28:27Z</time>
			</trkpt>
			<trkpt lat="43.012985" lon="-1.453994">
				<ele>1165</ele>
				<time>2019-11-25T19:28:47Z</time>
			</trkpt>
			<trkpt lat="43.012959" lon="-1.454159">
				<ele>1165</ele>
				<time>2019-11-25T19:29:07Z</time>
			</trkpt>
			<trkpt lat="43.01294" lon="-1.454299">
				<ele>1125</ele>
				<time>2019-11-25T19:29:27Z</time>
			</trkpt>
			<trkpt lat="43.012907" lon="-1.454448">
				<ele>1125</ele>
				<time>2019-11-25T19:29:47Z</time>
			</trkpt>
			<trkpt lat="43.012873" lon="-1.454595">
				<ele>1125</ele>
				<time>2019-11-25T19:30:07Z</time>
			</trkpt>
			<trkpt lat="43.01283" lon="-1.454752">
				<ele>1125</ele>
				<time>2019-11-25T19:30:27Z</time>
			</trkpt>
			<trkpt lat="43.012806" lon="-1.454886">
				<ele>1125</ele>
				<time>2019-11-25T19:30:47Z</time>
			</trkpt>
			<trkpt lat="43.012788" lon="-1.45505">
				<ele>1125</ele>
				<time>2019-11-25T19:31:07Z</time>
			</trkpt>
			<trkpt lat="43.012759" lon="-1.455194">
				<ele>1125</ele>
				<time>2019-11-25T19:31:27Z</time>
			</trkpt>
			<trkpt lat="43.012734" lon="-1.455332">
				<ele>1125</ele>
				<time>2019-11-25T19:31:47Z</time>
			</trkpt>
			<trkpt lat="43.012699" lon="-1.455465">
				<ele>1125</ele>
				<time>2019-11-25T19:32:07Z</time>
			</trkpt>
			<trkpt lat="43.012657" lon="-1.455614">
				<ele>1125</ele>
				<time>2019-11-25T19:32:27Z</time>
			</trkpt>
			<trkpt lat="43.012631" lon="-1.455779">
				<ele>1125</ele>
				<time>2019-11-25T19:32:47Z</time>
			</trkpt>
			<trkpt lat="43.01259" lon="-1.455956">
				<ele>1125</ele>
				<time>2019-11-25T19:33:07Z</time>
			</trkpt>
			<trkpt lat="43.012556" lon="-1.456096">
				<ele>1125</ele>
				<time>2019-11-25T19:33:27Z</time>
			</trkpt>
			<trkpt lat="43.012526" lon="-1.456276">
				<ele>1108</ele>
				<time>2019-11-25T19:33:47Z</time>
			</trkpt>
			<trkpt lat="43.012493" lon="-1.456441">
				<ele>1132</ele>
				<time>2019-11-25T19:34:07Z</time>
			</trkpt>
			<trkpt lat="43.012435" lon="-1.456554">
				<ele>1132</ele>
				<time>2019-11-25T19:34:27Z</time>
			</trkpt>
			<trkpt lat="43.01237" lon="-1.456667">
				<ele>1132</ele>
				<time>2019-11-25T19:34:47Z</time>
			</trkpt>
			<trkpt lat="43.012289" lon="-1.456762">
				<ele>1132</ele>
				<time>2019-11-25T19:35:07Z</time>
			</trkpt>
			<trkpt lat="43.012206" lon="-1.45686">
				<ele>1132</ele>
				<time>2019-11-25T19:35:27Z</time>
			</trkpt>
			<trkpt lat="43.012127" lon="-1.45694">
				<ele>1132</ele>
				<time>2019-11-25T19:35:47Z</time>
			</trkpt>
			<trkpt lat="43.012029" lon="-1.457032">
				<ele>1132</ele>
				<time>2019-11-25T19:36:07Z</time>
			</trkpt>
			<trkpt lat="43.011915" lon="-1.457152">
				<ele>1132</ele>
				<time>2019-11-25T19:36:27Z</time>
			</trkpt>
			<trkpt lat="43.011779" lon="-1.457261">
				<ele>1132</ele>
				<time>2019-11-25T19:36:47Z</time>
			</trkpt>
			<trkpt lat="43.011679" lon="-1.457382">
				<ele>1132</ele>
				<time>2019-11-25T19:37:07Z</time>
			</trkpt>
			<trkpt lat="43.011588" lon="-1.45753">
				<ele>1132</ele>
				<time>2019-11-25T19:37:27Z</time>
			</trkpt>
			<trkpt lat="43.011492" lon="-1.457638">
				<ele>1132</ele>
				<time>2019-11-25T19:37:47Z</time>
			</trkpt>
			<trkpt lat="43.011448" lon="-1.457826">
				<ele>1132</ele>
				<time>2019-11-25T19:38:07Z</time>
			</trkpt>
			<trkpt lat="43.011382" lon="-1.457994">
				<ele>1132</ele>
				<time>2019-11-25T19:38:27Z</time>
			</trkpt>
			<trkpt lat="43.011243" lon="-1.45822">
				<ele>1132</ele>
				<time>2019-11-25T19:38:47Z</time>
			</trkpt>
			<trkpt lat="43.011073" lon="-1.458608">
				<ele>1164</ele>
				<time>2019-11-25T19:39:07Z</time>
			</trkpt>
			<trkpt lat="43.010999" lon="-1.458738">
				<ele>1164</ele>
				<time>2019-11-25T19:39:27Z</time>
			</trkpt>
			<trkpt lat="43.010934" lon="-1.458855">
				<ele>1164</ele>
				<time>2019-11-25T19:39:47Z</time>
			</trkpt>
			<trkpt lat="43.010879" lon="-1.458989">
				<ele>1164</ele>
				<time>2019-11-25T19:40:07Z</time>
			</trkpt>
			<trkpt lat="43.010842" lon="-1.459137">
				<ele>1164</ele>
				<time>2019-11-25T19:40:27Z</time>
			</trkpt>
			<trkpt lat="43.010791" lon="-1.459301">
				<ele>1164</ele>
				<time>2019-11-25T19:40:47Z</time>
			</trkpt>
			<trkpt lat="43.010752" lon="-1.459466">
				<ele>1164</ele>
				<time>2019-11-25T19:41:07Z</time>
			</trkpt>
			<trkpt lat="43.010724" lon="-1.459633">
				<ele>1164</ele>
				<time>2019-11-25T19:41:27Z</time>
			</trkpt>
			<trkpt lat="43.010682" lon="-1.459798">
				<ele>1164</ele>
				<time>2019-11-25T19:41:47Z</time>
			</trkpt>
			<trkpt lat="43.010635" lon="-1.459966">
				<ele>1164</ele>
				<time>2019-11-25T19:42:07Z</time>
			</trkpt>
			<trkpt lat="43.010577" lon="-1.460132">
				<ele>1164</ele>
				<time>2019-11-25T19:42:27Z</time>
			</trkpt>
			<trkpt lat="43.010511" lon="-1.460284">
				<ele>1164</ele>
				<time>2019-11-25T19:42:47Z</time>
			</trkpt>
			<trkpt lat="43.010476" lon="-1.460437">
				<ele>1156</ele>
				<time>2019-11-25T19:43:07Z</time>
			</trkpt>
			<trkpt lat="43.01043" lon="-1.460602">
				<ele>1156</ele>
				<time>2019-11-25T19:43:27Z</time>
			</trkpt>
			<trkpt lat="43.010386" lon="-1.460745">
				<ele>1101</ele>
				<time>2019-11-25T19:43:47Z</time>
			</trkpt>
			<trkpt lat="43.010322" lon="-1.460876">
				<ele>1101</ele>
				<time>2019-11-25T19:44:07Z</time>
			</trkpt>
			<trkpt lat="43.010243" lon="-1.461056">
				<ele>1101</ele>
				<time>2019-11-25T19:44:27Z</time>
			</trkpt>
			<trkpt lat="43.010168" lon="-1.461186">
				<ele>1101</ele>
				<time>2019-11-25T19:44:47Z</time>
			</trkpt>
			<trkpt lat="43.010075" lon="-1.461334">
				<ele>1101</ele>
				<time>2019-11-25T19:45:07Z</time>
			</trkpt>
			<trkpt lat="43.010021" lon="-1.461455">
				<ele>1101</ele>
				<time>2019-11-25T19:45:27Z</time>
			</trkpt>
			<trkpt lat="43.00997" lon="-1.461596">
				<ele>1101</ele>
				<time>2019-11-25T19:45:47Z</time>
			</trkpt>
			<trkpt lat="43.009921" lon="-1.461728">
				<ele>1101</ele>
				<time>2019-11-25T19:46:07Z</time>
			</trkpt>
			<trkpt lat="43.009876" lon="-1.461875">
				<ele>1101</ele>
				<time>2019-11-25T19:46:27Z</time>
			</trkpt>
			<trkpt lat="43.009822" lon="-1.462018">
				<ele>1101</ele>
				<time>2019-11-25T19:46:47Z</time>
			</trkpt>
			<trkpt lat="43.009767" lon="-1.462164">
				<ele>1101</ele>
				<time>2019-11-25T19:47:07Z</time>
			</trkpt>
			<trkpt lat="43.009724" lon="-1.462318">
				<ele>1101</ele>
				<time>2019-11-25T19:47:27Z</time>
			</trkpt>
			<trkpt lat="43.009646" lon="-1.462435">
				<ele>1101</ele>
				<time>2019-11-25T19:47:47Z</time>
			</trkpt>
			<trkpt lat="43.009635" lon="-1.462549">
				<ele>1113</ele>
				<time>2019-11-25T19:48:07Z</time>
			</trkpt>
			<trkpt lat="43.009537" lon="-1.46277">
				<ele>1113</ele>
				<time>2019-11-25T19:48:27Z</time>
			</trkpt>
			<trkpt lat="43.009471" lon="-1.463059">
				<ele>1113</ele>
				<time>2019-11-25T19:48:47Z</time>
			</trkpt>
			<trkpt lat="43.009436" lon="-1.463198">
				<ele>1113</ele>
				<time>2019-11-25T19:49:07Z</time>
			</trkpt>
			<trkpt lat="43.009381" lon="-1.463329">
				<ele>1113</ele>
				<time>2019-11-25T19:49:27Z</time>
			</trkpt>
			<trkpt lat="43.009296" lon="-1.463572">
				<ele>1113</ele>
				<time>2019-11-25T19:49:47Z</time>
			</trkpt>
			<trkpt lat="43.009219" lon="-1.463677">
				<ele>1113</ele>
				<time>2019-11-25T19:50:07Z</time>
			</trkpt>
			<trkpt lat="43.009126" lon="-1.463734">
				<ele>1113</ele>
				<time>2019-11-25T19:50:27Z</time>
			</trkpt>
			<trkpt lat="43.008966" lon="-1.463937">
				<ele>1113</ele>
				<time>2019-11-25T19:50:47Z</time>
			</trkpt>
			<trkpt lat="43.008776" lon="-1.464152">
				<ele>1113</ele>
				<time>2019-11-25T19:51:07Z</time>
			</trkpt>
			<trkpt lat="43.00861" lon="-1.464361">
				<ele>1113</ele>
				<time>2019-11-25T19:51:27Z</time>
			</trkpt>
			<trkpt lat="43.00843" lon="-1.464585">
				<ele>1063</ele>
				<time>2019-11-25T19:51:47Z</time>
			</trkpt>
			<trkpt lat="43.008185" lon="-1.464855">
				<ele>1079</ele>
				<time>2019-11-25T19:52:07Z</time>
			</trkpt>
			<trkpt lat="43.008107" lon="-1.464976">
				<ele>1079</ele>
				<time>2019-11-25T19:52:27Z</time>
			</trkpt>
			<trkpt lat="43.008028" lon="-1.465094">
				<ele>1079</ele>
				<time>2019-11-25T19:52:47Z</time>
			</trkpt>
			<trkpt lat="43.00793" lon="-1.4652">
				<ele>1079</ele>
				<time>2019-11-25T19:53:07Z</time>
			</trkpt>
			<trkpt lat="43.007846" lon="-1.465311">
				<ele>1079</ele>
				<time>2019-11-25T19:53:27Z</time>
			</trkpt>
			<trkpt lat="43.007795" lon="-1.465432">
				<ele>1079</ele>
				<time>2019-11-25T19:53:47Z</time>
			</trkpt>
			<trkpt lat="43.007714" lon="-1.465501">
				<ele>1079</ele>
				<time>2019-11-25T19:54:07Z</time>
			</trkpt>
			<trkpt lat="43.007644" lon="-1.4656">
				<ele>1079</ele>
				<time>2019-11-25T19:54:27Z</time>
			</trkpt>
			<trkpt lat="43.007558" lon="-1.46572">
				<ele>1079</ele>
				<time>2019-11-25T19:54:47Z</time>
			</trkpt>
			<trkpt lat="43.007474" lon="-1.466141">
				<ele>1079</ele>
				<time>2019-11-25T19:55:07Z</time>
			</trkpt>
			<trkpt lat="43.00746" lon="-1.466519">
				<ele>1079</ele>
				<time>2019-11-25T19:55:27Z</time>
			</trkpt>
			<trkpt lat="43.007449" lon="-1.466709">
				<ele>1104</ele>
				<time>2019-11-25T19:55:47Z</time>
			</trkpt>
			<trkpt lat="43.00745" lon="-1.466976">
				<ele>1104</ele>
				<time>2019-11-25T19:56:07Z</time>
			</trkpt>
			<trkpt lat="43.007465" lon="-1.467159">
				<ele>1104</ele>
				<time>2019-11-25T19:56:27Z</time>
			</trkpt>
			<trkpt lat="43.007495" lon="-1.46731">
				<ele>1104</ele>
				<time>2019-11-25T19:56:47Z</time>
			</trkpt>
			<trkpt lat="43.007527" lon="-1.46745">
				<ele>1104</ele>
				<time>2019-11-25T19:57:07Z</time>
			</trkpt>
			<trkpt lat="43.007575" lon="-1.4676">
				<ele>1104</ele>
				<time>2019-11-25T19:57:27Z</time>
			</trkpt>
			<trkpt lat="43.007621" lon="-1.467749">
				<ele>1104</ele>
				<time>2019-11-25T19:57:47Z</time>
			</trkpt>
			<trkpt lat="43.007657" lon="-1.467914">
				<ele>1104</ele>
				<time>2019-11-25T19:58:07Z</time>
			</trkpt>
			<trkpt lat="43.007712" lon="-1.468205">
				<ele>1104</ele>
				<time>2019-11-25T19:58:27Z</time>
			</trkpt>
			<trkpt lat="43.007751" lon="-1.468394">
				<ele>1104</ele>
				<time>2019-11-25T19:58:47Z</time>
			</trkpt>
			<trkpt lat="43.007804" lon="-1.468575">
				<ele>1104</ele>
				<time>2019-11-25T19:59:07Z</time>
			</trkpt>
			<trkpt lat="43.00785" lon="-1.468752">
				<ele>1100</ele>
				<time>2019-11-25T19:59:27Z</time>
			</trkpt>
			<trkpt lat="43.007878" lon="-1.468966">
				<ele>1100</ele>
				<time>2019-11-25T19:59:47Z</time>
			</trkpt>
			<trkpt lat="43.007898" lon="-1.469147">
				<ele>1100</ele>
				<time>2019-11-25T20:00:07Z</time>
			</trkpt>
			<trkpt lat="43.007906" lon="-1.46932">
				<ele>1100</ele>
				<time>2019-11-25T20:00:27Z</time>
			</trkpt>
			<trkpt lat="43.007915" lon="-1.469488">
				<ele>1100</ele>
				<time>2019-11-25T20:00:47Z</time>
			</trkpt>
			<trkpt lat="43.007872" lon="-1.469601">
				<ele>1100</ele>
				<time>2019-11-25T20:01:07Z</time>
			</trkpt>
			<trkpt lat="43.007788" lon="-1.46976">
				<ele>1100</ele>
				<time>2019-11-25T20:01:27Z</time>
			</trkpt>
			<trkpt lat="43.007612" lon="-1.469923">
				<ele>1100</ele>
				<time>2019-11-25T20:01:47Z</time>
			</trkpt>
			<trkpt lat="43.00755" lon="-1.470029">
				<ele>1100</ele>
				<time>2019-11-25T20:02:07Z</time>
			</trkpt>
			<trkpt lat="43.007434" lon="-1.470158">
				<ele>1100</ele>
				<time>2019-11-25T20:02:27Z</time>
			</trkpt>
			<trkpt lat="43.007357" lon="-1.470238">
				<ele>1100</ele>
				<time>2019-11-25T20:02:47Z</time>
			</trkpt>
			<trkpt lat="43.007248" lon="-1.470312">
				<ele>1100</ele>
				<time>2019-11-25T20:03:07Z</time>
			</trkpt>
			<trkpt lat="43.007146" lon="-1.470332">
				<ele>1100</ele>
				<time>2019-11-25T20:03:27Z</time>
			</trkpt>
			<trkpt lat="43.007021" lon="-1.470454">
				<ele>1100</ele>
				<time>2019-11-25T20:03:47Z</time>
			</trkpt>
			<trkpt lat="43.006879" lon="-1.470525">
				<ele>1100</ele>
				<time>2019-11-25T20:04:07Z</time>
			</trkpt>
			<trkpt lat="43.006664" lon="-1.470641">
				<ele>1100</ele>
				<time>2019-11-25T20:04:27Z</time>
			</trkpt>
			<trkpt lat="43.00659" lon="-1.470709">
				<ele>1100</ele>
				<time>2019-11-25T20:04:47Z</time>
			</trkpt>
			<trkpt lat="43.00649" lon="-1.470777">
				<ele>1100</ele>
				<time>2019-11-25T20:05:07Z</time>
			</trkpt>
			<trkpt lat="43.006413" lon="-1.470873">
				<ele>1039</ele>
				<time>2019-11-25T20:05:27Z</time>
			</trkpt>
			<trkpt lat="43.006351" lon="-1.471031">
				<ele>1039</ele>
				<time>2019-11-25T20:05:47Z</time>
			</trkpt>
			<trkpt lat="43.006252" lon="-1.471137">
				<ele>1039</ele>
				<time>2019-11-25T20:06:07Z</time>
			</trkpt>
			<trkpt lat="43.006151" lon="-1.471184">
				<ele>1077</ele>
				<time>2019-11-25T20:06:27Z</time>
			</trkpt>
			<trkpt lat="43.006022" lon="-1.471266">
				<ele>1077</ele>
				<time>2019-11-25T20:06:47Z</time>
			</trkpt>
			<trkpt lat="43.005878" lon="-1.471525">
				<ele>1077</ele>
				<time>2019-11-25T20:07:07Z</time>
			</trkpt>
			<trkpt lat="43.005767" lon="-1.471714">
				<ele>1077</ele>
				<time>2019-11-25T20:07:27Z</time>
			</trkpt>
			<trkpt lat="43.005665" lon="-1.471877">
				<ele>1077</ele>
				<time>2019-11-25T20:07:47Z</time>
			</trkpt>
			<trkpt lat="43.005568" lon="-1.472002">
				<ele>1077</ele>
				<time>2019-11-25T20:08:07Z</time>
			</trkpt>
			<trkpt lat="43.00552" lon="-1.472137">
				<ele>1077</ele>
				<time>2019-11-25T20:08:27Z</time>
			</trkpt>
			<trkpt lat="43.005458" lon="-1.472303">
				<ele>1077</ele>
				<time>2019-11-25T20:08:47Z</time>
			</trkpt>
			<trkpt lat="43.005432" lon="-1.472478">
				<ele>1077</ele>
				<time>2019-11-25T20:09:07Z</time>
			</trkpt>
			<trkpt lat="43.00542" lon="-1.472652">
				<ele>1077</ele>
				<time>2019-11-25T20:09:27Z</time>
			</trkpt>
			<trkpt lat="43.005423" lon="-1.472813">
				<ele>1077</ele>
				<time>2019-11-25T20:09:47Z</time>
			</trkpt>
			<trkpt lat="43.005417" lon="-1.472983">
				<ele>1107</ele>
				<time>2019-11-25T20:10:07Z</time>
			</trkpt>
			<trkpt lat="43.005423" lon="-1.473148">
				<ele>1107</ele>
				<time>2019-11-25T20:10:27Z</time>
			</trkpt>
			<trkpt lat="43.005427" lon="-1.473323">
				<ele>1107</ele>
				<time>2019-11-25T20:10:47Z</time>
			</trkpt>
			<trkpt lat="43.005441" lon="-1.473503">
				<ele>1107</ele>
				<time>2019-11-25T20:11:07Z</time>
			</trkpt>
			<trkpt lat="43.005456" lon="-1.473703">
				<ele>1107</ele>
				<time>2019-11-25T20:11:27Z</time>
			</trkpt>
			<trkpt lat="43.005494" lon="-1.473901">
				<ele>1107</ele>
				<time>2019-11-25T20:11:47Z</time>
			</trkpt>
			<trkpt lat="43.00556" lon="-1.474118">
				<ele>1107</ele>
				<time>2019-11-25T20:12:07Z</time>
			</trkpt>
			<trkpt lat="43.00561" lon="-1.474285">
				<ele>1107</ele>
				<time>2019-11-25T20:12:27Z</time>
			</trkpt>
			<trkpt lat="43.005679" lon="-1.474445">
				<ele>1107</ele>
				<time>2019-11-25T20:12:47Z</time>
			</trkpt>
			<trkpt lat="43.005741" lon="-1.474613">
				<ele>1107</ele>
				<time>2019-11-25T20:13:07Z</time>
			</trkpt>
			<trkpt lat="43.00581" lon="-1.474785">
				<ele>1107</ele>
				<time>2019-11-25T20:13:27Z</time>
			</trkpt>
			<trkpt lat="43.005883" lon="-1.474951">
				<ele>1107</ele>
				<time>2019-11-25T20:13:47Z</time>
			</trkpt>
			<trkpt lat="43.005971" lon="-1.475102">
				<ele>1149</ele>
				<time>2019-11-25T20:14:07Z</time>
			</trkpt>
			<trkpt lat="43.006054" lon="-1.475235">
				<ele>1149</ele>
				<time>2019-11-25T20:14:27Z</time>
			</trkpt>
			<trkpt lat="43.00617" lon="-1.475382">
				<ele>1149</ele>
				<time>2019-11-25T20:14:47Z</time>
			</trkpt>
			<trkpt lat="43.006276" lon="-1.475532">
				<ele>1077</ele>
				<time>2019-11-25T20:15:07Z</time>
			</trkpt>
			<trkpt lat="43.006391" lon="-1.475667">
				<ele>1077</ele>
				<time>2019-11-25T20:15:27Z</time>
			</trkpt>
			<trkpt lat="43.006487" lon="-1.475804">
				<ele>1077</ele>
				<time>2019-11-25T20:15:47Z</time>
			</trkpt>
			<trkpt lat="43.006573" lon="-1.475934">
				<ele>1077</ele>
				<time>2019-11-25T20:16:07Z</time>
			</trkpt>
			<trkpt lat="43.006657" lon="-1.476097">
				<ele>1077</ele>
				<time>2019-11-25T20:16:27Z</time>
			</trkpt>
			<trkpt lat="43.006747" lon="-1.476241">
				<ele>1077</ele>
				<time>2019-11-25T20:16:47Z</time>
			</trkpt>
			<trkpt lat="43.00683" lon="-1.47635">
				<ele>1077</ele>
				<time>2019-11-25T20:17:07Z</time>
			</trkpt>
			<trkpt lat="43.006923" lon="-1.476474">
				<ele>1077</ele>
				<time>2019-11-25T20:17:27Z</time>
			</trkpt>
			<trkpt lat="43.007002" lon="-1.476555">
				<ele>1077</ele>
				<time>2019-11-25T20:17:47Z</time>
			</trkpt>
			<trkpt lat="43.007085" lon="-1.476652">
				<ele>1077</ele>
				<time>2019-11-25T20:18:07Z</time>
			</trkpt>
			<trkpt lat="43.007179" lon="-1.47677">
				<ele>1077</ele>
				<time>2019-11-25T20:18:27Z</time>
			</trkpt>
			<trkpt lat="43.007263" lon="-1.476882">
				<ele>1077</ele>
				<time>2019-11-25T20:18:47Z</time>
			</trkpt>
			<trkpt lat="43.007331" lon="-1.477003">
				<ele>1077</ele>
				<time>2019-11-25T20:19:07Z</time>
			</trkpt>
			<trkpt lat="43.007406" lon="-1.477177">
				<ele>1113</ele>
				<time>2019-11-25T20:19:27Z</time>
			</trkpt>
			<trkpt lat="43.007465" lon="-1.477318">
				<ele>1113</ele>
				<time>2019-11-25T20:19:47Z</time>
			</trkpt>
			<trkpt lat="43.007532" lon="-1.477456">
				<ele>1113</ele>
				<time>2019-11-25T20:20:07Z</time>
			</trkpt>
			<trkpt lat="43.00762" lon="-1.477609">
				<ele>1113</ele>
				<time>2019-11-25T20:20:27Z</time>
			</trkpt>
			<trkpt lat="43.007696" lon="-1.477778">
				<ele>1113</ele>
				<time>2019-11-25T20:20:47Z</time>
			</trkpt>
			<trkpt lat="43.007776" lon="-1.47792">
				<ele>1113</ele>
				<time>2019-11-25T20:21:07Z</time>
			</trkpt>
			<trkpt lat="43.007819" lon="-1.478092">
				<ele>1113</ele>
				<time>2019-11-25T20:21:27Z</time>
			</trkpt>
			<trkpt lat="43.007822" lon="-1.478243">
				<ele>1113</ele>
				<time>2019-11-25T20:21:47Z</time>
			</trkpt>
			<trkpt lat="43.007829" lon="-1.478411">
				<ele>1113</ele>
				<time>2019-11-25T20:22:07Z</time>
			</trkpt>
			<trkpt lat="43.007823" lon="-1.478589">
				<ele>1113</ele>
				<time>2019-11-25T20:22:27Z</time>
			</trkpt>
			<trkpt lat="43.007796" lon="-1.478794">
				<ele>1113</ele>
				<time>2019-11-25T20:22:47Z</time>
			</trkpt>
			<trkpt lat="43.007767" lon="-1.478963">
				<ele>1113</ele>
				<time>2019-11-25T20:23:07Z</time>
			</trkpt>
			<trkpt lat="43.007737" lon="-1.479139">
				<ele>1113</ele>
				<time>2019-11-25T20:23:27Z</time>
			</trkpt>
			<trkpt lat="43.007707" lon="-1.479278">
				<ele>1095</ele>
				<time>2019-11-25T20:23:47Z</time>
			</trkpt>
			<trkpt lat="43.007661" lon="-1.479445">
				<ele>1095</ele>
				<time>2019-11-25T20:24:07Z</time>
			</trkpt>
			<trkpt lat="43.007636" lon="-1.479592">
				<ele>1095</ele>
				<time>2019-11-25T20:24:27Z</time>
			</trkpt>
			<trkpt lat="43.007606" lon="-1.479741">
				<ele>1095</ele>
				<time>2019-11-25T20:24:47Z</time>
			</trkpt>
			<trkpt lat="43.007567" lon="-1.479921">
				<ele>1095</ele>
				<time>2019-11-25T20:25:07Z</time>
			</trkpt>
			<trkpt lat="43.007517" lon="-1.480103">
				<ele>1095</ele>
				<time>2019-11-25T20:25:27Z</time>
			</trkpt>
			<trkpt lat="43.007454" lon="-1.480301">
				<ele>1095</ele>
				<time>2019-11-25T20:25:47Z</time>
			</trkpt>
			<trkpt lat="43.007393" lon="-1.480457">
				<ele>1095</ele>
				<time>2019-11-25T20:26:07Z</time>
			</trkpt>
			<trkpt lat="43.007341" lon="-1.480589">
				<ele>1095</ele>
				<time>2019-11-25T20:26:27Z</time>
			</trkpt>
			<trkpt lat="43.007272" lon="-1.480738">
				<ele>1095</ele>
				<time>2019-11-25T20:26:47Z</time>
			</trkpt>
			<trkpt lat="43.007197" lon="-1.480855">
				<ele>1095</ele>
				<time>2019-11-25T20:27:07Z</time>
			</trkpt>
			<trkpt lat="43.00709" lon="-1.480998">
				<ele>1095</ele>
				<time>2019-11-25T20:27:27Z</time>
			</trkpt>
			<trkpt lat="43.006998" lon="-1.481137">
				<ele>1095</ele>
				<time>2019-11-25T20:27:47Z</time>
			</trkpt>
			<trkpt lat="43.006883" lon="-1.481292">
				<ele>1052</ele>
				<time>2019-11-25T20:28:07Z</time>
			</trkpt>
			<trkpt lat="43.00679" lon="-1.481416">
				<ele>1052</ele>
				<time>2019-11-25T20:28:27Z</time>
			</trkpt>
			<trkpt lat="43.006691" lon="-1.481532">
				<ele>1052</ele>
				<time>2019-11-25T20:28:47Z</time>
			</trkpt>
			<trkpt lat="43.006603" lon="-1.481677">
				<ele>1052</ele>
				<time>2019-11-25T20:29:07Z</time>
			</trkpt>
			<trkpt lat="43.006522" lon="-1.481776">
				<ele>1052</ele>
				<time>2019-11-25T20:29:27Z</time>
			</trkpt>
			<trkpt lat="43.006447" lon="-1.481853">
				<ele>1052</ele>
				<time>2019-11-25T20:29:47Z</time>
			</trkpt>
			<trkpt lat="43.006367" lon="-1.481934">
				<ele>1052</ele>
				<time>2019-11-25T20:30:07Z</time>
			</trkpt>
			<trkpt lat="43.006288" lon="-1.482036">
				<ele>1052</ele>
				<time>2019-11-25T20:30:27Z</time>
			</trkpt>
			<trkpt lat="43.006204" lon="-1.482123">
				<ele>1128</ele>
				<time>2019-11-25T20:30:47Z</time>
			</trkpt>
			<trkpt lat="43.006112" lon="-1.482228">
				<ele>1128</ele>
				<time>2019-11-25T20:31:07Z</time>
			</trkpt>
			<trkpt lat="43.006028" lon="-1.482314">
				<ele>1128</ele>
				<time>2019-11-25T20:31:27Z</time>
			</trkpt>
			<trkpt lat="43.005918" lon="-1.482348">
				<ele>1128</ele>
				<time>2019-11-25T20:31:47Z</time>
			</trkpt>
			<trkpt lat="43.005816" lon="-1.48236">
				<ele>1128</ele>
				<time>2019-11-25T20:32:07Z</time>
			</trkpt>
			<trkpt lat="43.005707" lon="-1.4824">
				<ele>1128</ele>
				<time>2019-11-25T20:32:27Z</time>
			</trkpt>
			<trkpt lat="43.005671" lon="-1.482513">
				<ele>1128</ele>
				<time>2019-11-25T20:32:47Z</time>
			</trkpt>
			<trkpt lat="43.005722" lon="-1.482661">
				<ele>1128</ele>
				<time>2019-11-25T20:33:07Z</time>
			</trkpt>
			<trkpt lat="43.005759" lon="-1.482821">
				<ele>1128</ele>
				<time>2019-11-25T20:33:27Z</time>
			</trkpt>
			<trkpt lat="43.005778" lon="-1.482991">
				<ele>1128</ele>
				<time>2019-11-25T20:33:47Z</time>
			</trkpt>
			<trkpt lat="43.005817" lon="-1.483176">
				<ele>1128</ele>
				<time>2019-11-25T20:34:07Z</time>
			</trkpt>
			<trkpt lat="43.005861" lon="-1.483316">
				<ele>1128</ele>
				<time>2019-11-25T20:34:27Z</time>
			</trkpt>
			<trkpt lat="43.00594" lon="-1.483463">
				<ele>1137</ele>
				<time>2019-11-25T20:34:47Z</time>
			</trkpt>
			<trkpt lat="43.00601" lon="-1.48358">
				<ele>1137</ele>
				<time>2019-11-25T20:35:07Z</time>
			</trkpt>
			<trkpt lat="43.006077" lon="-1.483733">
				<ele>1137</ele>
				<time>2019-11-25T20:35:27Z</time>
			</trkpt>
			<trkpt lat="43.006147" lon="-1.483866">
				<ele>1137</ele>
				<time>2019-11-25T20:35:47Z</time>
			</trkpt>
			<trkpt lat="43.006197" lon="-1.484028">
				<ele>1137</ele>
				<time>2019-11-25T20:36:07Z</time>
			</trkpt>
			<trkpt lat="43.00622" lon="-1.484173">
				<ele>1137</ele>
				<time>2019-11-25T20:36:27Z</time>
			</trkpt>
			<trkpt lat="43.00624" lon="-1.484324">
				<ele>1137</ele>
				<time>2019-11-25T20:36:47Z</time>
			</trkpt>
			<trkpt lat="43.006223" lon="-1.484521">
				<ele>1137</ele>
				<time>2019-11-25T20:37:07Z</time>
			</trkpt>
			<trkpt lat="43.006197" lon="-1.484694">
				<ele>1137</ele>
				<time>2019-11-25T20:37:27Z</time>
			</trkpt>
			<trkpt lat="43.006166" lon="-1.484852">
				<ele>1137</ele>
				<time>2019-11-25T20:37:47Z</time>
			</trkpt>
			<trkpt lat="43.006143" lon="-1.48502">
				<ele>1137</ele>
				<time>2019-11-25T20:38:07Z</time>
			</trkpt>
			<trkpt lat="43.006128" lon="-1.485194">
				<ele>1137</ele>
				<time>2019-11-25T20:38:27Z</time>
			</trkpt>
			<trkpt lat="43.006093" lon="-1.485416">
				<ele>1137</ele>
				<time>2019-11-25T20:38:47Z</time>
			</trkpt>
			<trkpt lat="43.006085" lon="-1.485601">
				<ele>1164</ele>
				<time>2019-11-25T20:39:07Z</time>
			</trkpt>
			<trkpt lat="43.006083" lon="-1.485812">
				<ele>1164</ele>
				<time>2019-11-25T20:39:27Z</time>
			</trkpt>
			<trkpt lat="43.006139" lon="-1.485984">
				<ele>1164</ele>
				<time>2019-11-25T20:39:47Z</time>
			</trkpt>
			<trkpt lat="43.006243" lon="-1.486116">
				<ele>1164</ele>
				<time>2019-11-25T20:40:07Z</time>
			</trkpt>
			<trkpt lat="43.006353" lon="-1.486243">
				<ele>1095</ele>
				<time>2019-11-25T20:40:27Z</time>
			</trkpt>
			<trkpt lat="43.006497" lon="-1.486372">
				<ele>1095</ele>
				<time>2019-11-25T20:40:47Z</time>
			</trkpt>
			<trkpt lat="43.006624" lon="-1.486488">
				<ele>1095</ele>
				<time>2019-11-25T20:41:07Z</time>
			</trkpt>
			<trkpt lat="43.00675" lon="-1.486574">
				<ele>1095</ele>
				<time>2019-11-25T20:41:27Z</time>
			</trkpt>
			<trkpt lat="43.00687" lon="-1.486642">
				<ele>1095</ele>
				<time>2019-11-25T20:41:47Z</time>
			</trkpt>
			<trkpt lat="43.00699" lon="-1.48672">
				<ele>1095</ele>
				<time>2019-11-25T20:42:07Z</time>
			</trkpt>
			<trkpt lat="43.007113" lon="-1.486809">
				<ele>1095</ele>
				<time>2019-11-25T20:42:27Z</time>
			</trkpt>
			<trkpt lat="43.007251" lon="-1.486911">
				<ele>1095</ele>
				<time>2019-11-25T20:42:47Z</time>
			</trkpt>
			<trkpt lat="43.007382" lon="-1.486987">
				<ele>1095</ele>
				<time>2019-11-25T20:43:07Z</time>
			</trkpt>
			<trkpt lat="43.007499" lon="-1.487059">
				<ele>1095</ele>
				<time>2019-11-25T20:43:27Z</time>
			</trkpt>
			<trkpt lat="43.007626" lon="-1.487115">
				<ele>1095</ele>
				<time>2019-11-25T20:43:47Z</time>
			</trkpt>
			<trkpt lat="43.007765" lon="-1.487208">
				<ele>1095</ele>
				<time>2019-11-25T20:44:07Z</time>
			</trkpt>
			<trkpt lat="43.007886" lon="-1.48725">
				<ele>1095</ele>
				<time>2019-11-25T20:44:27Z</time>
			</trkpt>
			<trkpt lat="43.007993" lon="-1.487328">
				<ele>1095</ele>
				<time>2019-11-25T20:44:47Z</time>
			</trkpt>
			<trkpt lat="43.008133" lon="-1.487404">
				<ele>1095</ele>
				<time>2019-11-25T20:45:07Z</time>
			</trkpt>
			<trkpt lat="43.008262" lon="-1.487503">
				<ele>1132</ele>
				<time>2019-11-25T20:45:27Z</time>
			</trkpt>
			<trkpt lat="43.008396" lon="-1.487577">
				<ele>1083</ele>
				<time>2019-11-25T20:45:47Z</time>
			</trkpt>
			<trkpt lat="43.008523" lon="-1.487643">
				<ele>1083</ele>
				<time>2019-11-25T20:46:07Z</time>
			</trkpt>
			<trkpt lat="43.008653" lon="-1.487719">
				<ele>1083</ele>
				<time>2019-11-25T20:46:27Z</time>
			</trkpt>
			<trkpt lat="43.008814" lon="-1.487814">
				<ele>1083</ele>
				<time>2019-11-25T20:46:47Z</time>
			</trkpt>
			<trkpt lat="43.008915" lon="-1.487867">
				<ele>1083</ele>
				<time>2019-11-25T20:47:07Z</time>
			</trkpt>
			<trkpt lat="43.008908" lon="-1.488005">
				<ele>1083</ele>
				<time>2019-11-25T20:47:27Z</time>
			</trkpt>
			<trkpt lat="43.008845" lon="-1.488018">
				<ele>1083</ele>
				<time>2019-11-25T20:47:47Z</time>
			</trkpt>
			<trkpt lat="43.00879" lon="-1.488116">
				<ele>1083</ele>
				<time>2019-11-25T20:48:07Z</time>
			</trkpt>
			<trkpt lat="43.008715" lon="-1.488176">
				<ele>1083</ele>
				<time>2019-11-25T20:48:27Z</time>
			</trkpt>
			<trkpt lat="43.008621" lon="-1.488216">
				<ele>1083</ele>
				<time>2019-11-25T20:48:47Z</time>
			</trkpt>
			<trkpt lat="43.008518" lon="-1.488249">
				<ele>1083</ele>
				<time>2019-11-25T20:49:07Z</time>
			</trkpt>
			<trkpt lat="43.008409" lon="-1.4883">
				<ele>1083</ele>
				<time>2019-11-25T20:49:27Z</time>
			</trkpt>
			<trkpt lat="43.008349" lon="-1.488441">
				<ele>1083</ele>
				<time>2019-11-25T20:49:47Z</time>
			</trkpt>
			<trkpt lat="43.008272" lon="-1.488555">
				<ele>1132</ele>
				<time>2019-11-25T20:50:07Z</time>
			</trkpt>
			<trkpt lat="43.008198" lon="-1.488649">
				<ele>1132</ele>
				<time>2019-11-25T20:50:27Z</time>
			</trkpt>
			<trkpt lat="43.008123" lon="-1.488756">
				<ele>1132</ele>
				<time>2019-11-25T20:50:47Z</time>
			</trkpt>
			<trkpt lat="43.008052" lon="-1.488857">
				<ele>1132</ele>
				<time>2019-11-25T20:51:07Z</time>
			</trkpt>
			<trkpt lat="43.007973" lon="-1.488947">
				<ele>1132</ele>
				<time>2019-11-25T20:51:27Z</time>
			</trkpt>
			<trkpt lat="43.007879" lon="-1.489038">
				<ele>1132</ele>
				<time>2019-11-25T20:51:47Z</time>
			</trkpt>
			<trkpt lat="43.007801" lon="-1.489108">
				<ele>1132</ele>
				<time>2019-11-25T20:52:07Z</time>
			</trkpt>
			<trkpt lat="43.00771" lon="-1.489197">
				<ele>1132</ele>
				<time>2019-11-25T20:52:27Z</time>
			</trkpt>
			<trkpt lat="43.007629" lon="-1.48929">
				<ele>1132</ele>
				<time>2019-11-25T20:52:47Z</time>
			</trkpt>
			<trkpt lat="43.007538" lon="-1.489398">
				<ele>1132</ele>
				<time>2019-11-25T20:53:07Z</time>
			</trkpt>
			<trkpt lat="43.007442" lon="-1.489523">
				<ele>1132</ele>
				<time>2019-11-25T20:53:27Z</time>
			</trkpt>
			<trkpt lat="43.007358" lon="-1.489664">
				<ele>1085</ele>
				<time>2019-11-25T20:53:47Z</time>
			</trkpt>
			<trkpt lat="43.00726" lon="-1.489775">
				<ele>1085</ele>
				<time>2019-11-25T20:54:07Z</time>
			</trkpt>
			<trkpt lat="43.00718" lon="-1.48989">
				<ele>1085</ele>
				<time>2019-11-25T20:54:27Z</time>
			</trkpt>
			<trkpt lat="43.007096" lon="-1.489996">
				<ele>1085</ele>
				<time>2019-11-25T20:54:47Z</time>
			</trkpt>
			<trkpt lat="43.007008" lon="-1.490094">
				<ele>1085</ele>
				<time>2019-11-25T20:55:07Z</time>
			</trkpt>
			<trkpt lat="43.006933" lon="-1.490202">
				<ele>1085</ele>
				<time>2019-11-25T20:55:27Z</time>
			</trkpt>
			<trkpt lat="43.006854" lon="-1.49031">
				<ele>1085</ele>
				<time>2019-11-25T20:55:47Z</time>
			</trkpt>
			<trkpt lat="43.006765" lon="-1.490436">
				<ele>1085</ele>
				<time>2019-11-25T20:56:07Z</time>
			</trkpt>
			<trkpt lat="43.006692" lon="-1.490566">
				<ele>1085</ele>
				<time>2019-11-25T20:56:27Z</time>
			</trkpt>
			<trkpt lat="43.006614" lon="-1.490716">
				<ele>1085</ele>
				<time>2019-11-25T20:56:47Z</time>
			</trkpt>
			<trkpt lat="43.006537" lon="-1.490869">
				<ele>1085</ele>
				<time>2019-11-25T20:57:07Z</time>
			</trkpt>
			<trkpt lat="43.006488" lon="-1.490995">
				<ele>1085</ele>
				<time>2019-11-25T20:57:27Z</time>
			</trkpt>
			<trkpt lat="43.006449" lon="-1.491159">
				<ele>1085</ele>
				<time>2019-11-25T20:57:47Z</time>
			</trkpt>
			<trkpt lat="43.006423" lon="-1.491327">
				<ele>1085</ele>
				<time>2019-11-25T20:58:07Z</time>
			</trkpt>
			<trkpt lat="43.006409" lon="-1.491492">
				<ele>1085</ele>
				<time>2019-11-25T20:58:27Z</time>
			</trkpt>
			<trkpt lat="43.006419" lon="-1.491659">
				<ele>1085</ele>
				<time>2019-11-25T20:58:47Z</time>
			</trkpt>
			<trkpt lat="43.006413" lon="-1.491834">
				<ele>1057</ele>
				<time>2019-11-25T20:59:07Z</time>
			</trkpt>
			<trkpt lat="43.006408" lon="-1.492018">
				<ele>1057</ele>
				<time>2019-11-25T20:59:27Z</time>
			</trkpt>
			<trkpt lat="43.006407" lon="-1.49219">
				<ele>1057</ele>
				<time>2019-11-25T20:59:47Z</time>
			</trkpt>
			<trkpt lat="43.006411" lon="-1.492411">
				<ele>1057</ele>
				<time>2019-11-25T21:00:07Z</time>
			</trkpt>
			<trkpt lat="43.006414" lon="-1.492615">
				<ele>1057</ele>
				<time>2019-11-25T21:00:27Z</time>
			</trkpt>
			<trkpt lat="43.006448" lon="-1.492821">
				<ele>1057</ele>
				<time>2019-11-25T21:00:47Z</time>
			</trkpt>
			<trkpt lat="43.006473" lon="-1.492995">
				<ele>1057</ele>
				<time>2019-11-25T21:01:07Z</time>
			</trkpt>
			<trkpt lat="43.006497" lon="-1.493197">
				<ele>1057</ele>
				<time>2019-11-25T21:01:27Z</time>
			</trkpt>
			<trkpt lat="43.006515" lon="-1.493378">
				<ele>1057</ele>
				<time>2019-11-25T21:01:47Z</time>
			</trkpt>
			<trkpt lat="43.006549" lon="-1.493555">
				<ele>1057</ele>
				<time>2019-11-25T21:02:07Z</time>
			</trkpt>
			<trkpt lat="43.006581" lon="-1.493741">
				<ele>1057</ele>
				<time>2019-11-25T21:02:27Z</time>
			</trkpt>
			<trkpt lat="43.006601" lon="-1.493904">
				<ele>1058</ele>
				<time>2019-11-25T21:02:47Z</time>
			</trkpt>
			<trkpt lat="43.006641" lon="-1.494077">
				<ele>1058</ele>
				<time>2019-11-25T21:03:07Z</time>
			</trkpt>
			<trkpt lat="43.006684" lon="-1.49424">
				<ele>1058</ele>
				<time>2019-11-25T21:03:27Z</time>
			</trkpt>
			<trkpt lat="43.006714" lon="-1.494424">
				<ele>1058</ele>
				<time>2019-11-25T21:03:47Z</time>
			</trkpt>
			<trkpt lat="43.006733" lon="-1.494606">
				<ele>1058</ele>
				<time>2019-11-25T21:04:07Z</time>
			</trkpt>
			<trkpt lat="43.006748" lon="-1.494788">
				<ele>1058</ele>
				<time>2019-11-25T21:04:27Z</time>
			</trkpt>
			<trkpt lat="43.006757" lon="-1.494984">
				<ele>1058</ele>
				<time>2019-11-25T21:04:47Z</time>
			</trkpt>
			<trkpt lat="43.006797" lon="-1.495153">
				<ele>1058</ele>
				<time>2019-11-25T21:05:07Z</time>
			</trkpt>
			<trkpt lat="43.006839" lon="-1.495307">
				<ele>1058</ele>
				<time>2019-11-25T21:05:27Z</time>
			</trkpt>
			<trkpt lat="43.006905" lon="-1.495469">
				<ele>1058</ele>
				<time>2019-11-25T21:05:47Z</time>
			</trkpt>
			<trkpt lat="43.007002" lon="-1.49561">
				<ele>1058</ele>
				<time>2019-11-25T21:06:07Z</time>
			</trkpt>
			<trkpt lat="43.007069" lon="-1.495741">
				<ele>1058</ele>
				<time>2019-11-25T21:06:27Z</time>
			</trkpt>
			<trkpt lat="43.007158" lon="-1.495879">
				<ele>1078</ele>
				<time>2019-11-25T21:06:47Z</time>
			</trkpt>
			<trkpt lat="43.007247" lon="-1.49601">
				<ele>1078</ele>
				<time>2019-11-25T21:07:07Z</time>
			</trkpt>
			<trkpt lat="43.007337" lon="-1.496127">
				<ele>1078</ele>
				<time>2019-11-25T21:07:27Z</time>
			</trkpt>
			<trkpt lat="43.007436" lon="-1.496245">
				<ele>1078</ele>
				<time>2019-11-25T21:07:47Z</time>
			</trkpt>
			<trkpt lat="43.007538" lon="-1.496356">
				<ele>1078</ele>
				<time>2019-11-25T21:08:07Z</time>
			</trkpt>
			<trkpt lat="43.007637" lon="-1.496488">
				<ele>1078</ele>
				<time>2019-11-25T21:08:27Z</time>
			</trkpt>
			<trkpt lat="43.007705" lon="-1.496605">
				<ele>1078</ele>
				<time>2019-11-25T21:08:47Z</time>
			</trkpt>
			<trkpt lat="43.007772" lon="-1.496743">
				<ele>1078</ele>
				<time>2019-11-25T21:09:07Z</time>
			</trkpt>
			<trkpt lat="43.00783" lon="-1.496902">
				<ele>1078</ele>
				<time>2019-11-25T21:09:27Z</time>
			</trkpt>
			<trkpt lat="43.007867" lon="-1.49705">
				<ele>1078</ele>
				<time>2019-11-25T21:09:47Z</time>
			</trkpt>
			<trkpt lat="43.007972" lon="-1.497012">
				<ele>1078</ele>
				<time>2019-11-25T21:10:07Z</time>
			</trkpt>
			<trkpt lat="43.007987" lon="-1.496889">
				<ele>1078</ele>
				<time>2019-11-25T21:10:27Z</time>
			</trkpt>
			<trkpt lat="43.007998" lon="-1.496764">
				<ele>1078</ele>
				<time>2019-11-25T21:10:47Z</time>
			</trkpt>
			<trkpt lat="43.007982" lon="-1.496627">
				<ele>1078</ele>
				<time>2019-11-25T21:11:07Z</time>
			</trkpt>
			<trkpt lat="43.007942" lon="-1.496476">
				<ele>1078</ele>
				<time>2019-11-25T21:11:27Z</time>
			</trkpt>
			<trkpt lat="43.007907" lon="-1.496335">
				<ele>1078</ele>
				<time>2019-11-25T21:11:47Z</time>
			</trkpt>
			<trkpt lat="43.007861" lon="-1.496202">
				<ele>1078</ele>
				<time>2019-11-25T21:12:07Z</time>
			</trkpt>
			<trkpt lat="43.007886" lon="-1.496078">
				<ele>1078</ele>
				<time>2019-11-25T21:12:27Z</time>
			</trkpt>
			<trkpt lat="43.007964" lon="-1.496137">
				<ele>1078</ele>
				<time>2019-11-25T21:12:47Z</time>
			</trkpt>
			<trkpt lat="43.008029" lon="-1.496211">
				<ele>1078</ele>
				<time>2019-11-25T21:13:07Z</time>
			</trkpt>
			<trkpt lat="43.008105" lon="-1.496325">
				<ele>1078</ele>
				<time>2019-11-25T21:13:27Z</time>
			</trkpt>
			<trkpt lat="43.008171" lon="-1.496424">
				<ele>1078</ele>
				<time>2019-11-25T21:13:47Z</time>
			</trkpt>
			<trkpt lat="43.008266" lon="-1.496511">
				<ele>1078</ele>
				<time>2019-11-25T21:14:07Z</time>
			</trkpt>
			<trkpt lat="43.008386" lon="-1.496634">
				<ele>1015</ele>
				<time>2019-11-25T21:14:27Z</time>
			</trkpt>
			<trkpt lat="43.008483" lon="-1.496747">
				<ele>1015</ele>
				<time>2019-11-25T21:14:47Z</time>
			</trkpt>
			<trkpt lat="43.008563" lon="-1.496899">
				<ele>1015</ele>
				<time>2019-11-25T21:15:07Z</time>
			</trkpt>
			<trkpt lat="43.008623" lon="-1.497066">
				<ele>1015</ele>
				<time>2019-11-25T21:15:27Z</time>
			</trkpt>
			<trkpt lat="43.008667" lon="-1.497233">
				<ele>1015</ele>
				<time>2019-11-25T21:15:47Z</time>
			</trkpt>
			<trkpt lat="43.008694" lon="-1.497387">
				<ele>1015</ele>
				<time>2019-11-25T21:16:07Z</time>
			</trkpt>
			<trkpt lat="43.008665" lon="-1.497532">
				<ele>1015</ele>
				<time>2019-11-25T21:16:27Z</time>
			</trkpt>
			<trkpt lat="43.008599" lon="-1.497645">
				<ele>1015</ele>
				<time>2019-11-25T21:16:47Z</time>
			</trkpt>
			<trkpt lat="43.008516" lon="-1.497692">
				<ele>1015</ele>
				<time>2019-11-25T21:17:07Z</time>
			</trkpt>
			<trkpt lat="43.008412" lon="-1.497755">
				<ele>1015</ele>
				<time>2019-11-25T21:17:27Z</time>
			</trkpt>
			<trkpt lat="43.008314" lon="-1.497833">
				<ele>1078</ele>
				<time>2019-11-25T21:17:47Z</time>
			</trkpt>
			<trkpt lat="43.008226" lon="-1.497954">
				<ele>1031</ele>
				<time>2019-11-25T21:18:07Z</time>
			</trkpt>
			<trkpt lat="43.008144" lon="-1.498061">
				<ele>1031</ele>
				<time>2019-11-25T21:18:27Z</time>
			</trkpt>
			<trkpt lat="43.00806" lon="-1.498171">
				<ele>1031</ele>
				<time>2019-11-25T21:18:47Z</time>
			</trkpt>
			<trkpt lat="43.007971" lon="-1.498278">
				<ele>1031</ele>
				<time>2019-11-25T21:19:07Z</time>
			</trkpt>
			<trkpt lat="43.007882" lon="-1.498408">
				<ele>1031</ele>
				<time>2019-11-25T21:19:27Z</time>
			</trkpt>
			<trkpt lat="43.007797" lon="-1.49853">
				<ele>1031</ele>
				<time>2019-11-25T21:19:47Z</time>
			</trkpt>
			<trkpt lat="43.007706" lon="-1.498657">
				<ele>1031</ele>
				<time>2019-11-25T21:20:07Z</time>
			</trkpt>
			<trkpt lat="43.007621" lon="-1.49879">
				<ele>1031</ele>
				<time>2019-11-25T21:20:27Z</time>
			</trkpt>
			<trkpt lat="43.007549" lon="-1.498925">
				<ele>1031</ele>
				<time>2019-11-25T21:20:47Z</time>
			</trkpt>
			<trkpt lat="43.007477" lon="-1.499051">
				<ele>1031</ele>
				<time>2019-11-25T21:21:07Z</time>
			</trkpt>
			<trkpt lat="43.007424" lon="-1.499176">
				<ele>1031</ele>
				<time>2019-11-25T21:21:27Z</time>
			</trkpt>
			<trkpt lat="43.007368" lon="-1.499332">
				<ele>1031</ele>
				<time>2019-11-25T21:21:47Z</time>
			</trkpt>
			<trkpt lat="43.007328" lon="-1.499496">
				<ele>1031</ele>
				<time>2019-11-25T21:22:07Z</time>
			</trkpt>
			<trkpt lat="43.007298" lon="-1.499662">
				<ele>1031</ele>
				<time>2019-11-25T21:22:27Z</time>
			</trkpt>
			<trkpt lat="43.007293" lon="-1.499829">
				<ele>1031</ele>
				<time>2019-11-25T21:22:47Z</time>
			</trkpt>
			<trkpt lat="43.007287" lon="-1.500007">
				<ele>1003</ele>
				<time>2019-11-25T21:23:07Z</time>
			</trkpt>
			<trkpt lat="43.007263" lon="-1.500162">
				<ele>1003</ele>
				<time>2019-11-25T21:23:27Z</time>
			</trkpt>
			<trkpt lat="43.007236" lon="-1.500354">
				<ele>1003</ele>
				<time>2019-11-25T21:23:47Z</time>
			</trkpt>
			<trkpt lat="43.007226" lon="-1.50051">
				<ele>1003</ele>
				<time>2019-11-25T21:24:07Z</time>
			</trkpt>
			<trkpt lat="43.007191" lon="-1.500684">
				<ele>1003</ele>
				<time>2019-11-25T21:24:27Z</time>
			</trkpt>
			<trkpt lat="43.007147" lon="-1.500863">
				<ele>1003</ele>
				<time>2019-11-25T21:24:47Z</time>
			</trkpt>
			<trkpt lat="43.007114" lon="-1.501052">
				<ele>1003</ele>
				<time>2019-11-25T21:25:07Z</time>
			</trkpt>
			<trkpt lat="43.007085" lon="-1.501261">
				<ele>1003</ele>
				<time>2019-11-25T21:25:27Z</time>
			</trkpt>
			<trkpt lat="43.007049" lon="-1.501451">
				<ele>1003</ele>
				<time>2019-11-25T21:25:47Z</time>
			</trkpt>
			<trkpt lat="43.007" lon="-1.501629">
				<ele>1003</ele>
				<time>2019-11-25T21:26:07Z</time>
			</trkpt>
			<trkpt lat="43.006947" lon="-1.501797">
				<ele>1003</ele>
				<time>2019-11-25T21:26:27Z</time>
			</trkpt>
			<trkpt lat="43.006888" lon="-1.501957">
				<ele>1003</ele>
				<time>2019-11-25T21:26:47Z</time>
			</trkpt>
			<trkpt lat="43.006832" lon="-1.502083">
				<ele>1003</ele>
				<time>2019-11-25T21:27:07Z</time>
			</trkpt>
			<trkpt lat="43.006747" lon="-1.502198">
				<ele>996</ele>
				<time>2019-11-25T21:27:27Z</time>
			</trkpt>
			<trkpt lat="43.006642" lon="-1.502251">
				<ele>996</ele>
				<time>2019-11-25T21:27:47Z</time>
			</trkpt>
			<trkpt lat="43.00657" lon="-1.502181">
				<ele>996</ele>
				<time>2019-11-25T21:28:07Z</time>
			</trkpt>
			<trkpt lat="43.006495" lon="-1.502097">
				<ele>996</ele>
				<time>2019-11-25T21:28:27Z</time>
			</trkpt>
			<trkpt lat="43.006415" lon="-1.502004">
				<ele>1003</ele>
				<time>2019-11-25T21:28:47Z</time>
			</trkpt>
			<trkpt lat="43.006301" lon="-1.501933">
				<ele>1003</ele>
				<time>2019-11-25T21:29:07Z</time>
			</trkpt>
			<trkpt lat="43.00618" lon="-1.501823">
				<ele>987</ele>
				<time>2019-11-25T21:29:27Z</time>
			</trkpt>
			<trkpt lat="43.006073" lon="-1.501748">
				<ele>987</ele>
				<time>2019-11-25T21:29:47Z</time>
			</trkpt>
			<trkpt lat="43.00594" lon="-1.501673">
				<ele>987</ele>
				<time>2019-11-25T21:30:07Z</time>
			</trkpt>
			<trkpt lat="43.005821" lon="-1.50159">
				<ele>987</ele>
				<time>2019-11-25T21:30:27Z</time>
			</trkpt>
			<trkpt lat="43.005698" lon="-1.501457">
				<ele>987</ele>
				<time>2019-11-25T21:30:47Z</time>
			</trkpt>
			<trkpt lat="43.005617" lon="-1.501319">
				<ele>987</ele>
				<time>2019-11-25T21:31:07Z</time>
			</trkpt>
			<trkpt lat="43.005531" lon="-1.501165">
				<ele>987</ele>
				<time>2019-11-25T21:31:27Z</time>
			</trkpt>
			<trkpt lat="43.00545" lon="-1.501009">
				<ele>987</ele>
				<time>2019-11-25T21:31:47Z</time>
			</trkpt>
			<trkpt lat="43.005334" lon="-1.500863">
				<ele>987</ele>
				<time>2019-11-25T21:32:07Z</time>
			</trkpt>
			<trkpt lat="43.005209" lon="-1.500783">
				<ele>987</ele>
				<time>2019-11-25T21:32:27Z</time>
			</trkpt>
			<trkpt lat="43.005102" lon="-1.500695">
				<ele>987</ele>
				<time>2019-11-25T21:32:47Z</time>
			</trkpt>
			<trkpt lat="43.004984" lon="-1.500568">
				<ele>987</ele>
				<time>2019-11-25T21:33:07Z</time>
			</trkpt>
			<trkpt lat="43.004907" lon="-1.500415">
				<ele>987</ele>
				<time>2019-11-25T21:33:27Z</time>
			</trkpt>
			<trkpt lat="43.00485" lon="-1.500232">
				<ele>987</ele>
				<time>2019-11-25T21:33:47Z</time>
			</trkpt>
			<trkpt lat="43.004825" lon="-1.500071">
				<ele>987</ele>
				<time>2019-11-25T21:34:07Z</time>
			</trkpt>
			<trkpt lat="43.004788" lon="-1.499905">
				<ele>1015</ele>
				<time>2019-11-25T21:34:27Z</time>
			</trkpt>
			<trkpt lat="43.004746" lon="-1.49974">
				<ele>1015</ele>
				<time>2019-11-25T21:34:47Z</time>
			</trkpt>
			<trkpt lat="43.00467" lon="-1.499554">
				<ele>1015</ele>
				<time>2019-11-25T21:35:07Z</time>
			</trkpt>
			<trkpt lat="43.004613" lon="-1.499417">
				<ele>1015</ele>
				<time>2019-11-25T21:35:27Z</time>
			</trkpt>
			<trkpt lat="43.004574" lon="-1.499283">
				<ele>1015</ele>
				<time>2019-11-25T21:35:47Z</time>
			</trkpt>
			<trkpt lat="43.004506" lon="-1.499138">
				<ele>1015</ele>
				<time>2019-11-25T21:36:07Z</time>
			</trkpt>
			<trkpt lat="43.004409" lon="-1.499044">
				<ele>1015</ele>
				<time>2019-11-25T21:36:27Z</time>
			</trkpt>
			<trkpt lat="43.004333" lon="-1.498973">
				<ele>1015</ele>
				<time>2019-11-25T21:36:47Z</time>
			</trkpt>
			<trkpt lat="43.004176" lon="-1.498938">
				<ele>1015</ele>
				<time>2019-11-25T21:37:07Z</time>
			</trkpt>
			<trkpt lat="43.004004" lon="-1.498945">
				<ele>973</ele>
				<time>2019-11-25T21:37:27Z</time>
			</trkpt>
			<trkpt lat="43.003843" lon="-1.498952">
				<ele>973</ele>
				<time>2019-11-25T21:37:47Z</time>
			</trkpt>
			<trkpt lat="43.003731" lon="-1.498881">
				<ele>973</ele>
				<time>2019-11-25T21:38:07Z</time>
			</trkpt>
			<trkpt lat="43.003615" lon="-1.498843">
				<ele>973</ele>
				<time>2019-11-25T21:38:27Z</time>
			</trkpt>
			<trkpt lat="43.003494" lon="-1.498847">
				<ele>973</ele>
				<time>2019-11-25T21:38:47Z</time>
			</trkpt>
			<trkpt lat="43.003362" lon="-1.498848">
				<ele>973</ele>
				<time>2019-11-25T21:39:07Z</time>
			</trkpt>
			<trkpt lat="43.00323" lon="-1.498859">
				<ele>973</ele>
				<time>2019-11-25T21:39:27Z</time>
			</trkpt>
			<trkpt lat="43.003102" lon="-1.498832">
				<ele>973</ele>
				<time>2019-11-25T21:39:47Z</time>
			</trkpt>
			<trkpt lat="43.002971" lon="-1.498817">
				<ele>973</ele>
				<time>2019-11-25T21:40:07Z</time>
			</trkpt>
			<trkpt lat="43.002845" lon="-1.498822">
				<ele>973</ele>
				<time>2019-11-25T21:40:27Z</time>
			</trkpt>
			<trkpt lat="43.002702" lon="-1.498812">
				<ele>973</ele>
				<time>2019-11-25T21:40:47Z</time>
			</trkpt>
			<trkpt lat="43.002577" lon="-1.498796">
				<ele>973</ele>
				<time>2019-11-25T21:41:07Z</time>
			</trkpt>
			<trkpt lat="43.002444" lon="-1.498837">
				<ele>973</ele>
				<time>2019-11-25T21:41:27Z</time>
			</trkpt>
			<trkpt lat="43.002316" lon="-1.498909">
				<ele>973</ele>
				<time>2019-11-25T21:41:47Z</time>
			</trkpt>
			<trkpt lat="43.00221" lon="-1.498988">
				<ele>973</ele>
				<time>2019-11-25T21:42:07Z</time>
			</trkpt>
			<trkpt lat="43.002092" lon="-1.499076">
				<ele>973</ele>
				<time>2019-11-25T21:42:27Z</time>
			</trkpt>
			<trkpt lat="43.00197" lon="-1.499186">
				<ele>986</ele>
				<time>2019-11-25T21:42:47Z</time>
			</trkpt>
			<trkpt lat="43.001852" lon="-1.499278">
				<ele>986</ele>
				<time>2019-11-25T21:43:07Z</time>
			</trkpt>
			<trkpt lat="43.001753" lon="-1.499373">
				<ele>986</ele>
				<time>2019-11-25T21:43:27Z</time>
			</trkpt>
			<trkpt lat="43.001671" lon="-1.499399">
				<ele>986</ele>
				<time>2019-11-25T21:43:47Z</time>
			</trkpt>
			<trkpt lat="43.001589" lon="-1.499404">
				<ele>986</ele>
				<time>2019-11-25T21:44:07Z</time>
			</trkpt>
			<trkpt lat="43.001481" lon="-1.499374">
				<ele>986</ele>
				<time>2019-11-25T21:44:27Z</time>
			</trkpt>
			<trkpt lat="43.001386" lon="-1.499384">
				<ele>986</ele>
				<time>2019-11-25T21:44:47Z</time>
			</trkpt>
			<trkpt lat="43.001167" lon="-1.499364">
				<ele>986</ele>
				<time>2019-11-25T21:45:07Z</time>
			</trkpt>
			<trkpt lat="43.000804" lon="-1.499273">
				<ele>986</ele>
				<time>2019-11-25T21:45:27Z</time>
			</trkpt>
			<trkpt lat="43.000568" lon="-1.499168">
				<ele>986</ele>
				<time>2019-11-25T21:45:47Z</time>
			</trkpt>
			<trkpt lat="43.000381" lon="-1.499014">
				<ele>986</ele>
				<time>2019-11-25T21:46:07Z</time>
			</trkpt>
			<trkpt lat="43.000203" lon="-1.498837">
				<ele>986</ele>
				<time>2019-11-25T21:46:27Z</time>
			</trkpt>
			<trkpt lat="43.000125" lon="-1.498662">
				<ele>986</ele>
				<time>2019-11-25T21:46:47Z</time>
			</trkpt>
			<trkpt lat="43.000143" lon="-1.498436">
				<ele>986</ele>
				<time>2019-11-25T21:47:07Z</time>
			</trkpt>
			<trkpt lat="43.000247" lon="-1.498167">
				<ele>986</ele>
				<time>2019-11-25T21:47:27Z</time>
			</trkpt>
			<trkpt lat="43.000302" lon="-1.497924">
				<ele>986</ele>
				<time>2019-11-25T21:47:47Z</time>
			</trkpt>
			<trkpt lat="43.00032" lon="-1.497704">
				<ele>1033</ele>
				<time>2019-11-25T21:48:07Z</time>
			</trkpt>
			<trkpt lat="43.000327" lon="-1.497578">
				<ele>1033</ele>
				<time>2019-11-25T21:48:27Z</time>
			</trkpt>
			<trkpt lat="43.000214" lon="-1.497397">
				<ele>1033</ele>
				<time>2019-11-25T21:48:47Z</time>
			</trkpt>
			<trkpt lat="43.000079" lon="-1.497249">
				<ele>1033</ele>
				<time>2019-11-25T21:49:07Z</time>
			</trkpt>
			<trkpt lat="42.99988" lon="-1.497122">
				<ele>960</ele>
				<time>2019-11-25T21:49:27Z</time>
			</trkpt>
			<trkpt lat="42.999642" lon="-1.497006">
				<ele>960</ele>
				<time>2019-11-25T21:49:47Z</time>
			</trkpt>
			<trkpt lat="42.999445" lon="-1.496856">
				<ele>960</ele>
				<time>2019-11-25T21:50:07Z</time>
			</trkpt>
			<trkpt lat="42.999408" lon="-1.496693">
				<ele>960</ele>
				<time>2019-11-25T21:50:27Z</time>
			</trkpt>
			<trkpt lat="42.999397" lon="-1.496523">
				<ele>960</ele>
				<time>2019-11-25T21:50:47Z</time>
			</trkpt>
			<trkpt lat="42.999443" lon="-1.496314">
				<ele>960</ele>
				<time>2019-11-25T21:51:07Z</time>
			</trkpt>
			<trkpt lat="42.999505" lon="-1.496177">
				<ele>960</ele>
				<time>2019-11-25T21:51:27Z</time>
			</trkpt>
			<trkpt lat="42.99958" lon="-1.49591">
				<ele>960</ele>
				<time>2019-11-25T21:51:47Z</time>
			</trkpt>
			<trkpt lat="42.999621" lon="-1.495807">
				<ele>952</ele>
				<time>2019-11-25T21:52:07Z</time>
			</trkpt>
			<trkpt lat="42.999597" lon="-1.495607">
				<ele>952</ele>
				<time>2019-11-25T21:52:27Z</time>
			</trkpt>
			<trkpt lat="42.999536" lon="-1.495418">
				<ele>952</ele>
				<time>2019-11-25T21:52:47Z</time>
			</trkpt>
			<trkpt lat="42.999469" lon="-1.495262">
				<ele>952</ele>
				<time>2019-11-25T21:53:07Z</time>
			</trkpt>
			<trkpt lat="42.999418" lon="-1.495066">
				<ele>952</ele>
				<time>2019-11-25T21:53:27Z</time>
			</trkpt>
			<trkpt lat="42.999381" lon="-1.494855">
				<ele>952</ele>
				<time>2019-11-25T21:53:47Z</time>
			</trkpt>
			<trkpt lat="42.999352" lon="-1.494673">
				<ele>952</ele>
				<time>2019-11-25T21:54:07Z</time>
			</trkpt>
			<trkpt lat="42.999292" lon="-1.494499">
				<ele>952</ele>
				<time>2019-11-25T21:54:27Z</time>
			</trkpt>
			<trkpt lat="42.999254" lon="-1.494329">
				<ele>952</ele>
				<time>2019-11-25T21:54:47Z</time>
			</trkpt>
			<trkpt lat="42.999229" lon="-1.494231">
				<ele>952</ele>
				<time>2019-11-25T21:55:07Z</time>
			</trkpt>
			<trkpt lat="42.999244" lon="-1.494026">
				<ele>952</ele>
				<time>2019-11-25T21:55:27Z</time>
			</trkpt>
			<trkpt lat="42.999394" lon="-1.493733">
				<ele>937</ele>
				<time>2019-11-25T21:55:47Z</time>
			</trkpt>
			<trkpt lat="42.999506" lon="-1.493387">
				<ele>937</ele>
				<time>2019-11-25T21:56:07Z</time>
			</trkpt>
			<trkpt lat="42.999617" lon="-1.493035">
				<ele>937</ele>
				<time>2019-11-25T21:56:27Z</time>
			</trkpt>
			<trkpt lat="42.999835" lon="-1.492714">
				<ele>937</ele>
				<time>2019-11-25T21:56:47Z</time>
			</trkpt>
			<trkpt lat="43.000018" lon="-1.49244">
				<ele>1018</ele>
				<time>2019-11-25T21:57:07Z</time>
			</trkpt>
			<trkpt lat="43.000251" lon="-1.492276">
				<ele>1018</ele>
				<time>2019-11-25T21:57:27Z</time>
			</trkpt>
			<trkpt lat="43.000404" lon="-1.492099">
				<ele>1018</ele>
				<time>2019-11-25T21:57:47Z</time>
			</trkpt>
			<trkpt lat="43.000475" lon="-1.491956">
				<ele>1018</ele>
				<time>2019-11-25T21:58:07Z</time>
			</trkpt>
			<trkpt lat="43.000476" lon="-1.491788">
				<ele>1018</ele>
				<time>2019-11-25T21:58:27Z</time>
			</trkpt>
			<trkpt lat="43.000371" lon="-1.491681">
				<ele>1018</ele>
				<time>2019-11-25T21:58:47Z</time>
			</trkpt>
			<trkpt lat="43.000239" lon="-1.491558">
				<ele>999</ele>
				<time>2019-11-25T21:59:07Z</time>
			</trkpt>
			<trkpt lat="43.000156" lon="-1.491281">
				<ele>999</ele>
				<time>2019-11-25T21:59:27Z</time>
			</trkpt>
			<trkpt lat="43.000113" lon="-1.491173">
				<ele>999</ele>
				<time>2019-11-25T21:59:47Z</time>
			</trkpt>
			<trkpt lat="43.000063" lon="-1.490993">
				<ele>999</ele>
				<time>2019-11-25T22:00:07Z</time>
			</trkpt>
			<trkpt lat="43.000079" lon="-1.490756">
				<ele>999</ele>
				<time>2019-11-25T22:00:27Z</time>
			</trkpt>
			<trkpt lat="43.000242" lon="-1.490486">
				<ele>999</ele>
				<time>2019-11-25T22:00:47Z</time>
			</trkpt>
			<trkpt lat="43.000444" lon="-1.490227">
				<ele>999</ele>
				<time>2019-11-25T22:01:07Z</time>
			</trkpt>
			<trkpt lat="43.000607" lon="-1.490034">
				<ele>999</ele>
				<time>2019-11-25T22:01:27Z</time>
			</trkpt>
			<trkpt lat="43.000763" lon="-1.489755">
				<ele>999</ele>
				<time>2019-11-25T22:01:47Z</time>
			</trkpt>
			<trkpt lat="43.000764" lon="-1.489602">
				<ele>999</ele>
				<time>2019-11-25T22:02:07Z</time>
			</trkpt>
			<trkpt lat="43.000712" lon="-1.489443">
				<ele>1016</ele>
				<time>2019-11-25T22:02:27Z</time>
			</trkpt>
			<trkpt lat="43.000623" lon="-1.48931">
				<ele>1016</ele>
				<time>2019-11-25T22:02:47Z</time>
			</trkpt>
			<trkpt lat="43.000525" lon="-1.489138">
				<ele>1016</ele>
				<time>2019-11-25T22:03:07Z</time>
			</trkpt>
			<trkpt lat="43.000365" lon="-1.48889">
				<ele>1016</ele>
				<time>2019-11-25T22:03:27Z</time>
			</trkpt>
			<trkpt lat="43.000181" lon="-1.488613">
				<ele>1016</ele>
				<time>2019-11-25T22:03:47Z</time>
			</trkpt>
			<trkpt lat="43.000017" lon="-1.488352">
				<ele>1016</ele>
				<time>2019-11-25T22:04:07Z</time>
			</trkpt>
			<trkpt lat="42.999885" lon="-1.488132">
				<ele>907</ele>
				<time>2019-11-25T22:04:27Z</time>
			</trkpt>
			<trkpt lat="42.999816" lon="-1.487977">
				<ele>907</ele>
				<time>2019-11-25T22:04:47Z</time>
			</trkpt>
			<trkpt lat="42.99982" lon="-1.48777">
				<ele>907</ele>
				<time>2019-11-25T22:05:07Z</time>
			</trkpt>
			<trkpt lat="42.999835" lon="-1.487461">
				<ele>921</ele>
				<time>2019-11-25T22:05:27Z</time>
			</trkpt>
			<trkpt lat="42.999866" lon="-1.487177">
				<ele>921</ele>
				<time>2019-11-25T22:05:47Z</time>
			</trkpt>
			<trkpt lat="42.999875" lon="-1.486881">
				<ele>921</ele>
				<time>2019-11-25T22:06:07Z</time>
			</trkpt>
			<trkpt lat="42.999881" lon="-1.486718">
				<ele>921</ele>
				<time>2019-11-25T22:06:27Z</time>
			</trkpt>
			<trkpt lat="42.999918" lon="-1.486567">
				<ele>921</ele>
				<time>2019-11-25T22:06:47Z</time>
			</trkpt>
			<trkpt lat="42.999843" lon="-1.486443">
				<ele>921</ele>
				<time>2019-11-25T22:07:07Z</time>
			</trkpt>
			<trkpt lat="42.999779" lon="-1.486339">
				<ele>921</ele>
				<time>2019-11-25T22:07:27Z</time>
			</trkpt>
			<trkpt lat="42.999766" lon="-1.486185">
				<ele>921</ele>
				<time>2019-11-25T22:07:47Z</time>
			</trkpt>
			<trkpt lat="42.999757" lon="-1.486054">
				<ele>921</ele>
				<time>2019-11-25T22:08:07Z</time>
			</trkpt>
			<trkpt lat="42.999727" lon="-1.485924">
				<ele>921</ele>
				<time>2019-11-25T22:08:27Z</time>
			</trkpt>
			<trkpt lat="42.999695" lon="-1.485742">
				<ele>921</ele>
				<time>2019-11-25T22:08:47Z</time>
			</trkpt>
			<trkpt lat="42.999647" lon="-1.485614">
				<ele>921</ele>
				<time>2019-11-25T22:09:07Z</time>
			</trkpt>
			<trkpt lat="42.999618" lon="-1.485461">
				<ele>921</ele>
				<time>2019-11-25T22:09:27Z</time>
			</trkpt>
			<trkpt lat="42.999597" lon="-1.48537">
				<ele>1001</ele>
				<time>2019-11-25T22:09:47Z</time>
			</trkpt>
			<trkpt lat="42.999548" lon="-1.485295">
				<ele>1001</ele>
				<time>2019-11-25T22:10:07Z</time>
			</trkpt>
			<trkpt lat="42.999392" lon="-1.485315">
				<ele>1001</ele>
				<time>2019-11-25T22:10:27Z</time>
			</trkpt>
			<trkpt lat="42.9993" lon="-1.485354">
				<ele>1001</ele>
				<time>2019-11-25T22:10:47Z</time>
			</trkpt>
			<trkpt lat="42.999203" lon="-1.485395">
				<ele>1001</ele>
				<time>2019-11-25T22:11:07Z</time>
			</trkpt>
			<trkpt lat="42.999114" lon="-1.485405">
				<ele>1001</ele>
				<time>2019-11-25T22:11:27Z</time>
			</trkpt>
			<trkpt lat="42.999" lon="-1.485389">
				<ele>1001</ele>
				<time>2019-11-25T22:11:47Z</time>
			</trkpt>
			<trkpt lat="42.998887" lon="-1.485354">
				<ele>1001</ele>
				<time>2019-11-25T22:12:07Z</time>
			</trkpt>
			<trkpt lat="42.998794" lon="-1.485304">
				<ele>1001</ele>
				<time>2019-11-25T22:12:27Z</time>
			</trkpt>
			<trkpt lat="42.998569" lon="-1.485119">
				<ele>1001</ele>
				<time>2019-11-25T22:12:47Z</time>
			</trkpt>
			<trkpt lat="42.998465" lon="-1.485008">
				<ele>1001</ele>
				<time>2019-11-25T22:13:07Z</time>
			</trkpt>
			<trkpt lat="42.998349" lon="-1.4848">
				<ele>1001</ele>
				<time>2019-11-25T22:13:27Z</time>
			</trkpt>
			<trkpt lat="42.998285" lon="-1.484656">
				<ele>1001</ele>
				<time>2019-11-25T22:13:47Z</time>
			</trkpt>
			<trkpt lat="42.998194" lon="-1.484495">
				<ele>1001</ele>
				<time>2019-11-25T22:14:07Z</time>
			</trkpt>
			<trkpt lat="42.998142" lon="-1.484431">
				<ele>1001</ele>
				<time>2019-11-25T22:14:27Z</time>
			</trkpt>
			<trkpt lat="42.998091" lon="-1.48439">
				<ele>1001</ele>
				<time>2019-11-25T22:14:47Z</time>
			</trkpt>
			<trkpt lat="42.997991" lon="-1.484387">
				<ele>1001</ele>
				<time>2019-11-25T22:15:07Z</time>
			</trkpt>
			<trkpt lat="42.99795" lon="-1.484422">
				<ele>1001</ele>
				<time>2019-11-25T22:15:27Z</time>
			</trkpt>
			<trkpt lat="42.997868" lon="-1.484502">
				<ele>1002</ele>
				<time>2019-11-25T22:15:47Z</time>
			</trkpt>
			<trkpt lat="42.997771" lon="-1.484556">
				<ele>1002</ele>
				<time>2019-11-25T22:16:07Z</time>
			</trkpt>
			<trkpt lat="42.997685" lon="-1.484615">
				<ele>1002</ele>
				<time>2019-11-25T22:16:27Z</time>
			</trkpt>
			<trkpt lat="42.997603" lon="-1.484675">
				<ele>1002</ele>
				<time>2019-11-25T22:16:47Z</time>
			</trkpt>
			<trkpt lat="42.997509" lon="-1.48473">
				<ele>1002</ele>
				<time>2019-11-25T22:17:07Z</time>
			</trkpt>
			<trkpt lat="42.997428" lon="-1.48479">
				<ele>1002</ele>
				<time>2019-11-25T22:17:27Z</time>
			</trkpt>
			<trkpt lat="42.997323" lon="-1.484837">
				<ele>1002</ele>
				<time>2019-11-25T22:17:47Z</time>
			</trkpt>
			<trkpt lat="42.997245" lon="-1.484909">
				<ele>1002</ele>
				<time>2019-11-25T22:18:07Z</time>
			</trkpt>
			<trkpt lat="42.997182" lon="-1.484999">
				<ele>1002</ele>
				<time>2019-11-25T22:18:27Z</time>
			</trkpt>
			<trkpt lat="42.997091" lon="-1.485109">
				<ele>1002</ele>
				<time>2019-11-25T22:18:47Z</time>
			</trkpt>
			<trkpt lat="42.997" lon="-1.485216">
				<ele>1002</ele>
				<time>2019-11-25T22:19:07Z</time>
			</trkpt>
			<trkpt lat="42.996925" lon="-1.485312">
				<ele>1002</ele>
				<time>2019-11-25T22:19:27Z</time>
			</trkpt>
			<trkpt lat="42.996828" lon="-1.485397">
				<ele>1002</ele>
				<time>2019-11-25T22:19:47Z</time>
			</trkpt>
			<trkpt lat="42.996718" lon="-1.485499">
				<ele>935</ele>
				<time>2019-11-25T22:20:07Z</time>
			</trkpt>
			<trkpt lat="42.996627" lon="-1.485609">
				<ele>935</ele>
				<time>2019-11-25T22:20:27Z</time>
			</trkpt>
			<trkpt lat="42.996543" lon="-1.485694">
				<ele>935</ele>
				<time>2019-11-25T22:20:47Z</time>
			</trkpt>
			<trkpt lat="42.996455" lon="-1.485793">
				<ele>935</ele>
				<time>2019-11-25T22:21:07Z</time>
			</trkpt>
			<trkpt lat="42.996371" lon="-1.485898">
				<ele>935</ele>
				<time>2019-11-25T22:21:27Z</time>
			</trkpt>
			<trkpt lat="42.996265" lon="-1.485969">
				<ele>935</ele>
				<time>2019-11-25T22:21:47Z</time>
			</trkpt>
			<trkpt lat="42.996179" lon="-1.486067">
				<ele>935</ele>
				<time>2019-11-25T22:22:07Z</time>
			</trkpt>
			<trkpt lat="42.996067" lon="-1.486169">
				<ele>935</ele>
				<time>2019-11-25T22:22:27Z</time>
			</trkpt>
			<trkpt lat="42.995958" lon="-1.486252">
				<ele>935</ele>
				<time>2019-11-25T22:22:47Z</time>
			</trkpt>
			<trkpt lat="42.995849" lon="-1.486319">
				<ele>935</ele>
				<time>2019-11-25T22:23:07Z</time>
			</trkpt>
			<trkpt lat="42.995731" lon="-1.486377">
				<ele>972</ele>
				<time>2019-11-25T22:23:27Z</time>
			</trkpt>
			<trkpt lat="42.995609" lon="-1.486433">
				<ele>972</ele>
				<time>2019-11-25T22:23:47Z</time>
			</trkpt>
			<trkpt lat="42.995491" lon="-1.486469">
				<ele>972</ele>
				<time>2019-11-25T22:24:07Z</time>
			</trkpt>
			<trkpt lat="42.995387" lon="-1.486494">
				<ele>972</ele>
				<time>2019-11-25T22:24:27Z</time>
			</trkpt>
			<trkpt lat="42.995264" lon="-1.486468">
				<ele>972</ele>
				<time>2019-11-25T22:24:47Z</time>
			</trkpt>
			<trkpt lat="42.995148" lon="-1.486389">
				<ele>972</ele>
				<time>2019-11-25T22:25:07Z</time>
			</trkpt>
			<trkpt lat="42.995041" lon="-1.486322">
				<ele>972</ele>
				<time>2019-11-25T22:25:27Z</time>
			</trkpt>
			<trkpt lat="42.994923" lon="-1.486148">
				<ele>972</ele>
				<time>2019-11-25T22:25:47Z</time>
			</trkpt>
			<trkpt lat="42.99485" lon="-1.485995">
				<ele>972</ele>
				<time>2019-11-25T22:26:07Z</time>
			</trkpt>
			<trkpt lat="42.994812" lon="-1.485885">
				<ele>972</ele>
				<time>2019-11-25T22:26:27Z</time>
			</trkpt>
			<trkpt lat="42.994756" lon="-1.485754">
				<ele>972</ele>
				<time>2019-11-25T22:26:47Z</time>
			</trkpt>
			<trkpt lat="42.9947" lon="-1.485597">
				<ele>972</ele>
				<time>2019-11-25T22:27:07Z</time>
			</trkpt>
			<trkpt lat="42.994642" lon="-1.485446">
				<ele>972</ele>
				<time>2019-11-25T22:27:27Z</time>
			</trkpt>
			<trkpt lat="42.994575" lon="-1.485315">
				<ele>1011</ele>
				<time>2019-11-25T22:27:47Z</time>
			</trkpt>
			<trkpt lat="42.994531" lon="-1.485199">
				<ele>1011</ele>
				<time>2019-11-25T22:28:07Z</time>
			</trkpt>
			<trkpt lat="42.994495" lon="-1.485057">
				<ele>1011</ele>
				<time>2019-11-25T22:28:27Z</time>
			</trkpt>
			<trkpt lat="42.994494" lon="-1.484894">
				<ele>1011</ele>
				<time>2019-11-25T22:28:47Z</time>
			</trkpt>
			<trkpt lat="42.994507" lon="-1.484736">
				<ele>1011</ele>
				<time>2019-11-25T22:29:07Z</time>
			</trkpt>
			<trkpt lat="42.994521" lon="-1.48459">
				<ele>1011</ele>
				<time>2019-11-25T22:29:27Z</time>
			</trkpt>
			<trkpt lat="42.994528" lon="-1.484437">
				<ele>1011</ele>
				<time>2019-11-25T22:29:47Z</time>
			</trkpt>
			<trkpt lat="42.994514" lon="-1.484223">
				<ele>1011</ele>
				<time>2019-11-25T22:30:07Z</time>
			</trkpt>
			<trkpt lat="42.994452" lon="-1.484054">
				<ele>1011</ele>
				<time>2019-11-25T22:30:27Z</time>
			</trkpt>
			<trkpt lat="42.994343" lon="-1.483933">
				<ele>1011</ele>
				<time>2019-11-25T22:30:47Z</time>
			</trkpt>
			<trkpt lat="42.994275" lon="-1.483806">
				<ele>1011</ele>
				<time>2019-11-25T22:31:07Z</time>
			</trkpt>
			<trkpt lat="42.994238" lon="-1.483734">
				<ele>1011</ele>
				<time>2019-11-25T22:31:27Z</time>
			</trkpt>
			<trkpt lat="42.9942" lon="-1.483662">
				<ele>1011</ele>
				<time>2019-11-25T22:31:47Z</time>
			</trkpt>
			<trkpt lat="42.994099" lon="-1.48365">
				<ele>1011</ele>
				<time>2019-11-25T22:32:07Z</time>
			</trkpt>
			<trkpt lat="42.994021" lon="-1.483733">
				<ele>1011</ele>
				<time>2019-11-25T22:32:27Z</time>
			</trkpt>
			<trkpt lat="42.993936" lon="-1.483772">
				<ele>1011</ele>
				<time>2019-11-25T22:32:47Z</time>
			</trkpt>
			<trkpt lat="42.993771" lon="-1.483839">
				<ele>1011</ele>
				<time>2019-11-25T22:33:07Z</time>
			</trkpt>
			<trkpt lat="42.993635" lon="-1.48387">
				<ele>973</ele>
				<time>2019-11-25T22:33:27Z</time>
			</trkpt>
			<trkpt lat="42.993388" lon="-1.483876">
				<ele>973</ele>
				<time>2019-11-25T22:33:47Z</time>
			</trkpt>
			<trkpt lat="42.993262" lon="-1.483913">
				<ele>973</ele>
				<time>2019-11-25T22:34:07Z</time>
			</trkpt>
			<trkpt lat="42.993159" lon="-1.483961">
				<ele>973</ele>
				<time>2019-11-25T22:34:27Z</time>
			</trkpt>
			<trkpt lat="42.993055" lon="-1.48401">
				<ele>973</ele>
				<time>2019-11-25T22:34:47Z</time>
			</trkpt>
			<trkpt lat="42.992952" lon="-1.484024">
				<ele>973</ele>
				<time>2019-11-25T22:35:07Z</time>
			</trkpt>
			<trkpt lat="42.992843" lon="-1.484021">
				<ele>973</ele>
				<time>2019-11-25T22:35:27Z</time>
			</trkpt>
			<trkpt lat="42.992739" lon="-1.483951">
				<ele>973</ele>
				<time>2019-11-25T22:35:47Z</time>
			</trkpt>
			<trkpt lat="42.992666" lon="-1.483844">
				<ele>973</ele>
				<time>2019-11-25T22:36:07Z</time>
			</trkpt>
			<trkpt lat="42.992626" lon="-1.483745">
				<ele>973</ele>
				<time>2019-11-25T22:36:27Z</time>
			</trkpt>
			<trkpt lat="42.992556" lon="-1.483508">
				<ele>973</ele>
				<time>2019-11-25T22:36:47Z</time>
			</trkpt>
			<trkpt lat="42.992441" lon="-1.483271">
				<ele>1051</ele>
				<time>2019-11-25T22:37:07Z</time>
			</trkpt>
			<trkpt lat="42.992352" lon="-1.483107">
				<ele>1051</ele>
				<time>2019-11-25T22:37:27Z</time>
			</trkpt>
			<trkpt lat="42.992208" lon="-1.4829">
				<ele>1051</ele>
				<time>2019-11-25T22:37:47Z</time>
			</trkpt>
			<trkpt lat="42.992036" lon="-1.482726">
				<ele>1051</ele>
				<time>2019-11-25T22:38:07Z</time>
			</trkpt>
			<trkpt lat="42.991977" lon="-1.482664">
				<ele>1051</ele>
				<time>2019-11-25T22:38:27Z</time>
			</trkpt>
			<trkpt lat="42.991925" lon="-1.482575">
				<ele>1051</ele>
				<time>2019-11-25T22:38:47Z</time>
			</trkpt>
			<trkpt lat="42.991873" lon="-1.482427">
				<ele>1051</ele>
				<time>2019-11-25T22:39:07Z</time>
			</trkpt>
			<trkpt lat="42.991771" lon="-1.482301">
				<ele>1051</ele>
				<time>2019-11-25T22:39:27Z</time>
			</trkpt>
			<trkpt lat="42.991667" lon="-1.482233">
				<ele>1051</ele>
				<time>2019-11-25T22:39:47Z</time>
			</trkpt>
			<trkpt lat="42.991547" lon="-1.48222">
				<ele>1010</ele>
				<time>2019-11-25T22:40:07Z</time>
			</trkpt>
			<trkpt lat="42.991464" lon="-1.482223">
				<ele>1010</ele>
				<time>2019-11-25T22:40:27Z</time>
			</trkpt>
			<trkpt lat="42.991409" lon="-1.482252">
				<ele>1010</ele>
				<time>2019-11-25T22:40:47Z</time>
			</trkpt>
			<trkpt lat="42.991308" lon="-1.482317">
				<ele>1010</ele>
				<time>2019-11-25T22:41:07Z</time>
			</trkpt>
			<trkpt lat="42.991232" lon="-1.482362">
				<ele>1010</ele>
				<time>2019-11-25T22:41:27Z</time>
			</trkpt>
			<trkpt lat="42.991147" lon="-1.482393">
				<ele>1010</ele>
				<time>2019-11-25T22:41:47Z</time>
			</trkpt>
			<trkpt lat="42.99105" lon="-1.482394">
				<ele>1010</ele>
				<time>2019-11-25T22:42:07Z</time>
			</trkpt>
			<trkpt lat="42.99096" lon="-1.48233">
				<ele>1010</ele>
				<time>2019-11-25T22:42:27Z</time>
			</trkpt>
			<trkpt lat="42.990854" lon="-1.482262">
				<ele>1010</ele>
				<time>2019-11-25T22:42:47Z</time>
			</trkpt>
			<trkpt lat="42.990725" lon="-1.482171">
				<ele>1010</ele>
				<time>2019-11-25T22:43:07Z</time>
			</trkpt>
			<trkpt lat="42.99061" lon="-1.482094">
				<ele>1010</ele>
				<time>2019-11-25T22:43:27Z</time>
			</trkpt>
			<trkpt lat="42.990484" lon="-1.482008">
				<ele>1010</ele>
				<time>2019-11-25T22:43:47Z</time>
			</trkpt>
			<trkpt lat="42.990339" lon="-1.481928">
				<ele>1010</ele>
				<time>2019-11-25T22:44:07Z</time>
			</trkpt>
			<trkpt lat="42.990186" lon="-1.481857">
				<ele>1010</ele>
				<time>2019-11-25T22:44:27Z</time>
			</trkpt>
			<trkpt lat="42.990104" lon="-1.481822">
				<ele>1010</ele>
				<time>2019-11-25T22:44:47Z</time>
			</trkpt>
			<trkpt lat="42.990022" lon="-1.481814">
				<ele>1010</ele>
				<time>2019-11-25T22:45:07Z</time>
			</trkpt>
			<trkpt lat="42.989882" lon="-1.481814">
				<ele>1010</ele>
				<time>2019-11-25T22:45:27Z</time>
			</trkpt>
			<trkpt lat="42.989737" lon="-1.481807">
				<ele>1010</ele>
				<time>2019-11-25T22:45:47Z</time>
			</trkpt>
			<trkpt lat="42.989541" lon="-1.481797">
				<ele>999</ele>
				<time>2019-11-25T22:46:07Z</time>
			</trkpt>
			<trkpt lat="42.989326" lon="-1.481775">
				<ele>999</ele>
				<time>2019-11-25T22:46:27Z</time>
			</trkpt>
			<trkpt lat="42.989127" lon="-1.481738">
				<ele>999</ele>
				<time>2019-11-25T22:46:47Z</time>
			</trkpt>
			<trkpt lat="42.988996" lon="-1.481726">
				<ele>999</ele>
				<time>2019-11-25T22:47:07Z</time>
			</trkpt>
			<trkpt lat="42.988892" lon="-1.481715">
				<ele>999</ele>
				<time>2019-11-25T22:47:27Z</time>
			</trkpt>
			<trkpt lat="42.988781" lon="-1.481709">
				<ele>999</ele>
				<time>2019-11-25T22:47:47Z</time>
			</trkpt>
			<trkpt lat="42.988647" lon="-1.481713">
				<ele>999</ele>
				<time>2019-11-25T22:48:07Z</time>
			</trkpt>
			<trkpt lat="42.988513" lon="-1.481705">
				<ele>999</ele>
				<time>2019-11-25T22:48:27Z</time>
			</trkpt>
			<trkpt lat="42.988416" lon="-1.48172">
				<ele>999</ele>
				<time>2019-11-25T22:48:47Z</time>
			</trkpt>
			<trkpt lat="42.98831" lon="-1.481777">
				<ele>999</ele>
				<time>2019-11-25T22:49:07Z</time>
			</trkpt>
			<trkpt lat="42.988229" lon="-1.481797">
				<ele>999</ele>
				<time>2019-11-25T22:49:27Z</time>
			</trkpt>
			<trkpt lat="42.988161" lon="-1.481826">
				<ele>999</ele>
				<time>2019-11-25T22:49:47Z</time>
			</trkpt>
			<trkpt lat="42.988087" lon="-1.48186">
				<ele>999</ele>
				<time>2019-11-25T22:50:07Z</time>
			</trkpt>
			<trkpt lat="42.987992" lon="-1.481921">
				<ele>999</ele>
				<time>2019-11-25T22:50:27Z</time>
			</trkpt>
			<trkpt lat="42.987928" lon="-1.481957">
				<ele>999</ele>
				<time>2019-11-25T22:50:47Z</time>
			</trkpt>
			<trkpt lat="42.987874" lon="-1.48201">
				<ele>999</ele>
				<time>2019-11-25T22:51:07Z</time>
			</trkpt>
			<trkpt lat="42.987795" lon="-1.48214">
				<ele>999</ele>
				<time>2019-11-25T22:51:27Z</time>
			</trkpt>
			<trkpt lat="42.987733" lon="-1.482281">
				<ele>999</ele>
				<time>2019-11-25T22:51:47Z</time>
			</trkpt>
			<trkpt lat="42.987672" lon="-1.482434">
				<ele>999</ele>
				<time>2019-11-25T22:52:07Z</time>
			</trkpt>
			<trkpt lat="42.987615" lon="-1.482601">
				<ele>999</ele>
				<time>2019-11-25T22:52:27Z</time>
			</trkpt>
			<trkpt lat="42.987551" lon="-1.48278">
				<ele>999</ele>
				<time>2019-11-25T22:52:47Z</time>
			</trkpt>
			<trkpt lat="42.987484" lon="-1.482969">
				<ele>1089</ele>
				<time>2019-11-25T22:53:07Z</time>
			</trkpt>
			<trkpt lat="42.987403" lon="-1.483177">
				<ele>1089</ele>
				<time>2019-11-25T22:53:27Z</time>
			</trkpt>
			<trkpt lat="42.987325" lon="-1.483403">
				<ele>1043</ele>
				<time>2019-11-25T22:53:47Z</time>
			</trkpt>
			<trkpt lat="42.987272" lon="-1.483508">
				<ele>1043</ele>
				<time>2019-11-25T22:54:07Z</time>
			</trkpt>
			<trkpt lat="42.987214" lon="-1.483618">
				<ele>1043</ele>
				<time>2019-11-25T22:54:27Z</time>
			</trkpt>
			<trkpt lat="42.987152" lon="-1.483926">
				<ele>1043</ele>
				<time>2019-11-25T22:54:47Z</time>
			</trkpt>
			<trkpt lat="42.987099" lon="-1.484135">
				<ele>1043</ele>
				<time>2019-11-25T22:55:07Z</time>
			</trkpt>
			<trkpt lat="42.987056" lon="-1.484342">
				<ele>1043</ele>
				<time>2019-11-25T22:55:27Z</time>
			</trkpt>
			<trkpt lat="42.987006" lon="-1.484533">
				<ele>1043</ele>
				<time>2019-11-25T22:55:47Z</time>
			</trkpt>
			<trkpt lat="42.98697" lon="-1.48465">
				<ele>1043</ele>
				<time>2019-11-25T22:56:07Z</time>
			</trkpt>
			<trkpt lat="42.98699" lon="-1.484741">
				<ele>1043</ele>
				<time>2019-11-25T22:56:27Z</time>
			</trkpt>
			<trkpt lat="42.987036" lon="-1.484895">
				<ele>1043</ele>
				<time>2019-11-25T22:56:47Z</time>
			</trkpt>
			<trkpt lat="42.987104" lon="-1.485026">
				<ele>1043</ele>
				<time>2019-11-25T22:57:07Z</time>
			</trkpt>
			<trkpt lat="42.987159" lon="-1.485147">
				<ele>1043</ele>
				<time>2019-11-25T22:57:27Z</time>
			</trkpt>
			<trkpt lat="42.987194" lon="-1.485205">
				<ele>1043</ele>
				<time>2019-11-25T22:57:47Z</time>
			</trkpt>
			<trkpt lat="42.987237" lon="-1.485252">
				<ele>1043</ele>
				<time>2019-11-25T22:58:07Z</time>
			</trkpt>
			<trkpt lat="42.987293" lon="-1.485274">
				<ele>1043</ele>
				<time>2019-11-25T22:58:27Z</time>
			</trkpt>
			<trkpt lat="42.987355" lon="-1.485272">
				<ele>1043</ele>
				<time>2019-11-25T22:58:47Z</time>
			</trkpt>
			<trkpt lat="42.987481" lon="-1.485235">
				<ele>1043</ele>
				<time>2019-11-25T22:59:07Z</time>
			</trkpt>
			<trkpt lat="42.987603" lon="-1.485159">
				<ele>956</ele>
				<time>2019-11-25T22:59:27Z</time>
			</trkpt>
			<trkpt lat="42.98771" lon="-1.485057">
				<ele>956</ele>
				<time>2019-11-25T22:59:47Z</time>
			</trkpt>
			<trkpt lat="42.987809" lon="-1.484982">
				<ele>956</ele>
				<time>2019-11-25T23:00:07Z</time>
			</trkpt>
			<trkpt lat="42.987902" lon="-1.484996">
				<ele>956</ele>
				<time>2019-11-25T23:00:27Z</time>
			</trkpt>
			<trkpt lat="42.987991" lon="-1.485097">
				<ele>956</ele>
				<time>2019-11-25T23:00:47Z</time>
			</trkpt>
			<trkpt lat="42.988077" lon="-1.485232">
				<ele>956</ele>
				<time>2019-11-25T23:01:07Z</time>
			</trkpt>
			<trkpt lat="42.988168" lon="-1.485384">
				<ele>956</ele>
				<time>2019-11-25T23:01:27Z</time>
			</trkpt>
			<trkpt lat="42.988264" lon="-1.485549">
				<ele>987</ele>
				<time>2019-11-25T23:01:47Z</time>
			</trkpt>
			<trkpt lat="42.988359" lon="-1.485723">
				<ele>987</ele>
				<time>2019-11-25T23:02:07Z</time>
			</trkpt>
			<trkpt lat="42.98845" lon="-1.485878">
				<ele>987</ele>
				<time>2019-11-25T23:02:27Z</time>
			</trkpt>
			<trkpt lat="42.988538" lon="-1.486037">
				<ele>987</ele>
				<time>2019-11-25T23:02:47Z</time>
			</trkpt>
			<trkpt lat="42.988626" lon="-1.486195">
				<ele>987</ele>
				<time>2019-11-25T23:03:07Z</time>
			</trkpt>
			<trkpt lat="42.988686" lon="-1.486355">
				<ele>987</ele>
				<time>2019-11-25T23:03:27Z</time>
			</trkpt>
			<trkpt lat="42.988763" lon="-1.486514">
				<ele>987</ele>
				<time>2019-11-25T23:03:47Z</time>
			</trkpt>
			<trkpt lat="42.988815" lon="-1.48671">
				<ele>987</ele>
				<time>2019-11-25T23:04:07Z</time>
			</trkpt>
			<trkpt lat="42.988875" lon="-1.486863">
				<ele>987</ele>
				<time>2019-11-25T23:04:27Z</time>
			</trkpt>
			<trkpt lat="42.988915" lon="-1.487032">
				<ele>987</ele>
				<time>2019-11-25T23:04:47Z</time>
			</trkpt>
			<trkpt lat="42.988944" lon="-1.487247">
				<ele>987</ele>
				<time>2019-11-25T23:05:07Z</time>
			</trkpt>
			<trkpt lat="42.988941" lon="-1.487484">
				<ele>987</ele>
				<time>2019-11-25T23:05:27Z</time>
			</trkpt>
			<trkpt lat="42.988977" lon="-1.487696">
				<ele>1006</ele>
				<time>2019-11-25T23:05:47Z</time>
			</trkpt>
			<trkpt lat="42.989028" lon="-1.487917">
				<ele>1006</ele>
				<time>2019-11-25T23:06:07Z</time>
			</trkpt>
			<trkpt lat="42.989103" lon="-1.488088">
				<ele>1006</ele>
				<time>2019-11-25T23:06:27Z</time>
			</trkpt>
			<trkpt lat="42.98917" lon="-1.488237">
				<ele>1006</ele>
				<time>2019-11-25T23:06:47Z</time>
			</trkpt>
			<trkpt lat="42.989195" lon="-1.488404">
				<ele>1006</ele>
				<time>2019-11-25T23:07:07Z</time>
			</trkpt>
			<trkpt lat="42.98923" lon="-1.488576">
				<ele>1006</ele>
				<time>2019-11-25T23:07:27Z</time>
			</trkpt>
			<trkpt lat="42.989262" lon="-1.488765">
				<ele>1006</ele>
				<time>2019-11-25T23:07:47Z</time>
			</trkpt>
			<trkpt lat="42.989315" lon="-1.488954">
				<ele>1006</ele>
				<time>2019-11-25T23:08:07Z</time>
			</trkpt>
			<trkpt lat="42.989411" lon="-1.489124">
				<ele>1006</ele>
				<time>2019-11-25T23:08:27Z</time>
			</trkpt>
			<trkpt lat="42.989448" lon="-1.489238">
				<ele>1006</ele>
				<time>2019-11-25T23:08:47Z</time>
			</trkpt>
			<trkpt lat="42.98952" lon="-1.489315">
				<ele>1006</ele>
				<time>2019-11-25T23:09:07Z</time>
			</trkpt>
			<trkpt lat="42.989654" lon="-1.48945">
				<ele>917</ele>
				<time>2019-11-25T23:09:27Z</time>
			</trkpt>
			<trkpt lat="42.989802" lon="-1.489603">
				<ele>933</ele>
				<time>2019-11-25T23:09:47Z</time>
			</trkpt>
			<trkpt lat="42.989868" lon="-1.489701">
				<ele>933</ele>
				<time>2019-11-25T23:10:07Z</time>
			</trkpt>
			<trkpt lat="42.99" lon="-1.489873">
				<ele>933</ele>
				<time>2019-11-25T23:10:27Z</time>
			</trkpt>
			<trkpt lat="42.990068" lon="-1.489984">
				<ele>933</ele>
				<time>2019-11-25T23:10:47Z</time>
			</trkpt>
			<trkpt lat="42.990094" lon="-1.490094">
				<ele>933</ele>
				<time>2019-11-25T23:11:07Z</time>
			</trkpt>
			<trkpt lat="42.990159" lon="-1.490305">
				<ele>933</ele>
				<time>2019-11-25T23:11:27Z</time>
			</trkpt>
			<trkpt lat="42.990191" lon="-1.490409">
				<ele>933</ele>
				<time>2019-11-25T23:11:47Z</time>
			</trkpt>
			<trkpt lat="42.990239" lon="-1.490606">
				<ele>933</ele>
				<time>2019-11-25T23:12:07Z</time>
			</trkpt>
			<trkpt lat="42.990255" lon="-1.49079">
				<ele>933</ele>
				<time>2019-11-25T23:12:27Z</time>
			</trkpt>
			<trkpt lat="42.990243" lon="-1.49096">
				<ele>933</ele>
				<time>2019-11-25T23:12:47Z</time>
			</trkpt>
			<trkpt lat="42.990196" lon="-1.491117">
				<ele>933</ele>
				<time>2019-11-25T23:13:07Z</time>
			</trkpt>
			<trkpt lat="42.990118" lon="-1.491254">
				<ele>933</ele>
				<time>2019-11-25T23:13:27Z</time>
			</trkpt>
			<trkpt lat="42.990023" lon="-1.491362">
				<ele>933</ele>
				<time>2019-11-25T23:13:47Z</time>
			</trkpt>
			<trkpt lat="42.989911" lon="-1.491421">
				<ele>933</ele>
				<time>2019-11-25T23:14:07Z</time>
			</trkpt>
			<trkpt lat="42.989756" lon="-1.491508">
				<ele>933</ele>
				<time>2019-11-25T23:14:27Z</time>
			</trkpt>
			<trkpt lat="42.989623" lon="-1.491541">
				<ele>933</ele>
				<time>2019-11-25T23:14:47Z</time>
			</trkpt>
			<trkpt lat="42.989479" lon="-1.491597">
				<ele>989</ele>
				<time>2019-11-25T23:15:07Z</time>
			</trkpt>
			<trkpt lat="42.989326" lon="-1.491631">
				<ele>989</ele>
				<time>2019-11-25T23:15:27Z</time>
			</trkpt>
			<trkpt lat="42.989184" lon="-1.491673">
				<ele>928</ele>
				<time>2019-11-25T23:15:47Z</time>
			</trkpt>
			<trkpt lat="42.989074" lon="-1.491723">
				<ele>928</ele>
				<time>2019-11-25T23:16:07Z</time>
			</trkpt>
			<trkpt lat="42.988992" lon="-1.491837">
				<ele>928</ele>
				<time>2019-11-25T23:16:27Z</time>
			</trkpt>
			<trkpt lat="42.988899" lon="-1.491991">
				<ele>928</ele>
				<time>2019-11-25T23:16:47Z</time>
			</trkpt>
			<trkpt lat="42.988819" lon="-1.492187">
				<ele>928</ele>
				<time>2019-11-25T23:17:07Z</time>
			</trkpt>
			<trkpt lat="42.988776" lon="-1.492391">
				<ele>928</ele>
				<time>2019-11-25T23:17:27Z</time>
			</trkpt>
			<trkpt lat="42.988748" lon="-1.492635">
				<ele>928</ele>
				<time>2019-11-25T23:17:47Z</time>
			</trkpt>
			<trkpt lat="42.988723" lon="-1.49283">
				<ele>928</ele>
				<time>2019-11-25T23:18:07Z</time>
			</trkpt>
			<trkpt lat="42.988745" lon="-1.493078">
				<ele>928</ele>
				<time>2019-11-25T23:18:27Z</time>
			</trkpt>
			<trkpt lat="42.988761" lon="-1.493249">
				<ele>928</ele>
				<time>2019-11-25T23:18:47Z</time>
			</trkpt>
			<trkpt lat="42.988767" lon="-1.49344">
				<ele>928</ele>
				<time>2019-11-25T23:19:07Z</time>
			</trkpt>
			<trkpt lat="42.988779" lon="-1.493648">
				<ele>928</ele>
				<time>2019-11-25T23:19:27Z</time>
			</trkpt>
			<trkpt lat="42.988771" lon="-1.493843">
				<ele>897</ele>
				<time>2019-11-25T23:19:47Z</time>
			</trkpt>
			<trkpt lat="42.988718" lon="-1.494008">
				<ele>897</ele>
				<time>2019-11-25T23:20:07Z</time>
			</trkpt>
			<trkpt lat="42.988664" lon="-1.494116">
				<ele>897</ele>
				<time>2019-11-25T23:20:27Z</time>
			</trkpt>
			<trkpt lat="42.988613" lon="-1.494159">
				<ele>897</ele>
				<time>2019-11-25T23:20:47Z</time>
			</trkpt>
			<trkpt lat="42.988466" lon="-1.494247">
				<ele>897</ele>
				<time>2019-11-25T23:21:07Z</time>
			</trkpt>
			<trkpt lat="42.988329" lon="-1.494339">
				<ele>897</ele>
				<time>2019-11-25T23:21:27Z</time>
			</trkpt>
			<trkpt lat="42.988205" lon="-1.494435">
				<ele>897</ele>
				<time>2019-11-25T23:21:47Z</time>
			</trkpt>
			<trkpt lat="42.988054" lon="-1.494556">
				<ele>897</ele>
				<time>2019-11-25T23:22:07Z</time>
			</trkpt>
			<trkpt lat="42.988006" lon="-1.494753">
				<ele>897</ele>
				<time>2019-11-25T23:22:27Z</time>
			</trkpt>
			<trkpt lat="42.988002" lon="-1.494919">
				<ele>897</ele>
				<time>2019-11-25T23:22:47Z</time>
			</trkpt>
			<trkpt lat="42.988065" lon="-1.495041">
				<ele>897</ele>
				<time>2019-11-25T23:23:07Z</time>
			</trkpt>
			<trkpt lat="42.988109" lon="-1.495153">
				<ele>897</ele>
				<time>2019-11-25T23:23:27Z</time>
			</trkpt>
			<trkpt lat="42.98813" lon="-1.49532">
				<ele>897</ele>
				<time>2019-11-25T23:23:47Z</time>
			</trkpt>
			<trkpt lat="42.988174" lon="-1.495507">
				<ele>897</ele>
				<time>2019-11-25T23:24:07Z</time>
			</trkpt>
			<trkpt lat="42.988256" lon="-1.495665">
				<ele>897</ele>
				<time>2019-11-25T23:24:27Z</time>
			</trkpt>
			<trkpt lat="42.988244" lon="-1.495868">
				<ele>877</ele>
				<time>2019-11-25T23:24:47Z</time>
			</trkpt>
			<trkpt lat="42.988176" lon="-1.496012">
				<ele>877</ele>
				<time>2019-11-25T23:25:07Z</time>
			</trkpt>
			<trkpt lat="42.988188" lon="-1.496266">
				<ele>877</ele>
				<time>2019-11-25T23:25:27Z</time>
			</trkpt>
			<trkpt lat="42.988227" lon="-1.496418">
				<ele>877</ele>
				<time>2019-11-25T23:25:47Z</time>
			</trkpt>
			<trkpt lat="42.988197" lon="-1.496585">
				<ele>877</ele>
				<time>2019-11-25T23:26:07Z</time>
			</trkpt>
			<trkpt lat="42.988129" lon="-1.496716">
				<ele>877</ele>
				<time>2019-11-25T23:26:27Z</time>
			</trkpt>
			<trkpt lat="42.988071" lon="-1.496846">
				<ele>877</ele>
				<time>2019-11-25T23:26:47Z</time>
			</trkpt>
			<trkpt lat="42.988036" lon="-1.497009">
				<ele>877</ele>
				<time>2019-11-25T23:27:07Z</time>
			</trkpt>
			<trkpt lat="42.988064" lon="-1.497196">
				<ele>877</ele>
				<time>2019-11-25T23:27:27Z</time>
			</trkpt>
			<trkpt lat="42.988084" lon="-1.497412">
				<ele>877</ele>
				<time>2019-11-25T23:27:47Z</time>
			</trkpt>
			<trkpt lat="42.988103" lon="-1.497623">
				<ele>877</ele>
				<time>2019-11-25T23:28:07Z</time>
			</trkpt>
			<trkpt lat="42.988157" lon="-1.497788">
				<ele>877</ele>
				<time>2019-11-25T23:28:27Z</time>
			</trkpt>
			<trkpt lat="42.9882" lon="-1.497984">
				<ele>876</ele>
				<time>2019-11-25T23:28:47Z</time>
			</trkpt>
			<trkpt lat="42.98825" lon="-1.498192">
				<ele>876</ele>
				<time>2019-11-25T23:29:07Z</time>
			</trkpt>
			<trkpt lat="42.988393" lon="-1.49844">
				<ele>876</ele>
				<time>2019-11-25T23:29:27Z</time>
			</trkpt>
			<trkpt lat="42.988507" lon="-1.498546">
				<ele>876</ele>
				<time>2019-11-25T23:29:47Z</time>
			</trkpt>
			<trkpt lat="42.988628" lon="-1.498599">
				<ele>876</ele>
				<time>2019-11-25T23:30:07Z</time>
			</trkpt>
			<trkpt lat="42.988727" lon="-1.49865">
				<ele>876</ele>
				<time>2019-11-25T23:30:27Z</time>
			</trkpt>
			<trkpt lat="42.988792" lon="-1.498746">
				<ele>876</ele>
				<time>2019-11-25T23:30:47Z</time>
			</trkpt>
			<trkpt lat="42.988848" lon="-1.49885">
				<ele>876</ele>
				<time>2019-11-25T23:31:07Z</time>
			</trkpt>
			<trkpt lat="42.988877" lon="-1.499024">
				<ele>876</ele>
				<time>2019-11-25T23:31:27Z</time>
			</trkpt>
			<trkpt lat="42.988855" lon="-1.499169">
				<ele>876</ele>
				<time>2019-11-25T23:31:47Z</time>
			</trkpt>
			<trkpt lat="42.988772" lon="-1.499282">
				<ele>876</ele>
				<time>2019-11-25T23:32:07Z</time>
			</trkpt>
			<trkpt lat="42.988687" lon="-1.49929">
				<ele>876</ele>
				<time>2019-11-25T23:32:27Z</time>
			</trkpt>
			<trkpt lat="42.988605" lon="-1.499256">
				<ele>876</ele>
				<time>2019-11-25T23:32:47Z</time>
			</trkpt>
			<trkpt lat="42.988478" lon="-1.499187">
				<ele>876</ele>
				<time>2019-11-25T23:33:07Z</time>
			</trkpt>
			<trkpt lat="42.988354" lon="-1.499121">
				<ele>876</ele>
				<time>2019-11-25T23:33:27Z</time>
			</trkpt>
			<trkpt lat="42.988226" lon="-1.499084">
				<ele>876</ele>
				<time>2019-11-25T23:33:47Z</time>
			</trkpt>
			<trkpt lat="42.988091" lon="-1.499067">
				<ele>876</ele>
				<time>2019-11-25T23:34:07Z</time>
			</trkpt>
			<trkpt lat="42.987949" lon="-1.499055">
				<ele>876</ele>
				<time>2019-11-25T23:34:27Z</time>
			</trkpt>
			<trkpt lat="42.987778" lon="-1.499063">
				<ele>876</ele>
				<time>2019-11-25T23:34:47Z</time>
			</trkpt>
			<trkpt lat="42.987628" lon="-1.499164">
				<ele>876</ele>
				<time>2019-11-25T23:35:07Z</time>
			</trkpt>
			<trkpt lat="42.987491" lon="-1.499298">
				<ele>878</ele>
				<time>2019-11-25T23:35:27Z</time>
			</trkpt>
			<trkpt lat="42.987387" lon="-1.499479">
				<ele>878</ele>
				<time>2019-11-25T23:35:47Z</time>
			</trkpt>
			<trkpt lat="42.987261" lon="-1.499635">
				<ele>878</ele>
				<time>2019-11-25T23:36:07Z</time>
			</trkpt>
			<trkpt lat="42.987149" lon="-1.499811">
				<ele>878</ele>
				<time>2019-11-25T23:36:27Z</time>
			</trkpt>
			<trkpt lat="42.987079" lon="-1.500024">
				<ele>851</ele>
				<time>2019-11-25T23:36:47Z</time>
			</trkpt>
			<trkpt lat="42.986985" lon="-1.500214">
				<ele>851</ele>
				<time>2019-11-25T23:37:07Z</time>
			</trkpt>
			<trkpt lat="42.98691" lon="-1.50037">
				<ele>851</ele>
				<time>2019-11-25T23:37:27Z</time>
			</trkpt>
			<trkpt lat="42.986794" lon="-1.500511">
				<ele>851</ele>
				<time>2019-11-25T23:37:47Z</time>
			</trkpt>
			<trkpt lat="42.986635" lon="-1.500669">
				<ele>851</ele>
				<time>2019-11-25T23:38:07Z</time>
			</trkpt>
			<trkpt lat="42.986518" lon="-1.500833">
				<ele>851</ele>
				<time>2019-11-25T23:38:27Z</time>
			</trkpt>
			<trkpt lat="42.986415" lon="-1.501006">
				<ele>851</ele>
				<time>2019-11-25T23:38:47Z</time>
			</trkpt>
			<trkpt lat="42.986339" lon="-1.501156">
				<ele>851</ele>
				<time>2019-11-25T23:39:07Z</time>
			</trkpt>
			<trkpt lat="42.986297" lon="-1.501289">
				<ele>851</ele>
				<time>2019-11-25T23:39:27Z</time>
			</trkpt>
			<trkpt lat="42.986247" lon="-1.501326">
				<ele>851</ele>
				<time>2019-11-25T23:39:47Z</time>
			</trkpt>
			<trkpt lat="42.986124" lon="-1.501457">
				<ele>851</ele>
				<time>2019-11-25T23:40:07Z</time>
			</trkpt>
			<trkpt lat="42.985992" lon="-1.501556">
				<ele>851</ele>
				<time>2019-11-25T23:40:27Z</time>
			</trkpt>
			<trkpt lat="42.98587" lon="-1.501593">
				<ele>851</ele>
				<time>2019-11-25T23:40:47Z</time>
			</trkpt>
			<trkpt lat="42.985776" lon="-1.501681">
				<ele>851</ele>
				<time>2019-11-25T23:41:07Z</time>
			</trkpt>
			<trkpt lat="42.985702" lon="-1.501815">
				<ele>851</ele>
				<time>2019-11-25T23:41:27Z</time>
			</trkpt>
			<trkpt lat="42.98566" lon="-1.501969">
				<ele>851</ele>
				<time>2019-11-25T23:41:47Z</time>
			</trkpt>
			<trkpt lat="42.985661" lon="-1.502137">
				<ele>821</ele>
				<time>2019-11-25T23:42:07Z</time>
			</trkpt>
			<trkpt lat="42.985668" lon="-1.502284">
				<ele>821</ele>
				<time>2019-11-25T23:42:27Z</time>
			</trkpt>
			<trkpt lat="42.985663" lon="-1.502441">
				<ele>821</ele>
				<time>2019-11-25T23:42:47Z</time>
			</trkpt>
			<trkpt lat="42.985678" lon="-1.502596">
				<ele>821</ele>
				<time>2019-11-25T23:43:07Z</time>
			</trkpt>
			<trkpt lat="42.985692" lon="-1.502731">
				<ele>821</ele>
				<time>2019-11-25T23:43:27Z</time>
			</trkpt>
			<trkpt lat="42.985684" lon="-1.502935">
				<ele>821</ele>
				<time>2019-11-25T23:43:47Z</time>
			</trkpt>
			<trkpt lat="42.985663" lon="-1.503085">
				<ele>821</ele>
				<time>2019-11-25T23:44:07Z</time>
			</trkpt>
			<trkpt lat="42.985602" lon="-1.5032">
				<ele>821</ele>
				<time>2019-11-25T23:44:27Z</time>
			</trkpt>
			<trkpt lat="42.985544" lon="-1.503343">
				<ele>821</ele>
				<time>2019-11-25T23:44:47Z</time>
			</trkpt>
			<trkpt lat="42.985582" lon="-1.503495">
				<ele>821</ele>
				<time>2019-11-25T23:45:07Z</time>
			</trkpt>
			<trkpt lat="42.985617" lon="-1.503627">
				<ele>821</ele>
				<time>2019-11-25T23:45:27Z</time>
			</trkpt>
			<trkpt lat="42.985649" lon="-1.503762">
				<ele>821</ele>
				<time>2019-11-25T23:45:47Z</time>
			</trkpt>
			<trkpt lat="42.985677" lon="-1.503961">
				<ele>821</ele>
				<time>2019-11-25T23:46:07Z</time>
			</trkpt>
			<trkpt lat="42.985756" lon="-1.504182">
				<ele>818</ele>
				<time>2019-11-25T23:46:27Z</time>
			</trkpt>
			<trkpt lat="42.985826" lon="-1.50429">
				<ele>818</ele>
				<time>2019-11-25T23:46:47Z</time>
			</trkpt>
			<trkpt lat="42.985883" lon="-1.504545">
				<ele>818</ele>
				<time>2019-11-25T23:47:07Z</time>
			</trkpt>
			<trkpt lat="42.985985" lon="-1.504776">
				<ele>818</ele>
				<time>2019-11-25T23:47:27Z</time>
			</trkpt>
			<trkpt lat="42.986096" lon="-1.504973">
				<ele>818</ele>
				<time>2019-11-25T23:47:47Z</time>
			</trkpt>
			<trkpt lat="42.986201" lon="-1.505113">
				<ele>818</ele>
				<time>2019-11-25T23:48:07Z</time>
			</trkpt>
			<trkpt lat="42.986297" lon="-1.505282">
				<ele>818</ele>
				<time>2019-11-25T23:48:27Z</time>
			</trkpt>
			<trkpt lat="42.986436" lon="-1.505416">
				<ele>818</ele>
				<time>2019-11-25T23:48:47Z</time>
			</trkpt>
			<trkpt lat="42.986571" lon="-1.505538">
				<ele>818</ele>
				<time>2019-11-25T23:49:07Z</time>
			</trkpt>
			<trkpt lat="42.986699" lon="-1.505674">
				<ele>818</ele>
				<time>2019-11-25T23:49:27Z</time>
			</trkpt>
			<trkpt lat="42.986806" lon="-1.505775">
				<ele>818</ele>
				<time>2019-11-25T23:49:47Z</time>
			</trkpt>
			<trkpt lat="42.986897" lon="-1.505901">
				<ele>818</ele>
				<time>2019-11-25T23:50:07Z</time>
			</trkpt>
			<trkpt lat="42.986972" lon="-1.506013">
				<ele>818</ele>
				<time>2019-11-25T23:50:27Z</time>
			</trkpt>
			<trkpt lat="42.987078" lon="-1.506134">
				<ele>818</ele>
				<time>2019-11-25T23:50:47Z</time>
			</trkpt>
			<trkpt lat="42.987183" lon="-1.506271">
				<ele>819</ele>
				<time>2019-11-25T23:51:07Z</time>
			</trkpt>
			<trkpt lat="42.987244" lon="-1.506319">
				<ele>819</ele>
				<time>2019-11-25T23:51:27Z</time>
			</trkpt>
			<trkpt lat="42.98732" lon="-1.50626">
				<ele>819</ele>
				<time>2019-11-25T23:51:47Z</time>
			</trkpt>
			<trkpt lat="42.987465" lon="-1.506083">
				<ele>818</ele>
				<time>2019-11-25T23:52:07Z</time>
			</trkpt>
			<trkpt lat="42.98756" lon="-1.50595">
				<ele>791</ele>
				<time>2019-11-25T23:52:27Z</time>
			</trkpt>
			<trkpt lat="42.987625" lon="-1.505853">
				<ele>791</ele>
				<time>2019-11-25T23:52:47Z</time>
			</trkpt>
			<trkpt lat="42.98774" lon="-1.505786">
				<ele>791</ele>
				<time>2019-11-25T23:53:07Z</time>
			</trkpt>
			<trkpt lat="42.987878" lon="-1.505694">
				<ele>791</ele>
				<time>2019-11-25T23:53:27Z</time>
			</trkpt>
			<trkpt lat="42.98801" lon="-1.505618">
				<ele>791</ele>
				<time>2019-11-25T23:53:47Z</time>
			</trkpt>
			<trkpt lat="42.988155" lon="-1.505537">
				<ele>791</ele>
				<time>2019-11-25T23:54:07Z</time>
			</trkpt>
			<trkpt lat="42.988304" lon="-1.505473">
				<ele>791</ele>
				<time>2019-11-25T23:54:27Z</time>
			</trkpt>
			<trkpt lat="42.988457" lon="-1.505472">
				<ele>791</ele>
				<time>2019-11-25T23:54:47Z</time>
			</trkpt>
			<trkpt lat="42.988599" lon="-1.505472">
				<ele>791</ele>
				<time>2019-11-25T23:55:07Z</time>
			</trkpt>
			<trkpt lat="42.988723" lon="-1.505488">
				<ele>791</ele>
				<time>2019-11-25T23:55:27Z</time>
			</trkpt>
			<trkpt lat="42.988857" lon="-1.505501">
				<ele>791</ele>
				<time>2019-11-25T23:55:47Z</time>
			</trkpt>
			<trkpt lat="42.989003" lon="-1.505551">
				<ele>791</ele>
				<time>2019-11-25T23:56:07Z</time>
			</trkpt>
			<trkpt lat="42.989153" lon="-1.505648">
				<ele>791</ele>
				<time>2019-11-25T23:56:27Z</time>
			</trkpt>
			<trkpt lat="42.989316" lon="-1.505716">
				<ele>791</ele>
				<time>2019-11-25T23:56:47Z</time>
			</trkpt>
			<trkpt lat="42.989453" lon="-1.505833">
				<ele>791</ele>
				<time>2019-11-25T23:57:07Z</time>
			</trkpt>
			<trkpt lat="42.989584" lon="-1.505897">
				<ele>740</ele>
				<time>2019-11-25T23:57:27Z</time>
			</trkpt>
			<trkpt lat="42.989675" lon="-1.506002">
				<ele>740</ele>
				<time>2019-11-25T23:57:47Z</time>
			</trkpt>
			<trkpt lat="42.989774" lon="-1.506059">
				<ele>740</ele>
				<time>2019-11-25T23:58:07Z</time>
			</trkpt>
			<trkpt lat="42.989839" lon="-1.506177">
				<ele>740</ele>
				<time>2019-11-25T23:58:27Z</time>
			</trkpt>
			<trkpt lat="42.98989" lon="-1.506309">
				<ele>750</ele>
				<time>2019-11-25T23:58:47Z</time>
			</trkpt>
			<trkpt lat="42.989921" lon="-1.506526">
				<ele>750</ele>
				<time>2019-11-25T23:59:07Z</time>
			</trkpt>
			<trkpt lat="42.989893" lon="-1.506711">
				<ele>750</ele>
				<time>2019-11-25T23:59:27Z</time>
			</trkpt>
			<trkpt lat="42.989859" lon="-1.506877">
				<ele>750</ele>
				<time>2019-11-25T23:59:47Z</time>
			</trkpt>
			<trkpt lat="42.989828" lon="-1.507073">
				<ele>750</ele>
				<time>2019-11-26T00:00:07Z</time>
			</trkpt>
			<trkpt lat="42.98982" lon="-1.507254">
				<ele>750</ele>
				<time>2019-11-26T00:00:27Z</time>
			</trkpt>
			<trkpt lat="42.989809" lon="-1.507455">
				<ele>750</ele>
				<time>2019-11-26T00:00:47Z</time>
			</trkpt>
			<trkpt lat="42.989856" lon="-1.50765">
				<ele>750</ele>
				<time>2019-11-26T00:01:07Z</time>
			</trkpt>
			<trkpt lat="42.9899" lon="-1.507851">
				<ele>750</ele>
				<time>2019-11-26T00:01:27Z</time>
			</trkpt>
			<trkpt lat="42.989965" lon="-1.50802">
				<ele>750</ele>
				<time>2019-11-26T00:01:47Z</time>
			</trkpt>
			<trkpt lat="42.989991" lon="-1.508209">
				<ele>750</ele>
				<time>2019-11-26T00:02:07Z</time>
			</trkpt>
			<trkpt lat="42.98997" lon="-1.508392">
				<ele>732</ele>
				<time>2019-11-26T00:02:27Z</time>
			</trkpt>
			<trkpt lat="42.989896" lon="-1.508555">
				<ele>732</ele>
				<time>2019-11-26T00:02:47Z</time>
			</trkpt>
			<trkpt lat="42.989797" lon="-1.508703">
				<ele>732</ele>
				<time>2019-11-26T00:03:07Z</time>
			</trkpt>
			<trkpt lat="42.989743" lon="-1.508784">
				<ele>732</ele>
				<time>2019-11-26T00:03:27Z</time>
			</trkpt>
			<trkpt lat="42.989648" lon="-1.508961">
				<ele>732</ele>
				<time>2019-11-26T00:03:47Z</time>
			</trkpt>
			<trkpt lat="42.989586" lon="-1.509149">
				<ele>732</ele>
				<time>2019-11-26T00:04:07Z</time>
			</trkpt>
			<trkpt lat="42.989564" lon="-1.509318">
				<ele>759</ele>
				<time>2019-11-26T00:04:27Z</time>
			</trkpt>
			<trkpt lat="42.989583" lon="-1.509486">
				<ele>759</ele>
				<time>2019-11-26T00:04:47Z</time>
			</trkpt>
			<trkpt lat="42.989588" lon="-1.509666">
				<ele>732</ele>
				<time>2019-11-26T00:05:07Z</time>
			</trkpt>
			<trkpt lat="42.989627" lon="-1.509849">
				<ele>732</ele>
				<time>2019-11-26T00:05:27Z</time>
			</trkpt>
			<trkpt lat="42.989646" lon="-1.510023">
				<ele>732</ele>
				<time>2019-11-26T00:05:47Z</time>
			</trkpt>
			<trkpt lat="42.98961" lon="-1.510191">
				<ele>732</ele>
				<time>2019-11-26T00:06:07Z</time>
			</trkpt>
			<trkpt lat="42.989562" lon="-1.510397">
				<ele>759</ele>
				<time>2019-11-26T00:06:27Z</time>
			</trkpt>
			<trkpt lat="42.989465" lon="-1.510558">
				<ele>744</ele>
				<time>2019-11-26T00:06:47Z</time>
			</trkpt>
			<trkpt lat="42.989347" lon="-1.510688">
				<ele>744</ele>
				<time>2019-11-26T00:07:07Z</time>
			</trkpt>
			<trkpt lat="42.989212" lon="-1.510768">
				<ele>744</ele>
				<time>2019-11-26T00:07:27Z</time>
			</trkpt>
			<trkpt lat="42.989074" lon="-1.510778">
				<ele>744</ele>
				<time>2019-11-26T00:07:47Z</time>
			</trkpt>
			<trkpt lat="42.988946" lon="-1.510727">
				<ele>744</ele>
				<time>2019-11-26T00:08:07Z</time>
			</trkpt>
			<trkpt lat="42.988832" lon="-1.510676">
				<ele>744</ele>
				<time>2019-11-26T00:08:27Z</time>
			</trkpt>
			<trkpt lat="42.988732" lon="-1.510633">
				<ele>744</ele>
				<time>2019-11-26T00:08:47Z</time>
			</trkpt>
			<trkpt lat="42.988598" lon="-1.510658">
				<ele>744</ele>
				<time>2019-11-26T00:09:07Z</time>
			</trkpt>
			<trkpt lat="42.988507" lon="-1.510736">
				<ele>744</ele>
				<time>2019-11-26T00:09:27Z</time>
			</trkpt>
			<trkpt lat="42.988447" lon="-1.510701">
				<ele>744</ele>
				<time>2019-11-26T00:09:47Z</time>
			</trkpt>
			<trkpt lat="42.988403" lon="-1.510624">
				<ele>744</ele>
				<time>2019-11-26T00:10:07Z</time>
			</trkpt>
			<trkpt lat="42.988309" lon="-1.510514">
				<ele>744</ele>
				<time>2019-11-26T00:10:27Z</time>
			</trkpt>
			<trkpt lat="42.988247" lon="-1.510422">
				<ele>744</ele>
				<time>2019-11-26T00:10:47Z</time>
			</trkpt>
			<trkpt lat="42.988141" lon="-1.51037">
				<ele>759</ele>
				<time>2019-11-26T00:11:07Z</time>
			</trkpt>
			<trkpt lat="42.988025" lon="-1.510346">
				<ele>759</ele>
				<time>2019-11-26T00:11:27Z</time>
			</trkpt>
			<trkpt lat="42.987903" lon="-1.510398">
				<ele>759</ele>
				<time>2019-11-26T00:11:47Z</time>
			</trkpt>
			<trkpt lat="42.987787" lon="-1.510478">
				<ele>744</ele>
				<time>2019-11-26T00:12:07Z</time>
			</trkpt>
			<trkpt lat="42.987665" lon="-1.510597">
				<ele>744</ele>
				<time>2019-11-26T00:12:27Z</time>
			</trkpt>
			<trkpt lat="42.987571" lon="-1.510736">
				<ele>744</ele>
				<time>2019-11-26T00:12:47Z</time>
			</trkpt>
			<trkpt lat="42.987475" lon="-1.510878">
				<ele>746</ele>
				<time>2019-11-26T00:13:07Z</time>
			</trkpt>
			<trkpt lat="42.987377" lon="-1.51101">
				<ele>746</ele>
				<time>2019-11-26T00:13:27Z</time>
			</trkpt>
			<trkpt lat="42.987279" lon="-1.51115">
				<ele>746</ele>
				<time>2019-11-26T00:13:47Z</time>
			</trkpt>
			<trkpt lat="42.987186" lon="-1.51133">
				<ele>746</ele>
				<time>2019-11-26T00:14:07Z</time>
			</trkpt>
			<trkpt lat="42.987074" lon="-1.511525">
				<ele>746</ele>
				<time>2019-11-26T00:14:27Z</time>
			</trkpt>
			<trkpt lat="42.986994" lon="-1.511709">
				<ele>746</ele>
				<time>2019-11-26T00:14:47Z</time>
			</trkpt>
			<trkpt lat="42.986918" lon="-1.511839">
				<ele>746</ele>
				<time>2019-11-26T00:15:07Z</time>
			</trkpt>
			<trkpt lat="42.986838" lon="-1.511985">
				<ele>746</ele>
				<time>2019-11-26T00:15:27Z</time>
			</trkpt>
			<trkpt lat="42.986733" lon="-1.512134">
				<ele>746</ele>
				<time>2019-11-26T00:15:47Z</time>
			</trkpt>
			<trkpt lat="42.986606" lon="-1.512247">
				<ele>746</ele>
				<time>2019-11-26T00:16:07Z</time>
			</trkpt>
			<trkpt lat="42.986476" lon="-1.512343">
				<ele>746</ele>
				<time>2019-11-26T00:16:27Z</time>
			</trkpt>
			<trkpt lat="42.986343" lon="-1.512452">
				<ele>746</ele>
				<time>2019-11-26T00:16:47Z</time>
			</trkpt>
			<trkpt lat="42.986215" lon="-1.512547">
				<ele>668</ele>
				<time>2019-11-26T00:17:07Z</time>
			</trkpt>
			<trkpt lat="42.986084" lon="-1.512623">
				<ele>668</ele>
				<time>2019-11-26T00:17:27Z</time>
			</trkpt>
			<trkpt lat="42.985954" lon="-1.512674">
				<ele>668</ele>
				<time>2019-11-26T00:17:47Z</time>
			</trkpt>
			<trkpt lat="42.985816" lon="-1.512746">
				<ele>668</ele>
				<time>2019-11-26T00:18:07Z</time>
			</trkpt>
			<trkpt lat="42.985741" lon="-1.512794">
				<ele>668</ele>
				<time>2019-11-26T00:18:27Z</time>
			</trkpt>
			<trkpt lat="42.985669" lon="-1.512804">
				<ele>668</ele>
				<time>2019-11-26T00:18:47Z</time>
			</trkpt>
			<trkpt lat="42.985525" lon="-1.512835">
				<ele>668</ele>
				<time>2019-11-26T00:19:07Z</time>
			</trkpt>
			<trkpt lat="42.985403" lon="-1.512881">
				<ele>664</ele>
				<time>2019-11-26T00:19:27Z</time>
			</trkpt>
			<trkpt lat="42.985279" lon="-1.512901">
				<ele>664</ele>
				<time>2019-11-26T00:19:47Z</time>
			</trkpt>
			<trkpt lat="42.985129" lon="-1.512933">
				<ele>664</ele>
				<time>2019-11-26T00:20:07Z</time>
			</trkpt>
			<trkpt lat="42.984989" lon="-1.512945">
				<ele>664</ele>
				<time>2019-11-26T00:20:27Z</time>
			</trkpt>
			<trkpt lat="42.984861" lon="-1.512984">
				<ele>664</ele>
				<time>2019-11-26T00:20:47Z</time>
			</trkpt>
			<trkpt lat="42.984749" lon="-1.513014">
				<ele>664</ele>
				<time>2019-11-26T00:21:07Z</time>
			</trkpt>
			<trkpt lat="42.984626" lon="-1.513027">
				<ele>664</ele>
				<time>2019-11-26T00:21:27Z</time>
			</trkpt>
			<trkpt lat="42.9845" lon="-1.513037">
				<ele>664</ele>
				<time>2019-11-26T00:21:47Z</time>
			</trkpt>
			<trkpt lat="42.984371" lon="-1.513059">
				<ele>664</ele>
				<time>2019-11-26T00:22:07Z</time>
			</trkpt>
			<trkpt lat="42.984245" lon="-1.513064">
				<ele>664</ele>
				<time>2019-11-26T00:22:27Z</time>
			</trkpt>
			<trkpt lat="42.984132" lon="-1.513042">
				<ele>664</ele>
				<time>2019-11-26T00:22:47Z</time>
			</trkpt>
			<trkpt lat="42.984027" lon="-1.513014">
				<ele>664</ele>
				<time>2019-11-26T00:23:07Z</time>
			</trkpt>
			<trkpt lat="42.983935" lon="-1.512943">
				<ele>664</ele>
				<time>2019-11-26T00:23:27Z</time>
			</trkpt>
			<trkpt lat="42.983861" lon="-1.512838">
				<ele>664</ele>
				<time>2019-11-26T00:23:47Z</time>
			</trkpt>
			<trkpt lat="42.983796" lon="-1.512703">
				<ele>664</ele>
				<time>2019-11-26T00:24:07Z</time>
			</trkpt>
			<trkpt lat="42.983719" lon="-1.512634">
				<ele>664</ele>
				<time>2019-11-26T00:24:27Z</time>
			</trkpt>
			<trkpt lat="42.983657" lon="-1.512584">
				<ele>664</ele>
				<time>2019-11-26T00:24:47Z</time>
			</trkpt>
			<trkpt lat="42.983594" lon="-1.512642">
				<ele>664</ele>
				<time>2019-11-26T00:25:07Z</time>
			</trkpt>
			<trkpt lat="42.983552" lon="-1.512765">
				<ele>664</ele>
				<time>2019-11-26T00:25:27Z</time>
			</trkpt>
			<trkpt lat="42.983521" lon="-1.512913">
				<ele>664</ele>
				<time>2019-11-26T00:25:47Z</time>
			</trkpt>
			<trkpt lat="42.983431" lon="-1.513189">
				<ele>664</ele>
				<time>2019-11-26T00:26:07Z</time>
			</trkpt>
			<trkpt lat="42.983334" lon="-1.513315">
				<ele>664</ele>
				<time>2019-11-26T00:26:27Z</time>
			</trkpt>
			<trkpt lat="42.983233" lon="-1.513464">
				<ele>636</ele>
				<time>2019-11-26T00:26:47Z</time>
			</trkpt>
			<trkpt lat="42.983135" lon="-1.513628">
				<ele>636</ele>
				<time>2019-11-26T00:27:07Z</time>
			</trkpt>
			<trkpt lat="42.983044" lon="-1.513818">
				<ele>636</ele>
				<time>2019-11-26T00:27:27Z</time>
			</trkpt>
			<trkpt lat="42.982933" lon="-1.513959">
				<ele>636</ele>
				<time>2019-11-26T00:27:47Z</time>
			</trkpt>
			<trkpt lat="42.982844" lon="-1.514049">
				<ele>636</ele>
				<time>2019-11-26T00:28:07Z</time>
			</trkpt>
			<trkpt lat="42.982796" lon="-1.51407">
				<ele>636</ele>
				<time>2019-11-26T00:28:27Z</time>
			</trkpt>
			<trkpt lat="42.982732" lon="-1.514069">
				<ele>636</ele>
				<time>2019-11-26T00:28:47Z</time>
			</trkpt>
			<trkpt lat="42.982655" lon="-1.513992">
				<ele>636</ele>
				<time>2019-11-26T00:29:07Z</time>
			</trkpt>
			<trkpt lat="42.982569" lon="-1.51389">
				<ele>636</ele>
				<time>2019-11-26T00:29:27Z</time>
			</trkpt>
			<trkpt lat="42.982486" lon="-1.513757">
				<ele>636</ele>
				<time>2019-11-26T00:29:47Z</time>
			</trkpt>
			<trkpt lat="42.982406" lon="-1.513647">
				<ele>636</ele>
				<time>2019-11-26T00:30:07Z</time>
			</trkpt>
			<trkpt lat="42.982309" lon="-1.513576">
				<ele>636</ele>
				<time>2019-11-26T00:30:27Z</time>
			</trkpt>
			<trkpt lat="42.982208" lon="-1.513515">
				<ele>636</ele>
				<time>2019-11-26T00:30:47Z</time>
			</trkpt>
			<trkpt lat="42.982109" lon="-1.51343">
				<ele>636</ele>
				<time>2019-11-26T00:31:07Z</time>
			</trkpt>
			<trkpt lat="42.982017" lon="-1.513329">
				<ele>636</ele>
				<time>2019-11-26T00:31:27Z</time>
			</trkpt>
			<trkpt lat="42.981925" lon="-1.513244">
				<ele>636</ele>
				<time>2019-11-26T00:31:47Z</time>
			</trkpt>
			<trkpt lat="42.981843" lon="-1.513166">
				<ele>636</ele>
				<time>2019-11-26T00:32:07Z</time>
			</trkpt>
			<trkpt lat="42.981735" lon="-1.513062">
				<ele>636</ele>
				<time>2019-11-26T00:32:27Z</time>
			</trkpt>
			<trkpt lat="42.981649" lon="-1.512957">
				<ele>636</ele>
				<time>2019-11-26T00:32:47Z</time>
			</trkpt>
			<trkpt lat="42.981578" lon="-1.512859">
				<ele>636</ele>
				<time>2019-11-26T00:33:07Z</time>
			</trkpt>
			<trkpt lat="42.981496" lon="-1.512773">
				<ele>636</ele>
				<time>2019-11-26T00:33:27Z</time>
			</trkpt>
			<trkpt lat="42.981428" lon="-1.512808">
				<ele>636</ele>
				<time>2019-11-26T00:33:47Z</time>
			</trkpt>
			<trkpt lat="42.981339" lon="-1.512813">
				<ele>636</ele>
				<time>2019-11-26T00:34:07Z</time>
			</trkpt>
			<trkpt lat="42.981234" lon="-1.512747">
				<ele>630</ele>
				<time>2019-11-26T00:34:27Z</time>
			</trkpt>
			<trkpt lat="42.981106" lon="-1.512732">
				<ele>630</ele>
				<time>2019-11-26T00:34:47Z</time>
			</trkpt>
			<trkpt lat="42.981013" lon="-1.512755">
				<ele>630</ele>
				<time>2019-11-26T00:35:07Z</time>
			</trkpt>
			<trkpt lat="42.980922" lon="-1.51276">
				<ele>630</ele>
				<time>2019-11-26T00:35:27Z</time>
			</trkpt>
			<trkpt lat="42.980796" lon="-1.512718">
				<ele>630</ele>
				<time>2019-11-26T00:35:47Z</time>
			</trkpt>
			<trkpt lat="42.980703" lon="-1.512628">
				<ele>630</ele>
				<time>2019-11-26T00:36:07Z</time>
			</trkpt>
			<trkpt lat="42.980643" lon="-1.51252">
				<ele>630</ele>
				<time>2019-11-26T00:36:27Z</time>
			</trkpt>
			<trkpt lat="42.980605" lon="-1.512393">
				<ele>636</ele>
				<time>2019-11-26T00:36:47Z</time>
			</trkpt>
			<trkpt lat="42.980578" lon="-1.512253">
				<ele>636</ele>
				<time>2019-11-26T00:37:07Z</time>
			</trkpt>
			<trkpt lat="42.980537" lon="-1.512116">
				<ele>636</ele>
				<time>2019-11-26T00:37:27Z</time>
			</trkpt>
			<trkpt lat="42.980437" lon="-1.511959">
				<ele>636</ele>
				<time>2019-11-26T00:37:47Z</time>
			</trkpt>
			<trkpt lat="42.980345" lon="-1.511945">
				<ele>636</ele>
				<time>2019-11-26T00:38:07Z</time>
			</trkpt>
			<trkpt lat="42.980224" lon="-1.511996">
				<ele>636</ele>
				<time>2019-11-26T00:38:27Z</time>
			</trkpt>
			<trkpt lat="42.980106" lon="-1.512003">
				<ele>636</ele>
				<time>2019-11-26T00:38:47Z</time>
			</trkpt>
			<trkpt lat="42.980011" lon="-1.511894">
				<ele>636</ele>
				<time>2019-11-26T00:39:07Z</time>
			</trkpt>
			<trkpt lat="42.979897" lon="-1.511832">
				<ele>636</ele>
				<time>2019-11-26T00:39:27Z</time>
			</trkpt>
			<trkpt lat="42.979811" lon="-1.511712">
				<ele>636</ele>
				<time>2019-11-26T00:39:47Z</time>
			</trkpt>
			<trkpt lat="42.979758" lon="-1.511687">
				<ele>636</ele>
				<time>2019-11-26T00:40:07Z</time>
			</trkpt>
			<trkpt lat="42.97972" lon="-1.511608">
				<ele>636</ele>
				<time>2019-11-26T00:40:27Z</time>
			</trkpt>
			<trkpt lat="42.979635" lon="-1.511509">
				<ele>636</ele>
				<time>2019-11-26T00:40:47Z</time>
			</trkpt>
			<trkpt lat="42.97955" lon="-1.511439">
				<ele>636</ele>
				<time>2019-11-26T00:41:07Z</time>
			</trkpt>
			<trkpt lat="42.979462" lon="-1.511405">
				<ele>636</ele>
				<time>2019-11-26T00:41:27Z</time>
			</trkpt>
			<trkpt lat="42.97937" lon="-1.511434">
				<ele>636</ele>
				<time>2019-11-26T00:41:47Z</time>
			</trkpt>
			<trkpt lat="42.979292" lon="-1.511517">
				<ele>636</ele>
				<time>2019-11-26T00:42:07Z</time>
			</trkpt>
			<trkpt lat="42.979223" lon="-1.511616">
				<ele>636</ele>
				<time>2019-11-26T00:42:27Z</time>
			</trkpt>
			<trkpt lat="42.979172" lon="-1.511741">
				<ele>636</ele>
				<time>2019-11-26T00:42:47Z</time>
			</trkpt>
			<trkpt lat="42.979118" lon="-1.511857">
				<ele>630</ele>
				<time>2019-11-26T00:43:07Z</time>
			</trkpt>
			<trkpt lat="42.979032" lon="-1.511963">
				<ele>630</ele>
				<time>2019-11-26T00:43:27Z</time>
			</trkpt>
			<trkpt lat="42.978952" lon="-1.512043">
				<ele>630</ele>
				<time>2019-11-26T00:43:47Z</time>
			</trkpt>
			<trkpt lat="42.978851" lon="-1.512043">
				<ele>630</ele>
				<time>2019-11-26T00:44:07Z</time>
			</trkpt>
			<trkpt lat="42.978752" lon="-1.512045">
				<ele>630</ele>
				<time>2019-11-26T00:44:27Z</time>
			</trkpt>
			<trkpt lat="42.978649" lon="-1.511992">
				<ele>630</ele>
				<time>2019-11-26T00:44:47Z</time>
			</trkpt>
			<trkpt lat="42.978629" lon="-1.511831">
				<ele>630</ele>
				<time>2019-11-26T00:45:07Z</time>
			</trkpt>
			<trkpt lat="42.978647" lon="-1.511675">
				<ele>630</ele>
				<time>2019-11-26T00:45:27Z</time>
			</trkpt>
			<trkpt lat="42.978681" lon="-1.511541">
				<ele>630</ele>
				<time>2019-11-26T00:45:47Z</time>
			</trkpt>
			<trkpt lat="42.978697" lon="-1.511395">
				<ele>630</ele>
				<time>2019-11-26T00:46:07Z</time>
			</trkpt>
			<trkpt lat="42.978728" lon="-1.511256">
				<ele>630</ele>
				<time>2019-11-26T00:46:27Z</time>
			</trkpt>
			<trkpt lat="42.978704" lon="-1.511132">
				<ele>630</ele>
				<time>2019-11-26T00:46:47Z</time>
			</trkpt>
			<trkpt lat="42.978668" lon="-1.511002">
				<ele>630</ele>
				<time>2019-11-26T00:47:07Z</time>
			</trkpt>
			<trkpt lat="42.978648" lon="-1.510885">
				<ele>630</ele>
				<time>2019-11-26T00:47:27Z</time>
			</trkpt>
			<trkpt lat="42.978632" lon="-1.510745">
				<ele>630</ele>
				<time>2019-11-26T00:47:47Z</time>
			</trkpt>
			<trkpt lat="42.978631" lon="-1.510607">
				<ele>630</ele>
				<time>2019-11-26T00:48:07Z</time>
			</trkpt>
			<trkpt lat="42.978625" lon="-1.510441">
				<ele>630</ele>
				<time>2019-11-26T00:48:27Z</time>
			</trkpt>
			<trkpt lat="42.978603" lon="-1.510291">
				<ele>629</ele>
				<time>2019-11-26T00:48:47Z</time>
			</trkpt>
			<trkpt lat="42.978582" lon="-1.510143">
				<ele>629</ele>
				<time>2019-11-26T00:49:07Z</time>
			</trkpt>
			<trkpt lat="42.978564" lon="-1.509989">
				<ele>629</ele>
				<time>2019-11-26T00:49:27Z</time>
			</trkpt>
			<trkpt lat="42.978542" lon="-1.509821">
				<ele>629</ele>
				<time>2019-11-26T00:49:47Z</time>
			</trkpt>
			<trkpt lat="42.978535" lon="-1.509662">
				<ele>629</ele>
				<time>2019-11-26T00:50:07Z</time>
			</trkpt>
			<trkpt lat="42.978546" lon="-1.509504">
				<ele>629</ele>
				<time>2019-11-26T00:50:27Z</time>
			</trkpt>
			<trkpt lat="42.978568" lon="-1.509349">
				<ele>629</ele>
				<time>2019-11-26T00:50:47Z</time>
			</trkpt>
			<trkpt lat="42.97859" lon="-1.509214">
				<ele>629</ele>
				<time>2019-11-26T00:51:07Z</time>
			</trkpt>
			<trkpt lat="42.978625" lon="-1.509087">
				<ele>629</ele>
				<time>2019-11-26T00:51:27Z</time>
			</trkpt>
			<trkpt lat="42.978662" lon="-1.508973">
				<ele>629</ele>
				<time>2019-11-26T00:51:47Z</time>
			</trkpt>
			<trkpt lat="42.978692" lon="-1.508829">
				<ele>629</ele>
				<time>2019-11-26T00:52:07Z</time>
			</trkpt>
			<trkpt lat="42.978716" lon="-1.508682">
				<ele>629</ele>
				<time>2019-11-26T00:52:27Z</time>
			</trkpt>
			<trkpt lat="42.97873" lon="-1.508547">
				<ele>629</ele>
				<time>2019-11-26T00:52:47Z</time>
			</trkpt>
			<trkpt lat="42.978738" lon="-1.508382">
				<ele>629</ele>
				<time>2019-11-26T00:53:07Z</time>
			</trkpt>
			<trkpt lat="42.978722" lon="-1.50823">
				<ele>640</ele>
				<time>2019-11-26T00:53:27Z</time>
			</trkpt>
			<trkpt lat="42.97869" lon="-1.508099">
				<ele>640</ele>
				<time>2019-11-26T00:53:47Z</time>
			</trkpt>
			<trkpt lat="42.978646" lon="-1.507974">
				<ele>640</ele>
				<time>2019-11-26T00:54:07Z</time>
			</trkpt>
			<trkpt lat="42.978581" lon="-1.507876">
				<ele>640</ele>
				<time>2019-11-26T00:54:27Z</time>
			</trkpt>
			<trkpt lat="42.978515" lon="-1.507766">
				<ele>640</ele>
				<time>2019-11-26T00:54:47Z</time>
			</trkpt>
			<trkpt lat="42.978441" lon="-1.50766">
				<ele>640</ele>
				<time>2019-11-26T00:55:07Z</time>
			</trkpt>
			<trkpt lat="42.978363" lon="-1.507551">
				<ele>640</ele>
				<time>2019-11-26T00:55:27Z</time>
			</trkpt>
			<trkpt lat="42.978298" lon="-1.507413">
				<ele>640</ele>
				<time>2019-11-26T00:55:47Z</time>
			</trkpt>
			<trkpt lat="42.978255" lon="-1.507286">
				<ele>640</ele>
				<time>2019-11-26T00:56:07Z</time>
			</trkpt>
			<trkpt lat="42.978209" lon="-1.507156">
				<ele>640</ele>
				<time>2019-11-26T00:56:27Z</time>
			</trkpt>
			<trkpt lat="42.978179" lon="-1.507032">
				<ele>640</ele>
				<time>2019-11-26T00:56:47Z</time>
			</trkpt>
			<trkpt lat="42.978144" lon="-1.506912">
				<ele>640</ele>
				<time>2019-11-26T00:57:07Z</time>
			</trkpt>
			<trkpt lat="42.978102" lon="-1.506783">
				<ele>640</ele>
				<time>2019-11-26T00:57:27Z</time>
			</trkpt>
			<trkpt lat="42.978057" lon="-1.506658">
				<ele>640</ele>
				<time>2019-11-26T00:57:47Z</time>
			</trkpt>
			<trkpt lat="42.977965" lon="-1.506599">
				<ele>640</ele>
				<time>2019-11-26T00:58:07Z</time>
			</trkpt>
			<trkpt lat="42.977905" lon="-1.506573">
				<ele>640</ele>
				<time>2019-11-26T00:58:27Z</time>
			</trkpt>
		</trkseg>
	</trk>
</gpx>
